<?xml version='1.0' encoding='UTF-8'?><gpx version="1.1" creator="JPX - https://github.com/jenetics/jpx" xmlns="http://www.topografix.com/GPX/1/1"><trk><trkseg><trkpt lat="40.3937523805084" lon="18.018153371651707"><ele>31.0</ele><time>2026-03-22T07:53:34Z</time></trkpt><trkpt lat="40.39369620910028" lon="18.018230564882902"><ele>31.0</ele><time>2026-03-22T07:53:35Z</time></trkpt><trkpt lat="40.39361370881919" lon="18.01821856957446"><ele>31.0</ele><time>2026-03-22T07:53:38Z</time></trkpt><trkpt lat="40.39355253358409" lon="18.01809509570374"><ele>31.0</ele><time>2026-03-22T07:53:40Z</time></trkpt><trkpt lat="40.393539512990046" lon="18.017956718615345"><ele>31.0</ele><time>2026-03-22T07:53:41Z</time></trkpt><trkpt lat="40.393526846166544" lon="18.017853149653117"><ele>31.0</ele><time>2026-03-22T07:53:42Z</time></trkpt><trkpt lat="40.393540153564466" lon="18.017727480852567"><ele>31.0</ele><time>2026-03-22T07:53:43Z</time></trkpt><trkpt lat="40.393535497958396" lon="18.017593483443317"><ele>31.0</ele><time>2026-03-22T07:53:44Z</time></trkpt><trkpt lat="40.393512074752906" lon="18.017404862823074"><ele>31.0</ele><time>2026-03-22T07:53:45Z</time></trkpt><trkpt lat="40.39347334336802" lon="18.017251657440855"><ele>31.25</ele><time>2026-03-22T07:53:46Z</time></trkpt><trkpt lat="40.39344706935429" lon="18.017067158691656"><ele>31.5</ele><time>2026-03-22T07:53:47Z</time></trkpt><trkpt lat="40.39342556160581" lon="18.0168917736587"><ele>31.75</ele><time>2026-03-22T07:53:48Z</time></trkpt><trkpt lat="40.39340944477622" lon="18.016720163547415"><ele>32.0</ele><time>2026-03-22T07:53:49Z</time></trkpt><trkpt lat="40.39339307271822" lon="18.01655494438615"><ele>32.5</ele><time>2026-03-22T07:53:50Z</time></trkpt><trkpt lat="40.393374105832855" lon="18.016385988269853"><ele>33.0</ele><time>2026-03-22T07:53:51Z</time></trkpt><trkpt lat="40.39335085850697" lon="18.016223012062895"><ele>33.5</ele><time>2026-03-22T07:53:52Z</time></trkpt><trkpt lat="40.39333597331423" lon="18.01606471221317"><ele>34.0</ele><time>2026-03-22T07:53:53Z</time></trkpt><trkpt lat="40.3933254214368" lon="18.015939875054876"><ele>34.0</ele><time>2026-03-22T07:53:53.999Z</time></trkpt><trkpt lat="40.393315073332495" lon="18.015825519116568"><ele>34.0</ele><time>2026-03-22T07:53:56.999Z</time></trkpt><trkpt lat="40.393291565615215" lon="18.015678612502377"><ele>34.0</ele><time>2026-03-22T07:53:58.999Z</time></trkpt><trkpt lat="40.39327634411125" lon="18.015572370212375"><ele>34.0</ele><time>2026-03-22T07:53:59.999Z</time></trkpt><trkpt lat="40.393263087320165" lon="18.015453944676324"><ele>34.0</ele><time>2026-03-22T07:54:00.999Z</time></trkpt><trkpt lat="40.393246314042926" lon="18.015321962565995"><ele>34.0</ele><time>2026-03-22T07:54:01.999Z</time></trkpt><trkpt lat="40.39322280020214" lon="18.015173157654473"><ele>34.0</ele><time>2026-03-22T07:54:02.999Z</time></trkpt><trkpt lat="40.393181104676316" lon="18.015009079588868"><ele>34.0</ele><time>2026-03-22T07:54:03.999Z</time></trkpt><trkpt lat="40.393117133667715" lon="18.014841656558342"><ele>34.0</ele><time>2026-03-22T07:54:04.999Z</time></trkpt><trkpt lat="40.39303962503589" lon="18.01468786247847"><ele>33.75</ele><time>2026-03-22T07:54:05.999Z</time></trkpt><trkpt lat="40.39294646724018" lon="18.014550275526044"><ele>33.5</ele><time>2026-03-22T07:54:06.999Z</time></trkpt><trkpt lat="40.39283550679181" lon="18.0144369402483"><ele>33.25</ele><time>2026-03-22T07:54:07.999Z</time></trkpt><trkpt lat="40.39271568296597" lon="18.0143423440357"><ele>33.0</ele><time>2026-03-22T07:54:08.999Z</time></trkpt><trkpt lat="40.39258477814402" lon="18.014274960426114"><ele>33.0</ele><time>2026-03-22T07:54:09.999Z</time></trkpt><trkpt lat="40.39244215532939" lon="18.014221941079942"><ele>33.0</ele><time>2026-03-22T07:54:10.999Z</time></trkpt><trkpt lat="40.39229496439482" lon="18.01417813555389"><ele>33.0</ele><time>2026-03-22T07:54:11.999Z</time></trkpt><trkpt lat="40.39214670097418" lon="18.01412737300195"><ele>32.0</ele><time>2026-03-22T07:54:12.999Z</time></trkpt><trkpt lat="40.3919971034121" lon="18.014071405928576"><ele>31.0</ele><time>2026-03-22T07:54:13.999Z</time></trkpt><trkpt lat="40.39184345413628" lon="18.014018644510916"><ele>30.0</ele><time>2026-03-22T07:54:14.999Z</time></trkpt><trkpt lat="40.39167879106921" lon="18.01395258373832"><ele>30.0</ele><time>2026-03-22T07:54:15.999Z</time></trkpt><trkpt lat="40.39151552650763" lon="18.01389023880718"><ele>30.0</ele><time>2026-03-22T07:54:16.999Z</time></trkpt><trkpt lat="40.39135729913545" lon="18.01382891427515"><ele>30.0</ele><time>2026-03-22T07:54:17.999Z</time></trkpt><trkpt lat="40.39119284416096" lon="18.013764730781762"><ele>29.666666666666664</ele><time>2026-03-22T07:54:18.999Z</time></trkpt><trkpt lat="40.39102393504281" lon="18.013699553906914"><ele>29.333333333333332</ele><time>2026-03-22T07:54:19.999Z</time></trkpt><trkpt lat="40.39085422104993" lon="18.013637460120567"><ele>29.0</ele><time>2026-03-22T07:54:20.999Z</time></trkpt><trkpt lat="40.39068210778725" lon="18.013572383802746"><ele>29.0</ele><time>2026-03-22T07:54:21.999Z</time></trkpt><trkpt lat="40.390506251420625" lon="18.013508936309318"><ele>29.0</ele><time>2026-03-22T07:54:22.999Z</time></trkpt><trkpt lat="40.39032612911417" lon="18.01344393033963"><ele>29.0</ele><time>2026-03-22T07:54:23.999Z</time></trkpt><trkpt lat="40.39014746096762" lon="18.013378178038767"><ele>29.333333333333332</ele><time>2026-03-22T07:54:24.999Z</time></trkpt><trkpt lat="40.38996268584012" lon="18.013309536153994"><ele>29.666666666666664</ele><time>2026-03-22T07:54:25.999Z</time></trkpt><trkpt lat="40.389779355017936" lon="18.01323890559265"><ele>30.0</ele><time>2026-03-22T07:54:26.999Z</time></trkpt><trkpt lat="40.389593474012614" lon="18.013175696233326"><ele>30.0</ele><time>2026-03-22T07:54:27.999Z</time></trkpt><trkpt lat="40.38940895021748" lon="18.013109715551167"><ele>30.0</ele><time>2026-03-22T07:54:28.999Z</time></trkpt><trkpt lat="40.38922884197802" lon="18.013040610973796"><ele>30.0</ele><time>2026-03-22T07:54:29.999Z</time></trkpt><trkpt lat="40.389046807612765" lon="18.012974406603924"><ele>30.0</ele><time>2026-03-22T07:54:30.999Z</time></trkpt><trkpt lat="40.38886950272894" lon="18.01290748134164"><ele>30.0</ele><time>2026-03-22T07:54:31.999Z</time></trkpt><trkpt lat="40.38869284214596" lon="18.01283851845051"><ele>30.0</ele><time>2026-03-22T07:54:32.999Z</time></trkpt><trkpt lat="40.38851475687914" lon="18.01277619968086"><ele>31.0</ele><time>2026-03-22T07:54:33.999Z</time></trkpt><trkpt lat="40.38833965042196" lon="18.012706977872643"><ele>32.0</ele><time>2026-03-22T07:54:34.999Z</time></trkpt><trkpt lat="40.38815982540176" lon="18.0126464492404"><ele>33.0</ele><time>2026-03-22T07:54:35.999Z</time></trkpt><trkpt lat="40.387981908987804" lon="18.01257630531168"><ele>33.0</ele><time>2026-03-22T07:54:36.999Z</time></trkpt><trkpt lat="40.387808515246945" lon="18.012502361765545"><ele>33.0</ele><time>2026-03-22T07:54:37.999Z</time></trkpt><trkpt lat="40.38763850037956" lon="18.012416807064287"><ele>33.0</ele><time>2026-03-22T07:54:38.999Z</time></trkpt><trkpt lat="40.387483803768895" lon="18.012297946943804"><ele>33.0</ele><time>2026-03-22T07:54:39.999Z</time></trkpt><trkpt lat="40.38732611116365" lon="18.012195513235955"><ele>33.0</ele><time>2026-03-22T07:54:40.999Z</time></trkpt><trkpt lat="40.387196071182785" lon="18.0120501549025"><ele>33.0</ele><time>2026-03-22T07:54:41.999Z</time></trkpt><trkpt lat="40.38706163862233" lon="18.011927862343796"><ele>33.0</ele><time>2026-03-22T07:54:42.999Z</time></trkpt><trkpt lat="40.386937536902" lon="18.01178755996403"><ele>33.0</ele><time>2026-03-22T07:54:43.999Z</time></trkpt><trkpt lat="40.386799378769126" lon="18.011665732144376"><ele>33.0</ele><time>2026-03-22T07:54:44.999Z</time></trkpt><trkpt lat="40.38665336012217" lon="18.011565517689686"><ele>32.666666666666664</ele><time>2026-03-22T07:54:45.999Z</time></trkpt><trkpt lat="40.386499842157875" lon="18.011480283748174"><ele>32.33333333333333</ele><time>2026-03-22T07:54:46.999Z</time></trkpt><trkpt lat="40.38634289552064" lon="18.011413636277734"><ele>32.0</ele><time>2026-03-22T07:54:47.999Z</time></trkpt><trkpt lat="40.3861941887792" lon="18.011367444905446"><ele>32.0</ele><time>2026-03-22T07:54:48.998Z</time></trkpt><trkpt lat="40.38606197081437" lon="18.01133478171855"><ele>32.0</ele><time>2026-03-22T07:54:49.998Z</time></trkpt><trkpt lat="40.38594896854139" lon="18.011304617125298"><ele>32.0</ele><time>2026-03-22T07:54:50.998Z</time></trkpt><trkpt lat="40.385857901786515" lon="18.011263239604688"><ele>32.0</ele><time>2026-03-22T07:54:51.998Z</time></trkpt><trkpt lat="40.38577859162944" lon="18.01119846371394"><ele>32.0</ele><time>2026-03-22T07:54:52.998Z</time></trkpt><trkpt lat="40.38570922015943" lon="18.011114310157605"><ele>31.999999999999996</ele><time>2026-03-22T07:54:53.998Z</time></trkpt><trkpt lat="40.385648563095074" lon="18.011034647556095"><ele>32.0</ele><time>2026-03-22T07:54:54.998Z</time></trkpt><trkpt lat="40.385585140187224" lon="18.0109656406336"><ele>32.0</ele><time>2026-03-22T07:54:55.998Z</time></trkpt><trkpt lat="40.38551487982162" lon="18.010923205543534"><ele>32.0</ele><time>2026-03-22T07:54:56.998Z</time></trkpt><trkpt lat="40.38543945193711" lon="18.010885993339183"><ele>31.999999999999996</ele><time>2026-03-22T07:54:57.998Z</time></trkpt><trkpt lat="40.38532924620595" lon="18.010931353219842"><ele>32.0</ele><time>2026-03-22T07:54:58.998Z</time></trkpt><trkpt lat="40.3852193415485" lon="18.01097650032705"><ele>32.25</ele><time>2026-03-22T07:54:59.998Z</time></trkpt><trkpt lat="40.385104482714176" lon="18.011026288866386"><ele>32.5</ele><time>2026-03-22T07:55:00.998Z</time></trkpt><trkpt lat="40.385007032618326" lon="18.01107611676154"><ele>32.75</ele><time>2026-03-22T07:55:01.998Z</time></trkpt><trkpt lat="40.384887143581864" lon="18.01099045747173"><ele>33.0</ele><time>2026-03-22T07:55:02.998Z</time></trkpt><trkpt lat="40.384757881424186" lon="18.0109536856844"><ele>32.75</ele><time>2026-03-22T07:55:03.998Z</time></trkpt><trkpt lat="40.38462139274589" lon="18.010914858153335"><ele>32.5</ele><time>2026-03-22T07:55:04.998Z</time></trkpt><trkpt lat="40.38447290623993" lon="18.010892545075215"><ele>32.25</ele><time>2026-03-22T07:55:05.998Z</time></trkpt><trkpt lat="40.38432471633877" lon="18.01083835152466"><ele>32.0</ele><time>2026-03-22T07:55:06.998Z</time></trkpt><trkpt lat="40.38417526315783" lon="18.010794885795598"><ele>32.0</ele><time>2026-03-22T07:55:07.998Z</time></trkpt><trkpt lat="40.38402141447628" lon="18.010752066577535"><ele>32.0</ele><time>2026-03-22T07:55:08.998Z</time></trkpt><trkpt lat="40.38386535784538" lon="18.010705454043553"><ele>32.0</ele><time>2026-03-22T07:55:09.998Z</time></trkpt><trkpt lat="40.38370512199387" lon="18.010656904252823"><ele>33.0</ele><time>2026-03-22T07:55:10.998Z</time></trkpt><trkpt lat="40.38354249947517" lon="18.010600747225883"><ele>34.0</ele><time>2026-03-22T07:55:11.998Z</time></trkpt><trkpt lat="40.38338102696349" lon="18.01053416247264"><ele>35.0</ele><time>2026-03-22T07:55:12.998Z</time></trkpt><trkpt lat="40.38322087007958" lon="18.01045276108625"><ele>35.0</ele><time>2026-03-22T07:55:13.998Z</time></trkpt><trkpt lat="40.38306113305052" lon="18.010360218085737"><ele>35.0</ele><time>2026-03-22T07:55:14.998Z</time></trkpt><trkpt lat="40.382905061459" lon="18.010241199400852"><ele>35.0</ele><time>2026-03-22T07:55:15.998Z</time></trkpt><trkpt lat="40.382753612828665" lon="18.010118379517124"><ele>34.0</ele><time>2026-03-22T07:55:16.998Z</time></trkpt><trkpt lat="40.38260256364739" lon="18.009982328663423"><ele>33.0</ele><time>2026-03-22T07:55:17.998Z</time></trkpt><trkpt lat="40.382445316491946" lon="18.009842370677944"><ele>32.0</ele><time>2026-03-22T07:55:18.998Z</time></trkpt><trkpt lat="40.38228590440308" lon="18.009699545923496"><ele>30.666666666666664</ele><time>2026-03-22T07:55:19.998Z</time></trkpt><trkpt lat="40.38212679413876" lon="18.00955619362669"><ele>29.333333333333336</ele><time>2026-03-22T07:55:20.998Z</time></trkpt><trkpt lat="40.38196358680175" lon="18.00941139797132"><ele>28.0</ele><time>2026-03-22T07:55:21.998Z</time></trkpt><trkpt lat="40.38180532413528" lon="18.009271576587523"><ele>28.666666666666668</ele><time>2026-03-22T07:55:22.998Z</time></trkpt><trkpt lat="40.38164729841386" lon="18.009132248340848"><ele>29.333333333333336</ele><time>2026-03-22T07:55:23.998Z</time></trkpt><trkpt lat="40.381488012547415" lon="18.008995373172258"><ele>30.0</ele><time>2026-03-22T07:55:25Z</time></trkpt><trkpt lat="40.38132377303731" lon="18.008867117507496"><ele>31.0</ele><time>2026-03-22T07:55:26Z</time></trkpt><trkpt lat="40.38115296240353" lon="18.008755036758192"><ele>32.0</ele><time>2026-03-22T07:55:27Z</time></trkpt><trkpt lat="40.38097626723291" lon="18.00865075735369"><ele>33.0</ele><time>2026-03-22T07:55:28Z</time></trkpt><trkpt lat="40.38079680948623" lon="18.00855649778346"><ele>33.0</ele><time>2026-03-22T07:55:29Z</time></trkpt><trkpt lat="40.38061473058964" lon="18.008470152915812"><ele>33.0</ele><time>2026-03-22T07:55:30Z</time></trkpt><trkpt lat="40.380430498610416" lon="18.008394141294495"><ele>33.0</ele><time>2026-03-22T07:55:31Z</time></trkpt><trkpt lat="40.38024499646593" lon="18.008315166201758"><ele>32.333333333333336</ele><time>2026-03-22T07:55:32Z</time></trkpt><trkpt lat="40.380059890224146" lon="18.008234608877146"><ele>31.666666666666668</ele><time>2026-03-22T07:55:33Z</time></trkpt><trkpt lat="40.37988136997065" lon="18.00815615840053"><ele>31.0</ele><time>2026-03-22T07:55:34Z</time></trkpt><trkpt lat="40.379711029430766" lon="18.008078610519195"><ele>30.666666666666668</ele><time>2026-03-22T07:55:35Z</time></trkpt><trkpt lat="40.379542794716954" lon="18.00800533370664"><ele>30.333333333333336</ele><time>2026-03-22T07:55:36Z</time></trkpt><trkpt lat="40.37937591195374" lon="18.00792903785469"><ele>30.0</ele><time>2026-03-22T07:55:37Z</time></trkpt><trkpt lat="40.37921356856242" lon="18.007860761725734"><ele>30.0</ele><time>2026-03-22T07:55:38Z</time></trkpt><trkpt lat="40.37904796998584" lon="18.007788188836834"><ele>30.0</ele><time>2026-03-22T07:55:39Z</time></trkpt><trkpt lat="40.378878104003135" lon="18.00771636234433"><ele>30.0</ele><time>2026-03-22T07:55:40Z</time></trkpt><trkpt lat="40.37870888451937" lon="18.007645477943694"><ele>29.666666666666664</ele><time>2026-03-22T07:55:41Z</time></trkpt><trkpt lat="40.378537258557266" lon="18.00757315536581"><ele>29.333333333333332</ele><time>2026-03-22T07:55:42Z</time></trkpt><trkpt lat="40.37836627241713" lon="18.0074969262838"><ele>29.0</ele><time>2026-03-22T07:55:43Z</time></trkpt><trkpt lat="40.37819419715478" lon="18.007421318566703"><ele>29.0</ele><time>2026-03-22T07:55:44Z</time></trkpt><trkpt lat="40.378022845171756" lon="18.007347268255202"><ele>29.0</ele><time>2026-03-22T07:55:45Z</time></trkpt><trkpt lat="40.37784816732707" lon="18.007274168995064"><ele>29.0</ele><time>2026-03-22T07:55:46Z</time></trkpt><trkpt lat="40.377647002260716" lon="18.007197087978284"><ele>29.333333333333332</ele><time>2026-03-22T07:55:47Z</time></trkpt><trkpt lat="40.37749284225569" lon="18.00711889000634"><ele>29.666666666666664</ele><time>2026-03-22T07:55:48Z</time></trkpt><trkpt lat="40.3773107089904" lon="18.00705981864447"><ele>30.0</ele><time>2026-03-22T07:55:49Z</time></trkpt><trkpt lat="40.377128397208175" lon="18.00700713388308"><ele>30.0</ele><time>2026-03-22T07:55:50Z</time></trkpt><trkpt lat="40.37696215140202" lon="18.006959683785382"><ele>30.0</ele><time>2026-03-22T07:55:51Z</time></trkpt><trkpt lat="40.37675923078656" lon="18.00690403169245"><ele>30.0</ele><time>2026-03-22T07:55:52Z</time></trkpt><trkpt lat="40.376569267105204" lon="18.006852367510284"><ele>30.0</ele><time>2026-03-22T07:55:53Z</time></trkpt><trkpt lat="40.37637929688194" lon="18.006800167414593"><ele>30.0</ele><time>2026-03-22T07:55:54Z</time></trkpt><trkpt lat="40.37619030122093" lon="18.00674823510974"><ele>30.0</ele><time>2026-03-22T07:55:55Z</time></trkpt><trkpt lat="40.37599421074753" lon="18.00672538966276"><ele>30.666666666666664</ele><time>2026-03-22T07:55:56Z</time></trkpt><trkpt lat="40.375801077291" lon="18.006670851141834"><ele>31.333333333333332</ele><time>2026-03-22T07:55:57Z</time></trkpt><trkpt lat="40.37560677539791" lon="18.006650338719147"><ele>32.0</ele><time>2026-03-22T07:55:58Z</time></trkpt><trkpt lat="40.37540822162469" lon="18.00663930567709"><ele>32.0</ele><time>2026-03-22T07:55:59Z</time></trkpt><trkpt lat="40.37521089595792" lon="18.00663771799168"><ele>32.0</ele><time>2026-03-22T07:56:00Z</time></trkpt><trkpt lat="40.37501090087297" lon="18.006647004258536"><ele>32.0</ele><time>2026-03-22T07:56:01Z</time></trkpt><trkpt lat="40.37481294728157" lon="18.006668749165943"><ele>31.666666666666664</ele><time>2026-03-22T07:56:01.999Z</time></trkpt><trkpt lat="40.374619129380164" lon="18.00672124670741"><ele>31.333333333333336</ele><time>2026-03-22T07:56:02.999Z</time></trkpt><trkpt lat="40.37442020521379" lon="18.006762713273368"><ele>31.0</ele><time>2026-03-22T07:56:03.999Z</time></trkpt><trkpt lat="40.37422048911143" lon="18.0068063323841"><ele>31.0</ele><time>2026-03-22T07:56:04.999Z</time></trkpt><trkpt lat="40.37402086323435" lon="18.006850681948105"><ele>31.0</ele><time>2026-03-22T07:56:05.999Z</time></trkpt><trkpt lat="40.373818910912036" lon="18.006894836811647"><ele>31.0</ele><time>2026-03-22T07:56:06.999Z</time></trkpt><trkpt lat="40.37362248917474" lon="18.00694132963813"><ele>31.0</ele><time>2026-03-22T07:56:07.999Z</time></trkpt><trkpt lat="40.373419741613866" lon="18.006979455074017"><ele>31.0</ele><time>2026-03-22T07:56:08.999Z</time></trkpt><trkpt lat="40.373216527657185" lon="18.007004606732057"><ele>31.0</ele><time>2026-03-22T07:56:09.999Z</time></trkpt><trkpt lat="40.37300888419319" lon="18.007017061703625"><ele>30.333333333333336</ele><time>2026-03-22T07:56:10.999Z</time></trkpt><trkpt lat="40.37280385734351" lon="18.007019401187957"><ele>29.666666666666664</ele><time>2026-03-22T07:56:11.999Z</time></trkpt><trkpt lat="40.37260063741973" lon="18.0070117892502"><ele>29.0</ele><time>2026-03-22T07:56:12.999Z</time></trkpt><trkpt lat="40.37239542517011" lon="18.006992346976496"><ele>29.0</ele><time>2026-03-22T07:56:13.999Z</time></trkpt><trkpt lat="40.37219004891505" lon="18.006962218471642"><ele>29.0</ele><time>2026-03-22T07:56:14.999Z</time></trkpt><trkpt lat="40.37198314366351" lon="18.00692142498628"><ele>29.0</ele><time>2026-03-22T07:56:15.999Z</time></trkpt><trkpt lat="40.37177750923456" lon="18.006878125874508"><ele>29.666666666666664</ele><time>2026-03-22T07:56:16.999Z</time></trkpt><trkpt lat="40.371570629313666" lon="18.006837382689444"><ele>30.333333333333336</ele><time>2026-03-22T07:56:17.999Z</time></trkpt><trkpt lat="40.37136231723851" lon="18.00679554464275"><ele>31.0</ele><time>2026-03-22T07:56:18.999Z</time></trkpt><trkpt lat="40.37115468282341" lon="18.00675812623508"><ele>31.666666666666668</ele><time>2026-03-22T07:56:19.999Z</time></trkpt><trkpt lat="40.37094623495794" lon="18.006720741651932"><ele>32.333333333333336</ele><time>2026-03-22T07:56:20.999Z</time></trkpt><trkpt lat="40.370736546649006" lon="18.00668595619354"><ele>33.0</ele><time>2026-03-22T07:56:21.999Z</time></trkpt><trkpt lat="40.37053241763685" lon="18.006648083016444"><ele>33.0</ele><time>2026-03-22T07:56:22.999Z</time></trkpt><trkpt lat="40.370337885861666" lon="18.006609557065776"><ele>33.0</ele><time>2026-03-22T07:56:23.999Z</time></trkpt><trkpt lat="40.37014694747191" lon="18.006583457160037"><ele>33.0</ele><time>2026-03-22T07:56:24.999Z</time></trkpt><trkpt lat="40.3699573770673" lon="18.00656423171799"><ele>33.0</ele><time>2026-03-22T07:56:25.999Z</time></trkpt><trkpt lat="40.3697641267879" lon="18.00655416029534"><ele>33.0</ele><time>2026-03-22T07:56:26.999Z</time></trkpt><trkpt lat="40.36956948302082" lon="18.0065553441447"><ele>33.0</ele><time>2026-03-22T07:56:27.999Z</time></trkpt><trkpt lat="40.36937625882293" lon="18.006568008546132"><ele>33.0</ele><time>2026-03-22T07:56:28.999Z</time></trkpt><trkpt lat="40.369180880093886" lon="18.006597060934478"><ele>33.0</ele><time>2026-03-22T07:56:29.999Z</time></trkpt><trkpt lat="40.36898847768889" lon="18.0066363634503"><ele>33.0</ele><time>2026-03-22T07:56:30.999Z</time></trkpt><trkpt lat="40.36879556256498" lon="18.00668395654098"><ele>33.666666666666664</ele><time>2026-03-22T07:56:31.999Z</time></trkpt><trkpt lat="40.36860090538123" lon="18.00672099587948"><ele>34.33333333333333</ele><time>2026-03-22T07:56:32.999Z</time></trkpt><trkpt lat="40.36840728588922" lon="18.00674839963106"><ele>35.0</ele><time>2026-03-22T07:56:33.999Z</time></trkpt><trkpt lat="40.3682089527805" lon="18.006746553067654"><ele>34.666666666666664</ele><time>2026-03-22T07:56:34.999Z</time></trkpt><trkpt lat="40.368006327835346" lon="18.00675810477058"><ele>34.333333333333336</ele><time>2026-03-22T07:56:35.999Z</time></trkpt><trkpt lat="40.367819435296674" lon="18.006788536130603"><ele>34.0</ele><time>2026-03-22T07:56:36.999Z</time></trkpt><trkpt lat="40.367620454564985" lon="18.006798083127517"><ele>34.0</ele><time>2026-03-22T07:56:37.999Z</time></trkpt><trkpt lat="40.3674205619479" lon="18.00680871091326"><ele>34.0</ele><time>2026-03-22T07:56:38.999Z</time></trkpt><trkpt lat="40.367227117652185" lon="18.006821256462214"><ele>34.0</ele><time>2026-03-22T07:56:39.999Z</time></trkpt><trkpt lat="40.36705040868344" lon="18.006823673252804"><ele>34.0</ele><time>2026-03-22T07:56:40.999Z</time></trkpt><trkpt lat="40.36687560121788" lon="18.006826749649026"><ele>34.0</ele><time>2026-03-22T07:56:41.999Z</time></trkpt><trkpt lat="40.366701792543026" lon="18.006840236032314"><ele>34.0</ele><time>2026-03-22T07:56:42.999Z</time></trkpt><trkpt lat="40.36652815147166" lon="18.006880413284836"><ele>34.66666666666667</ele><time>2026-03-22T07:56:43.999Z</time></trkpt><trkpt lat="40.366354032478185" lon="18.006937386628078"><ele>35.333333333333336</ele><time>2026-03-22T07:56:44.999Z</time></trkpt><trkpt lat="40.366181782723324" lon="18.007035998711167"><ele>36.0</ele><time>2026-03-22T07:56:45.999Z</time></trkpt><trkpt lat="40.366005373263725" lon="18.007095341397065"><ele>36.0</ele><time>2026-03-22T07:56:46.999Z</time></trkpt><trkpt lat="40.36582900520782" lon="18.007173315862556"><ele>36.0</ele><time>2026-03-22T07:56:47.999Z</time></trkpt><trkpt lat="40.36565096282006" lon="18.00724803762323"><ele>36.0</ele><time>2026-03-22T07:56:48.999Z</time></trkpt><trkpt lat="40.36547092372391" lon="18.007325984976447"><ele>36.333333333333336</ele><time>2026-03-22T07:56:49.999Z</time></trkpt><trkpt lat="40.36529254664253" lon="18.00741159217085"><ele>36.66666666666667</ele><time>2026-03-22T07:56:50.999Z</time></trkpt><trkpt lat="40.36511425689427" lon="18.00750503173294"><ele>37.0</ele><time>2026-03-22T07:56:51.999Z</time></trkpt><trkpt lat="40.36493022967798" lon="18.007601017644596"><ele>37.333333333333336</ele><time>2026-03-22T07:56:52.999Z</time></trkpt><trkpt lat="40.36475553910774" lon="18.00769574591798"><ele>37.666666666666664</ele><time>2026-03-22T07:56:53.999Z</time></trkpt><trkpt lat="40.36458711506779" lon="18.007784902824323"><ele>38.0</ele><time>2026-03-22T07:56:54.999Z</time></trkpt><trkpt lat="40.36442393086832" lon="18.007871717536794"><ele>37.33333333333333</ele><time>2026-03-22T07:56:55.999Z</time></trkpt><trkpt lat="40.3642664146689" lon="18.007929187333108"><ele>36.666666666666664</ele><time>2026-03-22T07:56:56.999Z</time></trkpt><trkpt lat="40.36412225035931" lon="18.0079877560342"><ele>36.0</ele><time>2026-03-22T07:56:57.999Z</time></trkpt><trkpt lat="40.36397860074222" lon="18.00804016566101"><ele>35.8</ele><time>2026-03-22T07:56:58.999Z</time></trkpt><trkpt lat="40.363850061652606" lon="18.008084749312545"><ele>35.6</ele><time>2026-03-22T07:56:59.998Z</time></trkpt><trkpt lat="40.36372692321593" lon="18.008121443757155"><ele>35.4</ele><time>2026-03-22T07:57:00.998Z</time></trkpt><trkpt lat="40.36362476679132" lon="18.00811875303718"><ele>35.2</ele><time>2026-03-22T07:57:01.998Z</time></trkpt><trkpt lat="40.3635518820346" lon="18.008136116218758"><ele>35.0</ele><time>2026-03-22T07:57:02.998Z</time></trkpt><trkpt lat="40.363404860653866" lon="18.00827566349454"><ele>35.4</ele><time>2026-03-22T07:57:07.998Z</time></trkpt><trkpt lat="40.36335165298401" lon="18.008371106495712"><ele>35.8</ele><time>2026-03-22T07:57:08.998Z</time></trkpt><trkpt lat="40.36330228353909" lon="18.008486743099397"><ele>36.2</ele><time>2026-03-22T07:57:09.998Z</time></trkpt><trkpt lat="40.363241126489775" lon="18.008615578614513"><ele>36.6</ele><time>2026-03-22T07:57:10.998Z</time></trkpt><trkpt lat="40.363166844023276" lon="18.008754581341506"><ele>37.0</ele><time>2026-03-22T07:57:11.998Z</time></trkpt><trkpt lat="40.363079660696506" lon="18.008863049396464"><ele>36.4</ele><time>2026-03-22T07:57:12.998Z</time></trkpt><trkpt lat="40.363030527769446" lon="18.008962104756392"><ele>35.800000000000004</ele><time>2026-03-22T07:57:13.998Z</time></trkpt><trkpt lat="40.362939215006485" lon="18.00899527715558"><ele>35.2</ele><time>2026-03-22T07:57:15.998Z</time></trkpt><trkpt lat="40.362826308678436" lon="18.009025221954836"><ele>34.6</ele><time>2026-03-22T07:57:20.998Z</time></trkpt><trkpt lat="40.36275212262446" lon="18.009010658175022"><ele>34.0</ele><time>2026-03-22T07:57:21.998Z</time></trkpt><trkpt lat="40.3626705888898" lon="18.009007539999395"><ele>34.0</ele><time>2026-03-22T07:57:22.998Z</time></trkpt><trkpt lat="40.36259392037808" lon="18.00891714215259"><ele>34.0</ele><time>2026-03-22T07:57:23.998Z</time></trkpt><trkpt lat="40.36252284520771" lon="18.008824984453206"><ele>34.0</ele><time>2026-03-22T07:57:24.998Z</time></trkpt><trkpt lat="40.3624495596869" lon="18.008690590684854"><ele>34.0</ele><time>2026-03-22T07:57:25.998Z</time></trkpt><trkpt lat="40.36235031673701" lon="18.00855805326129"><ele>34.0</ele><time>2026-03-22T07:57:26.998Z</time></trkpt><trkpt lat="40.36223220624132" lon="18.00842594598066"><ele>34.0</ele><time>2026-03-22T07:57:27.998Z</time></trkpt><trkpt lat="40.362098820023895" lon="18.008312999004968"><ele>34.0</ele><time>2026-03-22T07:57:28.998Z</time></trkpt><trkpt lat="40.36197045289286" lon="18.008183776170394"><ele>35.0</ele><time>2026-03-22T07:57:29.998Z</time></trkpt><trkpt lat="40.36182804247443" lon="18.008053825256955"><ele>36.0</ele><time>2026-03-22T07:57:31Z</time></trkpt><trkpt lat="40.36166384010311" lon="18.00793361050748"><ele>37.0</ele><time>2026-03-22T07:57:32Z</time></trkpt><trkpt lat="40.36147278908111" lon="18.00782591789306"><ele>36.66666666666667</ele><time>2026-03-22T07:57:33Z</time></trkpt><trkpt lat="40.36129916923606" lon="18.007731561626876"><ele>36.333333333333336</ele><time>2026-03-22T07:57:34Z</time></trkpt><trkpt lat="40.36112012430052" lon="18.007646456968555"><ele>36.0</ele><time>2026-03-22T07:57:35Z</time></trkpt><trkpt lat="40.36093362200139" lon="18.007574861934533"><ele>36.0</ele><time>2026-03-22T07:57:36Z</time></trkpt><trkpt lat="40.3607422587799" lon="18.00751564424623"><ele>36.0</ele><time>2026-03-22T07:57:37Z</time></trkpt><trkpt lat="40.360544045018" lon="18.007468204381848"><ele>36.0</ele><time>2026-03-22T07:57:38Z</time></trkpt><trkpt lat="40.360337167599916" lon="18.007428346116875"><ele>36.666666666666664</ele><time>2026-03-22T07:57:39Z</time></trkpt><trkpt lat="40.36012642770323" lon="18.00739253336285"><ele>37.33333333333333</ele><time>2026-03-22T07:57:40Z</time></trkpt><trkpt lat="40.35990913876984" lon="18.007358396928034"><ele>38.0</ele><time>2026-03-22T07:57:41Z</time></trkpt><trkpt lat="40.35968820975643" lon="18.00731566772058"><ele>38.0</ele><time>2026-03-22T07:57:42Z</time></trkpt><trkpt lat="40.359464674420614" lon="18.007274503430658"><ele>38.0</ele><time>2026-03-22T07:57:43Z</time></trkpt><trkpt lat="40.35924585037232" lon="18.007237700164886"><ele>38.0</ele><time>2026-03-22T07:57:44Z</time></trkpt><trkpt lat="40.359031609774995" lon="18.00720197461866"><ele>39.0</ele><time>2026-03-22T07:57:45Z</time></trkpt><trkpt lat="40.358814006162326" lon="18.007164988608768"><ele>40.0</ele><time>2026-03-22T07:57:46Z</time></trkpt><trkpt lat="40.35860289128679" lon="18.007130779283575"><ele>41.0</ele><time>2026-03-22T07:57:47Z</time></trkpt><trkpt lat="40.358391900832366" lon="18.00709026927099"><ele>41.0</ele><time>2026-03-22T07:57:48Z</time></trkpt><trkpt lat="40.35818024466053" lon="18.007052140261642"><ele>41.0</ele><time>2026-03-22T07:57:49Z</time></trkpt><trkpt lat="40.35797069172774" lon="18.007010699237394"><ele>41.0</ele><time>2026-03-22T07:57:50Z</time></trkpt><trkpt lat="40.35776105122401" lon="18.00696209344083"><ele>40.666666666666664</ele><time>2026-03-22T07:57:51Z</time></trkpt><trkpt lat="40.35754895021285" lon="18.00689119962364"><ele>40.333333333333336</ele><time>2026-03-22T07:57:52Z</time></trkpt><trkpt lat="40.35734283607669" lon="18.00679762896631"><ele>40.0</ele><time>2026-03-22T07:57:53Z</time></trkpt><trkpt lat="40.35714176744271" lon="18.006688354932887"><ele>40.333333333333336</ele><time>2026-03-22T07:57:54Z</time></trkpt><trkpt lat="40.35694406797381" lon="18.006559932402432"><ele>40.666666666666664</ele><time>2026-03-22T07:57:55Z</time></trkpt><trkpt lat="40.3567484092709" lon="18.006422444108907"><ele>41.0</ele><time>2026-03-22T07:57:56Z</time></trkpt><trkpt lat="40.35655691148302" lon="18.006284109288476"><ele>41.666666666666664</ele><time>2026-03-22T07:57:57Z</time></trkpt><trkpt lat="40.356358344988784" lon="18.00614695503825"><ele>42.333333333333336</ele><time>2026-03-22T07:57:58Z</time></trkpt><trkpt lat="40.3561594502617" lon="18.006011210867996"><ele>43.0</ele><time>2026-03-22T07:57:59Z</time></trkpt><trkpt lat="40.355959215676634" lon="18.005879817182596"><ele>42.66666666666667</ele><time>2026-03-22T07:58:00Z</time></trkpt><trkpt lat="40.35576033710854" lon="18.005749201819132"><ele>42.333333333333336</ele><time>2026-03-22T07:58:01Z</time></trkpt><trkpt lat="40.355570419336125" lon="18.00561928185876"><ele>42.0</ele><time>2026-03-22T07:58:02Z</time></trkpt><trkpt lat="40.35539186891328" lon="18.005493833083214"><ele>41.333333333333336</ele><time>2026-03-22T07:58:03Z</time></trkpt><trkpt lat="40.355219046962" lon="18.005359411762477"><ele>40.66666666666667</ele><time>2026-03-22T07:58:04Z</time></trkpt><trkpt lat="40.35505032015639" lon="18.00520528974475"><ele>40.0</ele><time>2026-03-22T07:58:05Z</time></trkpt><trkpt lat="40.3548901243159" lon="18.005031415805657"><ele>40.333333333333336</ele><time>2026-03-22T07:58:06Z</time></trkpt><trkpt lat="40.35473532901258" lon="18.004846939303437"><ele>40.666666666666664</ele><time>2026-03-22T07:58:07Z</time></trkpt><trkpt lat="40.354576330217654" lon="18.004652376612295"><ele>41.0</ele><time>2026-03-22T07:58:08Z</time></trkpt><trkpt lat="40.35441705988692" lon="18.00445444642874"><ele>41.33333333333333</ele><time>2026-03-22T07:58:09Z</time></trkpt><trkpt lat="40.35425413750399" lon="18.004252890192262"><ele>41.666666666666664</ele><time>2026-03-22T07:58:10Z</time></trkpt><trkpt lat="40.35409576571996" lon="18.004057006077584"><ele>42.0</ele><time>2026-03-22T07:58:11Z</time></trkpt><trkpt lat="40.353921827334034" lon="18.003846806735318"><ele>41.0</ele><time>2026-03-22T07:58:11.999Z</time></trkpt><trkpt lat="40.353756082787555" lon="18.00364315151859"><ele>40.0</ele><time>2026-03-22T07:58:12.999Z</time></trkpt><trkpt lat="40.35359185233858" lon="18.003434690641214"><ele>40.5</ele><time>2026-03-22T07:58:13.999Z</time></trkpt><trkpt lat="40.353426722428395" lon="18.0032333414227"><ele>41.0</ele><time>2026-03-22T07:58:14.999Z</time></trkpt><trkpt lat="40.35326080116579" lon="18.003030535727437"><ele>41.0</ele><time>2026-03-22T07:58:15.999Z</time></trkpt><trkpt lat="40.353097523574945" lon="18.00283032095629"><ele>41.0</ele><time>2026-03-22T07:58:16.999Z</time></trkpt><trkpt lat="40.35293928677239" lon="18.002633964728055"><ele>41.0</ele><time>2026-03-22T07:58:17.999Z</time></trkpt><trkpt lat="40.35277982919203" lon="18.002435646323754"><ele>40.666666666666664</ele><time>2026-03-22T07:58:18.999Z</time></trkpt><trkpt lat="40.35262252765808" lon="18.002237268895648"><ele>40.333333333333336</ele><time>2026-03-22T07:58:19.999Z</time></trkpt><trkpt lat="40.352462872238306" lon="18.002032342252043"><ele>40.0</ele><time>2026-03-22T07:58:20.999Z</time></trkpt><trkpt lat="40.35230073294411" lon="18.001832319045754"><ele>40.333333333333336</ele><time>2026-03-22T07:58:21.999Z</time></trkpt><trkpt lat="40.352138640477236" lon="18.001635500131865"><ele>40.666666666666664</ele><time>2026-03-22T07:58:22.999Z</time></trkpt><trkpt lat="40.351973250445866" lon="18.001436270278862"><ele>41.0</ele><time>2026-03-22T07:58:23.999Z</time></trkpt><trkpt lat="40.35180803153489" lon="18.0012353067054"><ele>41.0</ele><time>2026-03-22T07:58:24.999Z</time></trkpt><trkpt lat="40.351643901530416" lon="18.001028232865877"><ele>41.0</ele><time>2026-03-22T07:58:25.999Z</time></trkpt><trkpt lat="40.35147886855946" lon="18.00082488791582"><ele>41.0</ele><time>2026-03-22T07:58:26.999Z</time></trkpt><trkpt lat="40.351311797367565" lon="18.000615038650164"><ele>41.0</ele><time>2026-03-22T07:58:27.999Z</time></trkpt><trkpt lat="40.351146207130085" lon="18.000405698569327"><ele>41.0</ele><time>2026-03-22T07:58:28.999Z</time></trkpt><trkpt lat="40.35098030816966" lon="18.000192540706312"><ele>41.0</ele><time>2026-03-22T07:58:29.999Z</time></trkpt><trkpt lat="40.35081703481821" lon="17.999979087130118"><ele>41.0</ele><time>2026-03-22T07:58:30.999Z</time></trkpt><trkpt lat="40.35065103491275" lon="17.999766935550053"><ele>41.0</ele><time>2026-03-22T07:58:31.999Z</time></trkpt><trkpt lat="40.35048213317331" lon="17.9995572557377"><ele>40.5</ele><time>2026-03-22T07:58:32.999Z</time></trkpt><trkpt lat="40.35031141088064" lon="17.99934725153303"><ele>40.0</ele><time>2026-03-22T07:58:33.999Z</time></trkpt><trkpt lat="40.350138106272226" lon="17.999134666326682"><ele>42.0</ele><time>2026-03-22T07:58:34.999Z</time></trkpt><trkpt lat="40.349969088821275" lon="17.998925885993245"><ele>44.0</ele><time>2026-03-22T07:58:35.999Z</time></trkpt><trkpt lat="40.349800850807426" lon="17.99871505682754"><ele>43.0</ele><time>2026-03-22T07:58:36.999Z</time></trkpt><trkpt lat="40.34963263280281" lon="17.998504807316333"><ele>42.0</ele><time>2026-03-22T07:58:37.999Z</time></trkpt><trkpt lat="40.34946138333172" lon="17.998290719181465"><ele>41.5</ele><time>2026-03-22T07:58:38.999Z</time></trkpt><trkpt lat="40.3492894741112" lon="17.998080761809877"><ele>41.0</ele><time>2026-03-22T07:58:39.999Z</time></trkpt><trkpt lat="40.34911621720207" lon="17.997870455719585"><ele>41.0</ele><time>2026-03-22T07:58:40.999Z</time></trkpt><trkpt lat="40.34894634755214" lon="17.997656630406116"><ele>41.0</ele><time>2026-03-22T07:58:41.999Z</time></trkpt><trkpt lat="40.34877521048374" lon="17.997443366878027"><ele>41.0</ele><time>2026-03-22T07:58:42.999Z</time></trkpt><trkpt lat="40.34860244110235" lon="17.997235985198888"><ele>41.0</ele><time>2026-03-22T07:58:43.999Z</time></trkpt><trkpt lat="40.348432243853274" lon="17.997023563024563"><ele>41.0</ele><time>2026-03-22T07:58:44.999Z</time></trkpt><trkpt lat="40.34826779953787" lon="17.996811106021685"><ele>41.0</ele><time>2026-03-22T07:58:45.999Z</time></trkpt><trkpt lat="40.348101460394716" lon="17.99659267795606"><ele>42.0</ele><time>2026-03-22T07:58:46.999Z</time></trkpt><trkpt lat="40.34794751331446" lon="17.9963732104698"><ele>43.0</ele><time>2026-03-22T07:58:47.999Z</time></trkpt><trkpt lat="40.34779966283033" lon="17.996149935057684"><ele>43.0</ele><time>2026-03-22T07:58:48.999Z</time></trkpt><trkpt lat="40.34765592889984" lon="17.995922078293997"><ele>43.0</ele><time>2026-03-22T07:58:49.999Z</time></trkpt><trkpt lat="40.347511439706906" lon="17.995692691080535"><ele>42.5</ele><time>2026-03-22T07:58:50.999Z</time></trkpt><trkpt lat="40.34736549480039" lon="17.995463392589613"><ele>42.0</ele><time>2026-03-22T07:58:51.999Z</time></trkpt><trkpt lat="40.34722140446234" lon="17.99523961517013"><ele>42.0</ele><time>2026-03-22T07:58:52.999Z</time></trkpt><trkpt lat="40.3470768401539" lon="17.995017937783196"><ele>42.0</ele><time>2026-03-22T07:58:53.999Z</time></trkpt><trkpt lat="40.34692798756" lon="17.99479386634023"><ele>42.0</ele><time>2026-03-22T07:58:54.999Z</time></trkpt><trkpt lat="40.34678516891861" lon="17.994566944782417"><ele>42.0</ele><time>2026-03-22T07:58:55.999Z</time></trkpt><trkpt lat="40.34664035722013" lon="17.994341579575096"><ele>42.0</ele><time>2026-03-22T07:58:56.999Z</time></trkpt><trkpt lat="40.34649859572199" lon="17.99411325616341"><ele>42.0</ele><time>2026-03-22T07:58:57.999Z</time></trkpt><trkpt lat="40.34635054272921" lon="17.993891286061"><ele>42.333333333333336</ele><time>2026-03-22T07:58:58.999Z</time></trkpt><trkpt lat="40.346205493439456" lon="17.99366595577962"><ele>42.66666666666667</ele><time>2026-03-22T07:58:59.999Z</time></trkpt><trkpt lat="40.34605475949619" lon="17.99345379183037"><ele>43.0</ele><time>2026-03-22T07:59:00.999Z</time></trkpt><trkpt lat="40.345895499621754" lon="17.993246045896687"><ele>42.0</ele><time>2026-03-22T07:59:01.999Z</time></trkpt><trkpt lat="40.34572317805343" lon="17.993053399978926"><ele>41.0</ele><time>2026-03-22T07:59:02.999Z</time></trkpt><trkpt lat="40.345538635840825" lon="17.99287646782344"><ele>41.0</ele><time>2026-03-22T07:59:03.999Z</time></trkpt><trkpt lat="40.34535259932229" lon="17.99270899565678"><ele>41.0</ele><time>2026-03-22T07:59:04.999Z</time></trkpt><trkpt lat="40.34515764779197" lon="17.99254690872898"><ele>41.0</ele><time>2026-03-22T07:59:05.999Z</time></trkpt><trkpt lat="40.34496792322038" lon="17.992381970220094"><ele>41.0</ele><time>2026-03-22T07:59:06.999Z</time></trkpt><trkpt lat="40.344784388076754" lon="17.99220429037536"><ele>40.666666666666664</ele><time>2026-03-22T07:59:07.998Z</time></trkpt><trkpt lat="40.344611003541424" lon="17.992023359050606"><ele>40.333333333333336</ele><time>2026-03-22T07:59:08.998Z</time></trkpt><trkpt lat="40.34443974095448" lon="17.991831035244658"><ele>40.0</ele><time>2026-03-22T07:59:09.998Z</time></trkpt><trkpt lat="40.344277182436926" lon="17.99162859736862"><ele>40.333333333333336</ele><time>2026-03-22T07:59:10.998Z</time></trkpt><trkpt lat="40.3441255275181" lon="17.991414519908417"><ele>40.666666666666664</ele><time>2026-03-22T07:59:11.998Z</time></trkpt><trkpt lat="40.34398088325927" lon="17.991193795835972"><ele>41.0</ele><time>2026-03-22T07:59:12.998Z</time></trkpt><trkpt lat="40.34384696078292" lon="17.990963866939694"><ele>40.666666666666664</ele><time>2026-03-22T07:59:13.998Z</time></trkpt><trkpt lat="40.34372498414579" lon="17.99072515614343"><ele>40.333333333333336</ele><time>2026-03-22T07:59:14.998Z</time></trkpt><trkpt lat="40.34361483256204" lon="17.990478641054846"><ele>40.0</ele><time>2026-03-22T07:59:15.998Z</time></trkpt><trkpt lat="40.34351353518408" lon="17.990222450787154"><ele>40.0</ele><time>2026-03-22T07:59:16.998Z</time></trkpt><trkpt lat="40.343420569689236" lon="17.989968863538245"><ele>40.0</ele><time>2026-03-22T07:59:17.998Z</time></trkpt><trkpt lat="40.343329947717976" lon="17.989714314356682"><ele>40.0</ele><time>2026-03-22T07:59:18.998Z</time></trkpt><trkpt lat="40.34323624033903" lon="17.989461661741387"><ele>40.0</ele><time>2026-03-22T07:59:19.998Z</time></trkpt><trkpt lat="40.34314230703103" lon="17.98921109229033"><ele>40.0</ele><time>2026-03-22T07:59:20.998Z</time></trkpt><trkpt lat="40.343045765219145" lon="17.98895829497518"><ele>40.0</ele><time>2026-03-22T07:59:21.998Z</time></trkpt><trkpt lat="40.34294935408377" lon="17.988708163359476"><ele>40.333333333333336</ele><time>2026-03-22T07:59:22.998Z</time></trkpt><trkpt lat="40.342851784635506" lon="17.988456128962753"><ele>40.666666666666664</ele><time>2026-03-22T07:59:23.998Z</time></trkpt><trkpt lat="40.342757402525734" lon="17.988205556643358"><ele>41.0</ele><time>2026-03-22T07:59:24.998Z</time></trkpt><trkpt lat="40.342661471641456" lon="17.987952926459712"><ele>41.33333333333333</ele><time>2026-03-22T07:59:25.998Z</time></trkpt><trkpt lat="40.34256474841109" lon="17.98770373215821"><ele>41.666666666666664</ele><time>2026-03-22T07:59:26.998Z</time></trkpt><trkpt lat="40.34246994235104" lon="17.987454290492494"><ele>42.0</ele><time>2026-03-22T07:59:27.998Z</time></trkpt><trkpt lat="40.342375108452046" lon="17.987200967312205"><ele>42.333333333333336</ele><time>2026-03-22T07:59:28.998Z</time></trkpt><trkpt lat="40.34227719700276" lon="17.986951133597408"><ele>42.66666666666667</ele><time>2026-03-22T07:59:29.998Z</time></trkpt><trkpt lat="40.342176811715206" lon="17.98670364586802"><ele>43.0</ele><time>2026-03-22T07:59:30.998Z</time></trkpt><trkpt lat="40.342073741065974" lon="17.986455180222475"><ele>43.0</ele><time>2026-03-22T07:59:31.998Z</time></trkpt><trkpt lat="40.34196934979581" lon="17.986211910149056"><ele>43.0</ele><time>2026-03-22T07:59:32.998Z</time></trkpt><trkpt lat="40.34185746708229" lon="17.98596832021248"><ele>43.0</ele><time>2026-03-22T07:59:33.998Z</time></trkpt><trkpt lat="40.341745560183085" lon="17.985726028510904"><ele>43.0</ele><time>2026-03-22T07:59:34.998Z</time></trkpt><trkpt lat="40.34163580599347" lon="17.985485037202597"><ele>43.0</ele><time>2026-03-22T07:59:35.998Z</time></trkpt><trkpt lat="40.34152624617642" lon="17.98524237908667"><ele>43.0</ele><time>2026-03-22T07:59:37Z</time></trkpt><trkpt lat="40.341417557851294" lon="17.985002872434492"><ele>43.333333333333336</ele><time>2026-03-22T07:59:38Z</time></trkpt><trkpt lat="40.34130667140197" lon="17.984762680881545"><ele>43.666666666666664</ele><time>2026-03-22T07:59:39Z</time></trkpt><trkpt lat="40.34119756714162" lon="17.984522822822168"><ele>44.0</ele><time>2026-03-22T07:59:40Z</time></trkpt><trkpt lat="40.34108993035572" lon="17.984282288093976"><ele>44.0</ele><time>2026-03-22T07:59:41Z</time></trkpt><trkpt lat="40.34098180791446" lon="17.984040119873658"><ele>44.0</ele><time>2026-03-22T07:59:42Z</time></trkpt><trkpt lat="40.34087337892306" lon="17.983801714559668"><ele>44.0</ele><time>2026-03-22T07:59:43Z</time></trkpt><trkpt lat="40.34076647148157" lon="17.983567649861133"><ele>43.666666666666664</ele><time>2026-03-22T07:59:44Z</time></trkpt><trkpt lat="40.34065950036878" lon="17.983323185119826"><ele>43.333333333333336</ele><time>2026-03-22T07:59:45Z</time></trkpt><trkpt lat="40.340551276792894" lon="17.98308316227825"><ele>43.0</ele><time>2026-03-22T07:59:46Z</time></trkpt><trkpt lat="40.34044831270791" lon="17.98284649601694"><ele>43.66666666666667</ele><time>2026-03-22T07:59:47Z</time></trkpt><trkpt lat="40.34034363095003" lon="17.9826073839733"><ele>44.333333333333336</ele><time>2026-03-22T07:59:48Z</time></trkpt><trkpt lat="40.34023887579812" lon="17.982375379554064"><ele>45.0</ele><time>2026-03-22T07:59:49Z</time></trkpt><trkpt lat="40.34014186914394" lon="17.98215197704098"><ele>45.0</ele><time>2026-03-22T07:59:50Z</time></trkpt><trkpt lat="40.34005085197306" lon="17.981937743829118"><ele>45.0</ele><time>2026-03-22T07:59:51Z</time></trkpt><trkpt lat="40.339958366225005" lon="17.981732854959777"><ele>45.0</ele><time>2026-03-22T07:59:52Z</time></trkpt><trkpt lat="40.33987053535922" lon="17.981540676709862"><ele>44.666666666666664</ele><time>2026-03-22T07:59:53Z</time></trkpt><trkpt lat="40.33978369610254" lon="17.981346453364424"><ele>44.33333333333333</ele><time>2026-03-22T07:59:54Z</time></trkpt><trkpt lat="40.339694954806795" lon="17.981148273400226"><ele>44.0</ele><time>2026-03-22T07:59:55Z</time></trkpt><trkpt lat="40.33961311383971" lon="17.98095916441436"><ele>44.25</ele><time>2026-03-22T07:59:56Z</time></trkpt><trkpt lat="40.33953225138126" lon="17.98078540336112"><ele>44.5</ele><time>2026-03-22T07:59:57Z</time></trkpt><trkpt lat="40.33945107758536" lon="17.980639009748277"><ele>44.75</ele><time>2026-03-22T07:59:58Z</time></trkpt><trkpt lat="40.339373089721136" lon="17.980512368978477"><ele>45.0</ele><time>2026-03-22T07:59:59Z</time></trkpt><trkpt lat="40.33929936234224" lon="17.980377785531815"><ele>45.0</ele><time>2026-03-22T08:00:00Z</time></trkpt><trkpt lat="40.33924311440358" lon="17.980269506112258"><ele>45.0</ele><time>2026-03-22T08:00:01Z</time></trkpt><trkpt lat="40.33920872022974" lon="17.9801706084771"><ele>45.0</ele><time>2026-03-22T08:00:02Z</time></trkpt><trkpt lat="40.33919289011255" lon="17.98008460929031"><ele>45.0</ele><time>2026-03-22T08:00:03Z</time></trkpt><trkpt lat="40.3391931603676" lon="17.979961246251246"><ele>45.0</ele><time>2026-03-22T08:00:05Z</time></trkpt><trkpt lat="40.339290494140684" lon="17.97991030754678"><ele>45.0</ele><time>2026-03-22T08:00:06Z</time></trkpt><trkpt lat="40.33937278205595" lon="17.97985888599361"><ele>45.0</ele><time>2026-03-22T08:00:07Z</time></trkpt><trkpt lat="40.33947347468907" lon="17.97979685985489"><ele>45.0</ele><time>2026-03-22T08:00:08Z</time></trkpt><trkpt lat="40.33958814266233" lon="17.979729632391805"><ele>45.0</ele><time>2026-03-22T08:00:09Z</time></trkpt><trkpt lat="40.33971798078597" lon="17.979645714881823"><ele>45.0</ele><time>2026-03-22T08:00:10Z</time></trkpt><trkpt lat="40.33984250609485" lon="17.979561920385972"><ele>45.0</ele><time>2026-03-22T08:00:11Z</time></trkpt><trkpt lat="40.339975855435114" lon="17.979470206082144"><ele>45.0</ele><time>2026-03-22T08:00:12Z</time></trkpt><trkpt lat="40.340116367705406" lon="17.979372438900338"><ele>45.0</ele><time>2026-03-22T08:00:13Z</time></trkpt><trkpt lat="40.34026378062482" lon="17.979269488443542"><ele>44.666666666666664</ele><time>2026-03-22T08:00:14Z</time></trkpt><trkpt lat="40.340416300040964" lon="17.979163409808322"><ele>44.33333333333333</ele><time>2026-03-22T08:00:15Z</time></trkpt><trkpt lat="40.340568036902454" lon="17.979056531889224"><ele>44.0</ele><time>2026-03-22T08:00:16Z</time></trkpt><trkpt lat="40.34072028446182" lon="17.978947208677376"><ele>44.0</ele><time>2026-03-22T08:00:17Z</time></trkpt><trkpt lat="40.34087803090443" lon="17.978838815630517"><ele>44.0</ele><time>2026-03-22T08:00:18Z</time></trkpt><trkpt lat="40.34104007326723" lon="17.97872548525249"><ele>44.0</ele><time>2026-03-22T08:00:19Z</time></trkpt><trkpt lat="40.34120292518882" lon="17.97860984667724"><ele>44.0</ele><time>2026-03-22T08:00:20Z</time></trkpt><trkpt lat="40.34136960479075" lon="17.978493711097382"><ele>44.0</ele><time>2026-03-22T08:00:21Z</time></trkpt><trkpt lat="40.34153547309368" lon="17.97837643497376"><ele>44.0</ele><time>2026-03-22T08:00:22Z</time></trkpt><trkpt lat="40.34171360756288" lon="17.97824457105301"><ele>43.666666666666664</ele><time>2026-03-22T08:00:22.999Z</time></trkpt><trkpt lat="40.34188536564341" lon="17.978123069688248"><ele>43.333333333333336</ele><time>2026-03-22T08:00:23.999Z</time></trkpt><trkpt lat="40.342053531318975" lon="17.978000755491614"><ele>43.0</ele><time>2026-03-22T08:00:24.999Z</time></trkpt><trkpt lat="40.34222460882004" lon="17.977876673953567"><ele>43.0</ele><time>2026-03-22T08:00:25.999Z</time></trkpt><trkpt lat="40.34239701213072" lon="17.977755634823826"><ele>43.0</ele><time>2026-03-22T08:00:26.999Z</time></trkpt><trkpt lat="40.34257213965908" lon="17.97763281671685"><ele>43.0</ele><time>2026-03-22T08:00:27.999Z</time></trkpt><trkpt lat="40.34274944440622" lon="17.977508790427663"><ele>43.0</ele><time>2026-03-22T08:00:28.999Z</time></trkpt><trkpt lat="40.342930526913335" lon="17.977394006439752"><ele>43.0</ele><time>2026-03-22T08:00:29.999Z</time></trkpt><trkpt lat="40.3431121175053" lon="17.97727063722544"><ele>43.0</ele><time>2026-03-22T08:00:30.999Z</time></trkpt><trkpt lat="40.343290223835" lon="17.97713834434423"><ele>43.0</ele><time>2026-03-22T08:00:31.999Z</time></trkpt><trkpt lat="40.34346849580222" lon="17.977004704978157"><ele>43.0</ele><time>2026-03-22T08:00:32.999Z</time></trkpt><trkpt lat="40.343647193334355" lon="17.976869720225018"><ele>43.0</ele><time>2026-03-22T08:00:33.999Z</time></trkpt><trkpt lat="40.34382709885857" lon="17.976736294551284"><ele>43.66666666666667</ele><time>2026-03-22T08:00:34.999Z</time></trkpt><trkpt lat="40.344010282587114" lon="17.97660962927641"><ele>44.333333333333336</ele><time>2026-03-22T08:00:35.999Z</time></trkpt><trkpt lat="40.344192553322195" lon="17.976483890945907"><ele>45.0</ele><time>2026-03-22T08:00:36.999Z</time></trkpt><trkpt lat="40.344370691305805" lon="17.97634755700444"><ele>45.0</ele><time>2026-03-22T08:00:37.999Z</time></trkpt><trkpt lat="40.34454805518485" lon="17.97621649315149"><ele>45.0</ele><time>2026-03-22T08:00:38.999Z</time></trkpt><trkpt lat="40.344735005882825" lon="17.97609411153889"><ele>45.0</ele><time>2026-03-22T08:00:39.999Z</time></trkpt><trkpt lat="40.34491674036885" lon="17.97597200350911"><ele>43.666666666666664</ele><time>2026-03-22T08:00:40.999Z</time></trkpt><trkpt lat="40.345099768584895" lon="17.975841063434384"><ele>42.33333333333333</ele><time>2026-03-22T08:00:41.999Z</time></trkpt><trkpt lat="40.345281539561924" lon="17.975708365257116"><ele>41.0</ele><time>2026-03-22T08:00:42.999Z</time></trkpt><trkpt lat="40.345462866483054" lon="17.97557046950048"><ele>42.0</ele><time>2026-03-22T08:00:43.999Z</time></trkpt><trkpt lat="40.34564409315787" lon="17.975430195258745"><ele>43.0</ele><time>2026-03-22T08:00:44.999Z</time></trkpt><trkpt lat="40.34582367295892" lon="17.975289138887327"><ele>44.0</ele><time>2026-03-22T08:00:45.999Z</time></trkpt><trkpt lat="40.346002282761894" lon="17.975142541060297"><ele>43.666666666666664</ele><time>2026-03-22T08:00:46.999Z</time></trkpt><trkpt lat="40.34617760016897" lon="17.974990884417767"><ele>43.333333333333336</ele><time>2026-03-22T08:00:47.999Z</time></trkpt><trkpt lat="40.346347822993856" lon="17.97483383387382"><ele>43.0</ele><time>2026-03-22T08:00:48.999Z</time></trkpt><trkpt lat="40.34651863297183" lon="17.974668415293603"><ele>42.66666666666667</ele><time>2026-03-22T08:00:49.999Z</time></trkpt><trkpt lat="40.34668532387556" lon="17.974500740120327"><ele>42.333333333333336</ele><time>2026-03-22T08:00:50.999Z</time></trkpt><trkpt lat="40.34684806855434" lon="17.97433040036612"><ele>42.0</ele><time>2026-03-22T08:00:51.999Z</time></trkpt><trkpt lat="40.34700971774939" lon="17.974153064582527"><ele>42.0</ele><time>2026-03-22T08:00:52.999Z</time></trkpt><trkpt lat="40.34716557712148" lon="17.973972307702258"><ele>42.0</ele><time>2026-03-22T08:00:53.999Z</time></trkpt><trkpt lat="40.34731834394832" lon="17.973784121077923"><ele>42.0</ele><time>2026-03-22T08:00:54.999Z</time></trkpt><trkpt lat="40.34746113049285" lon="17.973601579602132"><ele>41.666666666666664</ele><time>2026-03-22T08:00:55.999Z</time></trkpt><trkpt lat="40.34758594129136" lon="17.973428806813015"><ele>41.33333333333333</ele><time>2026-03-22T08:00:56.999Z</time></trkpt><trkpt lat="40.34770240324118" lon="17.973253568076604"><ele>41.0</ele><time>2026-03-22T08:00:57.999Z</time></trkpt><trkpt lat="40.34781962520399" lon="17.973072002092575"><ele>41.0</ele><time>2026-03-22T08:00:58.999Z</time></trkpt><trkpt lat="40.34793472383339" lon="17.97288633239001"><ele>41.0</ele><time>2026-03-22T08:00:59.999Z</time></trkpt><trkpt lat="40.348050499392684" lon="17.972692663026237"><ele>41.0</ele><time>2026-03-22T08:01:00.999Z</time></trkpt><trkpt lat="40.34816297734045" lon="17.972489562992134"><ele>41.666666666666664</ele><time>2026-03-22T08:01:01.999Z</time></trkpt><trkpt lat="40.34827244400857" lon="17.972281031021808"><ele>42.333333333333336</ele><time>2026-03-22T08:01:02.999Z</time></trkpt><trkpt lat="40.34838145261839" lon="17.972062918000653"><ele>43.0</ele><time>2026-03-22T08:01:03.999Z</time></trkpt><trkpt lat="40.348486318962664" lon="17.971833351323042"><ele>43.0</ele><time>2026-03-22T08:01:04.999Z</time></trkpt><trkpt lat="40.34858699421994" lon="17.971601338596326"><ele>43.0</ele><time>2026-03-22T08:01:05.999Z</time></trkpt><trkpt lat="40.34868207189666" lon="17.97136268371538"><ele>43.0</ele><time>2026-03-22T08:01:06.999Z</time></trkpt><trkpt lat="40.34877290425723" lon="17.97111906306579"><ele>43.0</ele><time>2026-03-22T08:01:07.999Z</time></trkpt><trkpt lat="40.348855320689076" lon="17.970883690306557"><ele>43.0</ele><time>2026-03-22T08:01:08.999Z</time></trkpt><trkpt lat="40.34892915557419" lon="17.970660259947422"><ele>43.0</ele><time>2026-03-22T08:01:09.999Z</time></trkpt><trkpt lat="40.348995006971606" lon="17.970452675533156"><ele>42.66666666666667</ele><time>2026-03-22T08:01:10.999Z</time></trkpt><trkpt lat="40.34905312867571" lon="17.970256115749688"><ele>42.333333333333336</ele><time>2026-03-22T08:01:11.999Z</time></trkpt><trkpt lat="40.34910621894329" lon="17.97006926625763"><ele>42.0</ele><time>2026-03-22T08:01:12.999Z</time></trkpt><trkpt lat="40.34915501767483" lon="17.96988420966841"><ele>41.75</ele><time>2026-03-22T08:01:13.999Z</time></trkpt><trkpt lat="40.34920141668109" lon="17.96970161422758"><ele>41.5</ele><time>2026-03-22T08:01:14.999Z</time></trkpt><trkpt lat="40.34924498047244" lon="17.969534226448115"><ele>41.25</ele><time>2026-03-22T08:01:15.999Z</time></trkpt><trkpt lat="40.34928688590996" lon="17.96938210251592"><ele>41.0</ele><time>2026-03-22T08:01:16.999Z</time></trkpt><trkpt lat="40.34932910065654" lon="17.969256355276777"><ele>41.0</ele><time>2026-03-22T08:01:17.999Z</time></trkpt><trkpt lat="40.34937732990398" lon="17.969151172790106"><ele>41.0</ele><time>2026-03-22T08:01:18.998Z</time></trkpt><trkpt lat="40.349434845487195" lon="17.969058532182988"><ele>41.0</ele><time>2026-03-22T08:01:19.998Z</time></trkpt><trkpt lat="40.349492235684544" lon="17.96897990346546"><ele>41.0</ele><time>2026-03-22T08:01:20.998Z</time></trkpt><trkpt lat="40.349536025706094" lon="17.968879381530456"><ele>41.0</ele><time>2026-03-22T08:01:21.998Z</time></trkpt><trkpt lat="40.34954369117793" lon="17.968755923129624"><ele>41.0</ele><time>2026-03-22T08:01:22.998Z</time></trkpt><trkpt lat="40.3495265836058" lon="17.968612811433207"><ele>41.0</ele><time>2026-03-22T08:01:23.998Z</time></trkpt><trkpt lat="40.34946273712872" lon="17.968462249690756"><ele>41.0</ele><time>2026-03-22T08:01:24.998Z</time></trkpt><trkpt lat="40.349445467321246" lon="17.96828075170121"><ele>41.0</ele><time>2026-03-22T08:01:25.998Z</time></trkpt><trkpt lat="40.34942293046757" lon="17.96807065136108"><ele>41.0</ele><time>2026-03-22T08:01:26.998Z</time></trkpt><trkpt lat="40.349443649564" lon="17.967844083299195"><ele>41.0</ele><time>2026-03-22T08:01:27.998Z</time></trkpt><trkpt lat="40.349453224339726" lon="17.967601819419684"><ele>41.0</ele><time>2026-03-22T08:01:28.998Z</time></trkpt><trkpt lat="40.34946570162861" lon="17.967347674106826"><ele>41.0</ele><time>2026-03-22T08:01:29.998Z</time></trkpt><trkpt lat="40.34946893725844" lon="17.967090251539485"><ele>41.0</ele><time>2026-03-22T08:01:30.998Z</time></trkpt><trkpt lat="40.349468196013675" lon="17.96682781021487"><ele>41.0</ele><time>2026-03-22T08:01:31.998Z</time></trkpt><trkpt lat="40.34946335566752" lon="17.966554868466787"><ele>40.666666666666664</ele><time>2026-03-22T08:01:32.998Z</time></trkpt><trkpt lat="40.349453850895905" lon="17.96628325585421"><ele>40.333333333333336</ele><time>2026-03-22T08:01:33.998Z</time></trkpt><trkpt lat="40.34943853039734" lon="17.96601528968737"><ele>40.0</ele><time>2026-03-22T08:01:34.998Z</time></trkpt><trkpt lat="40.34941969080373" lon="17.965758681028888"><ele>40.0</ele><time>2026-03-22T08:01:35.998Z</time></trkpt><trkpt lat="40.34940220336004" lon="17.96550296522698"><ele>40.0</ele><time>2026-03-22T08:01:36.998Z</time></trkpt><trkpt lat="40.34937981280737" lon="17.965250044435326"><ele>40.0</ele><time>2026-03-22T08:01:37.998Z</time></trkpt><trkpt lat="40.34936268677019" lon="17.965004949642616"><ele>39.333333333333336</ele><time>2026-03-22T08:01:38.998Z</time></trkpt><trkpt lat="40.34933744766149" lon="17.964756540478"><ele>38.666666666666664</ele><time>2026-03-22T08:01:39.998Z</time></trkpt><trkpt lat="40.34930776326477" lon="17.96450816120561"><ele>38.0</ele><time>2026-03-22T08:01:40.998Z</time></trkpt><trkpt lat="40.34927749229139" lon="17.964262817480005"><ele>37.666666666666664</ele><time>2026-03-22T08:01:41.998Z</time></trkpt><trkpt lat="40.34924680893536" lon="17.964014710570723"><ele>37.333333333333336</ele><time>2026-03-22T08:01:43Z</time></trkpt><trkpt lat="40.349215552218695" lon="17.963772119578564"><ele>37.0</ele><time>2026-03-22T08:01:44Z</time></trkpt><trkpt lat="40.34918164771326" lon="17.963527083722138"><ele>37.0</ele><time>2026-03-22T08:01:45Z</time></trkpt><trkpt lat="40.34914768566017" lon="17.963280187386854"><ele>37.0</ele><time>2026-03-22T08:01:46Z</time></trkpt><trkpt lat="40.34911074064582" lon="17.96303304346673"><ele>37.0</ele><time>2026-03-22T08:01:47Z</time></trkpt><trkpt lat="40.3490728893111" lon="17.96278391491408"><ele>38.0</ele><time>2026-03-22T08:01:48Z</time></trkpt><trkpt lat="40.34903418683566" lon="17.962524631765294"><ele>39.0</ele><time>2026-03-22T08:01:49Z</time></trkpt><trkpt lat="40.34899428177916" lon="17.962274042812503"><ele>40.0</ele><time>2026-03-22T08:01:50Z</time></trkpt><trkpt lat="40.34895642897266" lon="17.962020040026413"><ele>40.0</ele><time>2026-03-22T08:01:51Z</time></trkpt><trkpt lat="40.348917147376596" lon="17.961765725015507"><ele>40.0</ele><time>2026-03-22T08:01:52Z</time></trkpt><trkpt lat="40.348876476252144" lon="17.961509562009464"><ele>40.0</ele><time>2026-03-22T08:01:53Z</time></trkpt><trkpt lat="40.34883963724257" lon="17.961258225776636"><ele>40.333333333333336</ele><time>2026-03-22T08:01:54Z</time></trkpt><trkpt lat="40.3488044813271" lon="17.961002549080987"><ele>40.666666666666664</ele><time>2026-03-22T08:01:55Z</time></trkpt><trkpt lat="40.348771437792855" lon="17.960746126695838"><ele>41.0</ele><time>2026-03-22T08:01:56Z</time></trkpt><trkpt lat="40.34873650541935" lon="17.960493033457936"><ele>41.0</ele><time>2026-03-22T08:01:57Z</time></trkpt><trkpt lat="40.34870584095348" lon="17.960237623282566"><ele>41.0</ele><time>2026-03-22T08:01:58Z</time></trkpt><trkpt lat="40.34867649195025" lon="17.959979944396714"><ele>41.0</ele><time>2026-03-22T08:01:59Z</time></trkpt><trkpt lat="40.34864606914759" lon="17.9597315389785"><ele>41.0</ele><time>2026-03-22T08:02:00Z</time></trkpt><trkpt lat="40.34861643880413" lon="17.95948723712455"><ele>41.0</ele><time>2026-03-22T08:02:01Z</time></trkpt><trkpt lat="40.348586226815684" lon="17.95924831498531"><ele>41.0</ele><time>2026-03-22T08:02:02Z</time></trkpt><trkpt lat="40.34855538965757" lon="17.959008053170223"><ele>41.0</ele><time>2026-03-22T08:02:03Z</time></trkpt><trkpt lat="40.348525353822374" lon="17.958765436301327"><ele>41.0</ele><time>2026-03-22T08:02:04Z</time></trkpt><trkpt lat="40.34849673453006" lon="17.95852238664532"><ele>41.0</ele><time>2026-03-22T08:02:05Z</time></trkpt><trkpt lat="40.34846913678416" lon="17.958281580686915"><ele>40.666666666666664</ele><time>2026-03-22T08:02:06Z</time></trkpt><trkpt lat="40.348439449159144" lon="17.958043615686186"><ele>40.333333333333336</ele><time>2026-03-22T08:02:07Z</time></trkpt><trkpt lat="40.34841062606982" lon="17.957809851485315"><ele>40.0</ele><time>2026-03-22T08:02:08Z</time></trkpt><trkpt lat="40.34838139036818" lon="17.957582559565218"><ele>40.0</ele><time>2026-03-22T08:02:09Z</time></trkpt><trkpt lat="40.34835184712106" lon="17.957356726484885"><ele>40.0</ele><time>2026-03-22T08:02:10Z</time></trkpt><trkpt lat="40.348324102620055" lon="17.957132733721433"><ele>40.0</ele><time>2026-03-22T08:02:11Z</time></trkpt><trkpt lat="40.34829441532298" lon="17.956909070670378"><ele>39.333333333333336</ele><time>2026-03-22T08:02:12Z</time></trkpt><trkpt lat="40.34826562848126" lon="17.95668334397572"><ele>38.666666666666664</ele><time>2026-03-22T08:02:13Z</time></trkpt><trkpt lat="40.34823579857229" lon="17.95645621891096"><ele>38.0</ele><time>2026-03-22T08:02:14Z</time></trkpt><trkpt lat="40.34820644892468" lon="17.956227985389216"><ele>38.0</ele><time>2026-03-22T08:02:15Z</time></trkpt><trkpt lat="40.34817751655749" lon="17.956000444159894"><ele>38.0</ele><time>2026-03-22T08:02:16Z</time></trkpt><trkpt lat="40.34815014120214" lon="17.955773028372306"><ele>38.0</ele><time>2026-03-22T08:02:17Z</time></trkpt><trkpt lat="40.34812374308171" lon="17.955544641157537"><ele>39.666666666666664</ele><time>2026-03-22T08:02:18Z</time></trkpt><trkpt lat="40.34809874308134" lon="17.955313465324824"><ele>41.333333333333336</ele><time>2026-03-22T08:02:19Z</time></trkpt><trkpt lat="40.34807035454685" lon="17.955083227977255"><ele>43.0</ele><time>2026-03-22T08:02:20Z</time></trkpt><trkpt lat="40.34804143248245" lon="17.954850750586118"><ele>43.333333333333336</ele><time>2026-03-22T08:02:21Z</time></trkpt><trkpt lat="40.34800727440057" lon="17.954617631170944"><ele>43.666666666666664</ele><time>2026-03-22T08:02:22Z</time></trkpt><trkpt lat="40.34797279427709" lon="17.95438502506909"><ele>44.0</ele><time>2026-03-22T08:02:23Z</time></trkpt><trkpt lat="40.347940793448906" lon="17.954153011801118"><ele>44.33333333333333</ele><time>2026-03-22T08:02:24Z</time></trkpt><trkpt lat="40.34790678400626" lon="17.953918899040495"><ele>44.666666666666664</ele><time>2026-03-22T08:02:25Z</time></trkpt><trkpt lat="40.347869813300555" lon="17.953684508639498"><ele>45.0</ele><time>2026-03-22T08:02:26Z</time></trkpt><trkpt lat="40.347829754036916" lon="17.953450714133652"><ele>44.666666666666664</ele><time>2026-03-22T08:02:27Z</time></trkpt><trkpt lat="40.347784300394906" lon="17.953221529435336"><ele>44.33333333333333</ele><time>2026-03-22T08:02:27.999Z</time></trkpt><trkpt lat="40.347731142999905" lon="17.953000555669153"><ele>44.0</ele><time>2026-03-22T08:02:28.999Z</time></trkpt><trkpt lat="40.3476725491486" lon="17.952770058161846"><ele>44.0</ele><time>2026-03-22T08:02:29.999Z</time></trkpt><trkpt lat="40.34760152296196" lon="17.9525536748384"><ele>44.0</ele><time>2026-03-22T08:02:30.999Z</time></trkpt><trkpt lat="40.347534380118006" lon="17.952327618283782"><ele>44.0</ele><time>2026-03-22T08:02:31.999Z</time></trkpt><trkpt lat="40.34746946312863" lon="17.9521087803251"><ele>43.33333333333333</ele><time>2026-03-22T08:02:32.999Z</time></trkpt><trkpt lat="40.3474033002989" lon="17.95187802732062"><ele>42.666666666666664</ele><time>2026-03-22T08:02:33.999Z</time></trkpt><trkpt lat="40.3473328332825" lon="17.95165574992304"><ele>42.0</ele><time>2026-03-22T08:02:34.999Z</time></trkpt><trkpt lat="40.347262324976384" lon="17.95142630499468"><ele>41.666666666666664</ele><time>2026-03-22T08:02:35.999Z</time></trkpt><trkpt lat="40.34719490100121" lon="17.951196798079465"><ele>41.33333333333333</ele><time>2026-03-22T08:02:36.999Z</time></trkpt><trkpt lat="40.347123398185865" lon="17.950966215857136"><ele>41.0</ele><time>2026-03-22T08:02:37.999Z</time></trkpt><trkpt lat="40.34705451331588" lon="17.950737562476945"><ele>42.0</ele><time>2026-03-22T08:02:38.999Z</time></trkpt><trkpt lat="40.3469845404062" lon="17.950503053106026"><ele>43.0</ele><time>2026-03-22T08:02:39.999Z</time></trkpt><trkpt lat="40.34691647146827" lon="17.95026863994092"><ele>44.0</ele><time>2026-03-22T08:02:40.999Z</time></trkpt><trkpt lat="40.34684673711842" lon="17.950028921970684"><ele>44.33333333333333</ele><time>2026-03-22T08:02:41.999Z</time></trkpt><trkpt lat="40.34677726305608" lon="17.949790493712527"><ele>44.666666666666664</ele><time>2026-03-22T08:02:42.999Z</time></trkpt><trkpt lat="40.346707057210175" lon="17.949546625563798"><ele>45.0</ele><time>2026-03-22T08:02:43.999Z</time></trkpt><trkpt lat="40.346641908427586" lon="17.949307442820473"><ele>45.333333333333336</ele><time>2026-03-22T08:02:44.999Z</time></trkpt><trkpt lat="40.346572496336265" lon="17.949084001627433"><ele>45.66666666666667</ele><time>2026-03-22T08:02:45.999Z</time></trkpt><trkpt lat="40.346498539945514" lon="17.94884958653958"><ele>46.0</ele><time>2026-03-22T08:02:46.999Z</time></trkpt><trkpt lat="40.346428313964196" lon="17.94864274814672"><ele>46.0</ele><time>2026-03-22T08:02:47.999Z</time></trkpt><trkpt lat="40.34636386227486" lon="17.948445451161728"><ele>46.0</ele><time>2026-03-22T08:02:48.999Z</time></trkpt><trkpt lat="40.34630174481323" lon="17.948263117531756"><ele>46.0</ele><time>2026-03-22T08:02:49.999Z</time></trkpt><trkpt lat="40.34624170068752" lon="17.948095095894555"><ele>46.199999999999996</ele><time>2026-03-22T08:02:50.999Z</time></trkpt><trkpt lat="40.34618419192711" lon="17.94794236623929"><ele>46.4</ele><time>2026-03-22T08:02:51.999Z</time></trkpt><trkpt lat="40.346135069212394" lon="17.947815856648056"><ele>46.6</ele><time>2026-03-22T08:02:52.999Z</time></trkpt><trkpt lat="40.346093302796994" lon="17.9477093397145"><ele>46.8</ele><time>2026-03-22T08:02:53.999Z</time></trkpt><trkpt lat="40.34605643914667" lon="17.947618829441264"><ele>47.0</ele><time>2026-03-22T08:02:54.999Z</time></trkpt><trkpt lat="40.34600720705638" lon="17.947490416017693"><ele>47.0</ele><time>2026-03-22T08:02:56.999Z</time></trkpt><trkpt lat="40.34597193391769" lon="17.947419979795725"><ele>47.0</ele><time>2026-03-22T08:03:00.999Z</time></trkpt><trkpt lat="40.34593651439695" lon="17.94735115793655"><ele>47.0</ele><time>2026-03-22T08:03:34.998Z</time></trkpt><trkpt lat="40.34588778400089" lon="17.947192001605696"><ele>47.0</ele><time>2026-03-22T08:03:36.998Z</time></trkpt><trkpt lat="40.345846111077044" lon="17.94709026901433"><ele>47.0</ele><time>2026-03-22T08:03:37.998Z</time></trkpt><trkpt lat="40.34579787847232" lon="17.946977086552526"><ele>47.0</ele><time>2026-03-22T08:03:38.998Z</time></trkpt><trkpt lat="40.345739928296275" lon="17.94684293851956"><ele>47.0</ele><time>2026-03-22T08:03:39.998Z</time></trkpt><trkpt lat="40.34567523441126" lon="17.94669978915918"><ele>47.0</ele><time>2026-03-22T08:03:40.998Z</time></trkpt><trkpt lat="40.345609292983376" lon="17.946558973291825"><ele>47.0</ele><time>2026-03-22T08:03:41.998Z</time></trkpt><trkpt lat="40.3455388935771" lon="17.946412786320355"><ele>47.0</ele><time>2026-03-22T08:03:42.998Z</time></trkpt><trkpt lat="40.345460332523594" lon="17.946256955525914"><ele>47.0</ele><time>2026-03-22T08:03:43.998Z</time></trkpt><trkpt lat="40.3453759962389" lon="17.946097911427895"><ele>47.0</ele><time>2026-03-22T08:03:44.998Z</time></trkpt><trkpt lat="40.34528538975622" lon="17.945938080140856"><ele>47.0</ele><time>2026-03-22T08:03:45.998Z</time></trkpt><trkpt lat="40.34518501049582" lon="17.945772523144186"><ele>47.666666666666664</ele><time>2026-03-22T08:03:46.998Z</time></trkpt><trkpt lat="40.345089544442224" lon="17.945600648628847"><ele>48.33333333333333</ele><time>2026-03-22T08:03:47.998Z</time></trkpt><trkpt lat="40.34498576001143" lon="17.94543553575316"><ele>49.0</ele><time>2026-03-22T08:03:49Z</time></trkpt><trkpt lat="40.34487463758374" lon="17.945270239555015"><ele>49.0</ele><time>2026-03-22T08:03:50Z</time></trkpt><trkpt lat="40.3447583546108" lon="17.945104989451718"><ele>49.0</ele><time>2026-03-22T08:03:51Z</time></trkpt><trkpt lat="40.3446435204901" lon="17.944941338950976"><ele>49.0</ele><time>2026-03-22T08:03:52Z</time></trkpt><trkpt lat="40.34452011292661" lon="17.944772475104156"><ele>48.33333333333333</ele><time>2026-03-22T08:03:53Z</time></trkpt><trkpt lat="40.34439387446772" lon="17.94460348992452"><ele>47.666666666666664</ele><time>2026-03-22T08:03:54Z</time></trkpt><trkpt lat="40.344264049771425" lon="17.944441438786743"><ele>47.0</ele><time>2026-03-22T08:03:55Z</time></trkpt><trkpt lat="40.344130274144625" lon="17.944282157186326"><ele>47.33333333333333</ele><time>2026-03-22T08:03:56Z</time></trkpt><trkpt lat="40.34398957705434" lon="17.944124184922376"><ele>47.666666666666664</ele><time>2026-03-22T08:03:57Z</time></trkpt><trkpt lat="40.34384443838159" lon="17.9439666444992"><ele>48.0</ele><time>2026-03-22T08:03:58Z</time></trkpt><trkpt lat="40.34369831651325" lon="17.943810640518652"><ele>48.0</ele><time>2026-03-22T08:03:59Z</time></trkpt><trkpt lat="40.343546183883916" lon="17.94366914941633"><ele>48.0</ele><time>2026-03-22T08:04:00Z</time></trkpt><trkpt lat="40.34339758394842" lon="17.943520758820252"><ele>48.0</ele><time>2026-03-22T08:04:01Z</time></trkpt><trkpt lat="40.343246922553156" lon="17.943377585936112"><ele>48.33333333333333</ele><time>2026-03-22T08:04:02Z</time></trkpt><trkpt lat="40.343092388380846" lon="17.94324094023705"><ele>48.666666666666664</ele><time>2026-03-22T08:04:03Z</time></trkpt><trkpt lat="40.34292597928157" lon="17.94311182163581"><ele>49.0</ele><time>2026-03-22T08:04:04Z</time></trkpt><trkpt lat="40.34276998548359" lon="17.942995247763864"><ele>49.0</ele><time>2026-03-22T08:04:05Z</time></trkpt><trkpt lat="40.3426116646421" lon="17.94287681745848"><ele>49.0</ele><time>2026-03-22T08:04:06Z</time></trkpt><trkpt lat="40.34245349137099" lon="17.9427675425239"><ele>49.0</ele><time>2026-03-22T08:04:07Z</time></trkpt><trkpt lat="40.34229477010741" lon="17.94266286752329"><ele>48.666666666666664</ele><time>2026-03-22T08:04:08Z</time></trkpt><trkpt lat="40.342135499240264" lon="17.942564634674838"><ele>48.33333333333333</ele><time>2026-03-22T08:04:09Z</time></trkpt><trkpt lat="40.34197543125573" lon="17.94247918726265"><ele>48.0</ele><time>2026-03-22T08:04:10Z</time></trkpt><trkpt lat="40.34182108523918" lon="17.942387158853492"><ele>49.0</ele><time>2026-03-22T08:04:11Z</time></trkpt><trkpt lat="40.341665217928515" lon="17.942301586788734"><ele>50.0</ele><time>2026-03-22T08:04:12Z</time></trkpt><trkpt lat="40.34150580231553" lon="17.942220878162583"><ele>51.0</ele><time>2026-03-22T08:04:13Z</time></trkpt><trkpt lat="40.34134913436373" lon="17.942150395486024"><ele>51.0</ele><time>2026-03-22T08:04:14Z</time></trkpt><trkpt lat="40.341190284484" lon="17.942085581755148"><ele>51.0</ele><time>2026-03-22T08:04:15Z</time></trkpt><trkpt lat="40.341028970377415" lon="17.94202291951527"><ele>51.0</ele><time>2026-03-22T08:04:16Z</time></trkpt><trkpt lat="40.34086770060654" lon="17.94196160569999"><ele>51.0</ele><time>2026-03-22T08:04:17Z</time></trkpt><trkpt lat="40.34070111312695" lon="17.941901890308177"><ele>51.0</ele><time>2026-03-22T08:04:18Z</time></trkpt><trkpt lat="40.34053264039746" lon="17.941849331196792"><ele>51.0</ele><time>2026-03-22T08:04:19Z</time></trkpt><trkpt lat="40.34037007354754" lon="17.9417988168175"><ele>50.33333333333333</ele><time>2026-03-22T08:04:20Z</time></trkpt><trkpt lat="40.34019476960719" lon="17.94175457748759"><ele>49.666666666666664</ele><time>2026-03-22T08:04:21Z</time></trkpt><trkpt lat="40.34001679859692" lon="17.94171855204962"><ele>49.0</ele><time>2026-03-22T08:04:22Z</time></trkpt><trkpt lat="40.3398453832583" lon="17.94168015749831"><ele>48.666666666666664</ele><time>2026-03-22T08:04:23Z</time></trkpt><trkpt lat="40.33968742669831" lon="17.941653073672263"><ele>48.33333333333333</ele><time>2026-03-22T08:04:24Z</time></trkpt><trkpt lat="40.33953320600639" lon="17.941632470705517"><ele>48.0</ele><time>2026-03-22T08:04:25Z</time></trkpt><trkpt lat="40.33938833835072" lon="17.94161327222631"><ele>48.0</ele><time>2026-03-22T08:04:26Z</time></trkpt><trkpt lat="40.33925414508026" lon="17.941596081352646"><ele>48.0</ele><time>2026-03-22T08:04:27Z</time></trkpt><trkpt lat="40.339128911101525" lon="17.94158821283418"><ele>48.0</ele><time>2026-03-22T08:04:28Z</time></trkpt><trkpt lat="40.339006139916066" lon="17.941584300716094"><ele>48.0</ele><time>2026-03-22T08:04:28.999Z</time></trkpt><trkpt lat="40.338894289786055" lon="17.94157848742951"><ele>48.0</ele><time>2026-03-22T08:04:29.999Z</time></trkpt><trkpt lat="40.3387873788644" lon="17.94157775958389"><ele>48.0</ele><time>2026-03-22T08:04:30.999Z</time></trkpt><trkpt lat="40.33869567303239" lon="17.941581119322052"><ele>48.0</ele><time>2026-03-22T08:04:31.999Z</time></trkpt><trkpt lat="40.33862807526916" lon="17.94157780845834"><ele>48.0</ele><time>2026-03-22T08:04:32.999Z</time></trkpt><trkpt lat="40.33855440579028" lon="17.941578090386887"><ele>48.0</ele><time>2026-03-22T08:04:34.999Z</time></trkpt><trkpt lat="40.338447898126276" lon="17.9415854748196"><ele>48.0</ele><time>2026-03-22T08:04:55.999Z</time></trkpt><trkpt lat="40.33837838793554" lon="17.941578187835532"><ele>48.0</ele><time>2026-03-22T08:04:56.999Z</time></trkpt><trkpt lat="40.338295049498086" lon="17.941577231576787"><ele>48.0</ele><time>2026-03-22T08:04:57.999Z</time></trkpt><trkpt lat="40.33820684706043" lon="17.941580021242615"><ele>48.0</ele><time>2026-03-22T08:04:58.999Z</time></trkpt><trkpt lat="40.33809987656887" lon="17.941589862999933"><ele>48.0</ele><time>2026-03-22T08:04:59.999Z</time></trkpt><trkpt lat="40.33797552927128" lon="17.941606534882247"><ele>48.0</ele><time>2026-03-22T08:05:00.999Z</time></trkpt><trkpt lat="40.337846392891294" lon="17.941619063470036"><ele>48.0</ele><time>2026-03-22T08:05:01.999Z</time></trkpt><trkpt lat="40.33771083553259" lon="17.94162961548097"><ele>48.0</ele><time>2026-03-22T08:05:02.999Z</time></trkpt><trkpt lat="40.33756186617196" lon="17.941647638408018"><ele>48.0</ele><time>2026-03-22T08:05:03.999Z</time></trkpt><trkpt lat="40.3374019541366" lon="17.94166658807447"><ele>48.0</ele><time>2026-03-22T08:05:04.999Z</time></trkpt><trkpt lat="40.33722867670946" lon="17.941692398038743"><ele>48.0</ele><time>2026-03-22T08:05:05.999Z</time></trkpt><trkpt lat="40.33705507611672" lon="17.9417246949257"><ele>48.0</ele><time>2026-03-22T08:05:06.999Z</time></trkpt><trkpt lat="40.336878669889416" lon="17.941758051026476"><ele>48.0</ele><time>2026-03-22T08:05:07.999Z</time></trkpt><trkpt lat="40.336691187763634" lon="17.941798275462737"><ele>48.0</ele><time>2026-03-22T08:05:08.999Z</time></trkpt><trkpt lat="40.33649578905719" lon="17.941839834876774"><ele>48.0</ele><time>2026-03-22T08:05:09.999Z</time></trkpt><trkpt lat="40.33629370567227" lon="17.941884238573966"><ele>48.0</ele><time>2026-03-22T08:05:10.999Z</time></trkpt><trkpt lat="40.33608640000879" lon="17.941926578775625"><ele>48.0</ele><time>2026-03-22T08:05:11.999Z</time></trkpt><trkpt lat="40.33587537596547" lon="17.94197033779137"><ele>48.0</ele><time>2026-03-22T08:05:12.999Z</time></trkpt><trkpt lat="40.33566476622303" lon="17.942014266219026"><ele>48.0</ele><time>2026-03-22T08:05:13.999Z</time></trkpt><trkpt lat="40.33544836578643" lon="17.942057925612257"><ele>48.5</ele><time>2026-03-22T08:05:14.999Z</time></trkpt><trkpt lat="40.33522583224479" lon="17.942102298281885"><ele>49.0</ele><time>2026-03-22T08:05:15.999Z</time></trkpt><trkpt lat="40.33500326345811" lon="17.942145645240398"><ele>49.0</ele><time>2026-03-22T08:05:16.999Z</time></trkpt><trkpt lat="40.334782247563986" lon="17.942192024223655"><ele>49.0</ele><time>2026-03-22T08:05:17.999Z</time></trkpt><trkpt lat="40.334564885780274" lon="17.94223900233927"><ele>49.0</ele><time>2026-03-22T08:05:18.999Z</time></trkpt><trkpt lat="40.334351647808155" lon="17.942287601749282"><ele>50.0</ele><time>2026-03-22T08:05:19.999Z</time></trkpt><trkpt lat="40.33414231788893" lon="17.942332044507655"><ele>51.0</ele><time>2026-03-22T08:05:20.999Z</time></trkpt><trkpt lat="40.333924710099986" lon="17.94237509509934"><ele>52.0</ele><time>2026-03-22T08:05:21.998Z</time></trkpt><trkpt lat="40.33370923599311" lon="17.942424014341462"><ele>52.33333333333333</ele><time>2026-03-22T08:05:22.998Z</time></trkpt><trkpt lat="40.33349746440678" lon="17.942470843882294"><ele>52.66666666666667</ele><time>2026-03-22T08:05:23.998Z</time></trkpt><trkpt lat="40.33328843701199" lon="17.9425160974033"><ele>53.0</ele><time>2026-03-22T08:05:24.998Z</time></trkpt><trkpt lat="40.333081224309886" lon="17.942559904022144"><ele>53.66666666666667</ele><time>2026-03-22T08:05:25.998Z</time></trkpt><trkpt lat="40.33287370044452" lon="17.942607081377655"><ele>54.33333333333333</ele><time>2026-03-22T08:05:26.998Z</time></trkpt><trkpt lat="40.332669478694186" lon="17.94265434478655"><ele>55.0</ele><time>2026-03-22T08:05:27.998Z</time></trkpt><trkpt lat="40.332463065469476" lon="17.942677613415682"><ele>55.0</ele><time>2026-03-22T08:05:28.998Z</time></trkpt><trkpt lat="40.332255460743" lon="17.942721330291576"><ele>55.0</ele><time>2026-03-22T08:05:29.998Z</time></trkpt><trkpt lat="40.33204088839106" lon="17.942766514391888"><ele>55.0</ele><time>2026-03-22T08:05:30.998Z</time></trkpt><trkpt lat="40.33182383617235" lon="17.94281222070346"><ele>55.0</ele><time>2026-03-22T08:05:31.998Z</time></trkpt><trkpt lat="40.33161800633867" lon="17.942874880373093"><ele>55.0</ele><time>2026-03-22T08:05:32.998Z</time></trkpt><trkpt lat="40.331425800011694" lon="17.942912522860674"><ele>55.0</ele><time>2026-03-22T08:05:33.998Z</time></trkpt><trkpt lat="40.33123171047853" lon="17.942934896609852"><ele>54.33333333333333</ele><time>2026-03-22T08:05:34.998Z</time></trkpt><trkpt lat="40.33106077230958" lon="17.94299083356972"><ele>53.66666666666667</ele><time>2026-03-22T08:05:35.998Z</time></trkpt><trkpt lat="40.330902809618486" lon="17.943000373025413"><ele>53.0</ele><time>2026-03-22T08:05:36.998Z</time></trkpt><trkpt lat="40.33076054621339" lon="17.943043356923212"><ele>53.0</ele><time>2026-03-22T08:05:37.998Z</time></trkpt><trkpt lat="40.3306414977862" lon="17.943062908916286"><ele>53.0</ele><time>2026-03-22T08:05:38.998Z</time></trkpt><trkpt lat="40.33053781803058" lon="17.943065864536354"><ele>53.0</ele><time>2026-03-22T08:05:39.998Z</time></trkpt><trkpt lat="40.33044924169783" lon="17.94306237699019"><ele>53.0</ele><time>2026-03-22T08:05:40.998Z</time></trkpt><trkpt lat="40.3303670893392" lon="17.94304037385268"><ele>53.0</ele><time>2026-03-22T08:05:41.998Z</time></trkpt><trkpt lat="40.33028486521788" lon="17.94299988418155"><ele>52.8</ele><time>2026-03-22T08:05:42.998Z</time></trkpt><trkpt lat="40.330202051844054" lon="17.942933492319536"><ele>52.599999999999994</ele><time>2026-03-22T08:05:43.998Z</time></trkpt><trkpt lat="40.33013511380488" lon="17.94283996740174"><ele>52.400000000000006</ele><time>2026-03-22T08:05:44.998Z</time></trkpt><trkpt lat="40.33007488782918" lon="17.942720509844563"><ele>52.2</ele><time>2026-03-22T08:05:45.998Z</time></trkpt><trkpt lat="40.3300213288045" lon="17.942566985744183"><ele>52.0</ele><time>2026-03-22T08:05:46.998Z</time></trkpt><trkpt lat="40.329994397717094" lon="17.942390700927856"><ele>52.0</ele><time>2026-03-22T08:05:47.998Z</time></trkpt><trkpt lat="40.32993480007536" lon="17.9422061708028"><ele>52.0</ele><time>2026-03-22T08:05:48.998Z</time></trkpt><trkpt lat="40.32988980780459" lon="17.941977163528662"><ele>52.0</ele><time>2026-03-22T08:05:49.998Z</time></trkpt><trkpt lat="40.329837689337964" lon="17.941728584374182"><ele>52.0</ele><time>2026-03-22T08:05:50.998Z</time></trkpt><trkpt lat="40.32978351068492" lon="17.941454086258602"><ele>52.0</ele><time>2026-03-22T08:05:51.998Z</time></trkpt><trkpt lat="40.32974148470924" lon="17.941170414221492"><ele>52.0</ele><time>2026-03-22T08:05:52.998Z</time></trkpt><trkpt lat="40.329693483551665" lon="17.940870824406062"><ele>52.5</ele><time>2026-03-22T08:05:54Z</time></trkpt><trkpt lat="40.32962414735774" lon="17.940550090177478"><ele>53.0</ele><time>2026-03-22T08:05:55Z</time></trkpt><trkpt lat="40.329560326770995" lon="17.940225701430997"><ele>53.0</ele><time>2026-03-22T08:05:56Z</time></trkpt><trkpt lat="40.32949564546777" lon="17.939927853603876"><ele>53.0</ele><time>2026-03-22T08:05:57Z</time></trkpt><trkpt lat="40.32942798414179" lon="17.93961725126443"><ele>53.0</ele><time>2026-03-22T08:05:58Z</time></trkpt><trkpt lat="40.32937272775792" lon="17.939318901901697"><ele>53.0</ele><time>2026-03-22T08:05:59Z</time></trkpt><trkpt lat="40.329314909215014" lon="17.93902538182809"><ele>54.5</ele><time>2026-03-22T08:06:00Z</time></trkpt><trkpt lat="40.32925753898136" lon="17.938734901347498"><ele>56.0</ele><time>2026-03-22T08:06:01Z</time></trkpt><trkpt lat="40.32920158055192" lon="17.938444491131197"><ele>57.0</ele><time>2026-03-22T08:06:02Z</time></trkpt><trkpt lat="40.32914234776144" lon="17.938157233527466"><ele>58.0</ele><time>2026-03-22T08:06:03Z</time></trkpt><trkpt lat="40.32908393890193" lon="17.937871387331636"><ele>58.0</ele><time>2026-03-22T08:06:04Z</time></trkpt><trkpt lat="40.32902601960312" lon="17.93758622135063"><ele>58.0</ele><time>2026-03-22T08:06:05Z</time></trkpt><trkpt lat="40.32896680541769" lon="17.937301283483297"><ele>57.5</ele><time>2026-03-22T08:06:06Z</time></trkpt><trkpt lat="40.32890588974271" lon="17.937012516255482"><ele>57.0</ele><time>2026-03-22T08:06:07Z</time></trkpt><trkpt lat="40.32884811953743" lon="17.936723062389245"><ele>56.0</ele><time>2026-03-22T08:06:08Z</time></trkpt><trkpt lat="40.328792597773564" lon="17.936432616744803"><ele>55.0</ele><time>2026-03-22T08:06:09Z</time></trkpt><trkpt lat="40.32873494966267" lon="17.936141912007333"><ele>56.0</ele><time>2026-03-22T08:06:10Z</time></trkpt><trkpt lat="40.328675601004875" lon="17.93585249699853"><ele>57.0</ele><time>2026-03-22T08:06:11Z</time></trkpt><trkpt lat="40.328613435466124" lon="17.93556296252137"><ele>57.0</ele><time>2026-03-22T08:06:12Z</time></trkpt><trkpt lat="40.3285520703627" lon="17.935270252837228"><ele>57.0</ele><time>2026-03-22T08:06:13Z</time></trkpt><trkpt lat="40.32849023681054" lon="17.934976672399497"><ele>56.5</ele><time>2026-03-22T08:06:14Z</time></trkpt><trkpt lat="40.32843293042471" lon="17.934683940359946"><ele>56.0</ele><time>2026-03-22T08:06:15Z</time></trkpt><trkpt lat="40.32837697513463" lon="17.934394815050187"><ele>56.333333333333336</ele><time>2026-03-22T08:06:16Z</time></trkpt><trkpt lat="40.328320330816794" lon="17.934118691660835"><ele>56.66666666666667</ele><time>2026-03-22T08:06:17Z</time></trkpt><trkpt lat="40.328260900999" lon="17.93384902218833"><ele>57.0</ele><time>2026-03-22T08:06:18Z</time></trkpt><trkpt lat="40.328205424992866" lon="17.933577742836203"><ele>57.0</ele><time>2026-03-22T08:06:19Z</time></trkpt><trkpt lat="40.328153500383486" lon="17.933308201230655"><ele>57.0</ele><time>2026-03-22T08:06:20Z</time></trkpt><trkpt lat="40.328095555091004" lon="17.93303414473748"><ele>57.0</ele><time>2026-03-22T08:06:21Z</time></trkpt><trkpt lat="40.32803726274319" lon="17.932754436041723"><ele>56.66666666666667</ele><time>2026-03-22T08:06:22Z</time></trkpt><trkpt lat="40.32797920789996" lon="17.932473348843676"><ele>56.333333333333336</ele><time>2026-03-22T08:06:23Z</time></trkpt><trkpt lat="40.32792357934335" lon="17.932191873423758"><ele>56.0</ele><time>2026-03-22T08:06:24Z</time></trkpt><trkpt lat="40.32786788771168" lon="17.931912148272847"><ele>55.66666666666667</ele><time>2026-03-22T08:06:25Z</time></trkpt><trkpt lat="40.3278126404888" lon="17.93162760271832"><ele>55.33333333333333</ele><time>2026-03-22T08:06:26Z</time></trkpt><trkpt lat="40.327754458560314" lon="17.931347582788312"><ele>55.0</ele><time>2026-03-22T08:06:27Z</time></trkpt><trkpt lat="40.32769780783897" lon="17.931065928313846"><ele>54.666666666666664</ele><time>2026-03-22T08:06:28Z</time></trkpt><trkpt lat="40.327641040541785" lon="17.93078537547453"><ele>54.33333333333333</ele><time>2026-03-22T08:06:29Z</time></trkpt><trkpt lat="40.327585036747735" lon="17.930504081959473"><ele>54.0</ele><time>2026-03-22T08:06:30Z</time></trkpt><trkpt lat="40.327530572250325" lon="17.930220499079873"><ele>53.66666666666667</ele><time>2026-03-22T08:06:31Z</time></trkpt><trkpt lat="40.327472971309774" lon="17.929940831534896"><ele>53.333333333333336</ele><time>2026-03-22T08:06:32Z</time></trkpt><trkpt lat="40.32741570738745" lon="17.92966012292179"><ele>53.0</ele><time>2026-03-22T08:06:33Z</time></trkpt><trkpt lat="40.327355404366415" lon="17.92938246785793"><ele>52.66666666666667</ele><time>2026-03-22T08:06:33.999Z</time></trkpt><trkpt lat="40.327296541890284" lon="17.929101390663835"><ele>52.33333333333333</ele><time>2026-03-22T08:06:34.999Z</time></trkpt><trkpt lat="40.32723807616215" lon="17.928824700236255"><ele>52.0</ele><time>2026-03-22T08:06:35.999Z</time></trkpt><trkpt lat="40.327182235253986" lon="17.928546253820254"><ele>52.33333333333333</ele><time>2026-03-22T08:06:36.999Z</time></trkpt><trkpt lat="40.32712667104302" lon="17.92826776507427"><ele>52.66666666666667</ele><time>2026-03-22T08:06:37.999Z</time></trkpt><trkpt lat="40.32707281497355" lon="17.92799938849671"><ele>53.0</ele><time>2026-03-22T08:06:38.999Z</time></trkpt><trkpt lat="40.32702442454593" lon="17.927746575600096"><ele>53.0</ele><time>2026-03-22T08:06:39.999Z</time></trkpt><trkpt lat="40.32697451599839" lon="17.927503541567518"><ele>53.0</ele><time>2026-03-22T08:06:40.999Z</time></trkpt><trkpt lat="40.32692950438434" lon="17.92726315941413"><ele>53.0</ele><time>2026-03-22T08:06:41.999Z</time></trkpt><trkpt lat="40.32688348484557" lon="17.927033851617058"><ele>53.0</ele><time>2026-03-22T08:06:42.999Z</time></trkpt><trkpt lat="40.326838796588866" lon="17.92681188534984"><ele>53.0</ele><time>2026-03-22T08:06:43.999Z</time></trkpt><trkpt lat="40.3267992697801" lon="17.926594547965834"><ele>53.0</ele><time>2026-03-22T08:06:44.999Z</time></trkpt><trkpt lat="40.326760341175095" lon="17.926393403850355"><ele>53.0</ele><time>2026-03-22T08:06:45.999Z</time></trkpt><trkpt lat="40.32672053081952" lon="17.926205996046257"><ele>53.0</ele><time>2026-03-22T08:06:46.999Z</time></trkpt><trkpt lat="40.32668875755305" lon="17.92603572619904"><ele>53.0</ele><time>2026-03-22T08:06:47.999Z</time></trkpt><trkpt lat="40.32666724917034" lon="17.925881770533874"><ele>53.0</ele><time>2026-03-22T08:06:48.999Z</time></trkpt><trkpt lat="40.32666701186171" lon="17.925732962003302"><ele>53.0</ele><time>2026-03-22T08:06:49.999Z</time></trkpt><trkpt lat="40.32668408144981" lon="17.925587221257718"><ele>53.0</ele><time>2026-03-22T08:06:50.999Z</time></trkpt><trkpt lat="40.32671768930265" lon="17.925452021225777"><ele>53.0</ele><time>2026-03-22T08:06:51.999Z</time></trkpt><trkpt lat="40.32672292996761" lon="17.925322428364584"><ele>53.0</ele><time>2026-03-22T08:06:52.999Z</time></trkpt><trkpt lat="40.326695957836414" lon="17.925203486196768"><ele>53.0</ele><time>2026-03-22T08:06:53.999Z</time></trkpt><trkpt lat="40.32662983189987" lon="17.925079587570377"><ele>52.25</ele><time>2026-03-22T08:06:54.999Z</time></trkpt><trkpt lat="40.32654292884161" lon="17.92495298860424"><ele>51.5</ele><time>2026-03-22T08:06:55.999Z</time></trkpt><trkpt lat="40.32645973787057" lon="17.924805367029027"><ele>50.75</ele><time>2026-03-22T08:06:56.999Z</time></trkpt><trkpt lat="40.32637343804366" lon="17.924639070440456"><ele>50.0</ele><time>2026-03-22T08:06:57.999Z</time></trkpt><trkpt lat="40.3263567314805" lon="17.92439236389926"><ele>49.66666666666667</ele><time>2026-03-22T08:06:58.999Z</time></trkpt><trkpt lat="40.32630782926983" lon="17.92416055816402"><ele>49.33333333333333</ele><time>2026-03-22T08:06:59.999Z</time></trkpt><trkpt lat="40.32625673151089" lon="17.923930133142996"><ele>49.0</ele><time>2026-03-22T08:07:00.999Z</time></trkpt><trkpt lat="40.326201631283226" lon="17.923690006384255"><ele>49.0</ele><time>2026-03-22T08:07:01.999Z</time></trkpt><trkpt lat="40.326147447616215" lon="17.923435484965985"><ele>49.0</ele><time>2026-03-22T08:07:02.999Z</time></trkpt><trkpt lat="40.32609158490492" lon="17.923170343103028"><ele>49.0</ele><time>2026-03-22T08:07:03.999Z</time></trkpt><trkpt lat="40.32603480711595" lon="17.9228943421231"><ele>49.33333333333333</ele><time>2026-03-22T08:07:04.999Z</time></trkpt><trkpt lat="40.32597969516094" lon="17.92262203178875"><ele>49.66666666666667</ele><time>2026-03-22T08:07:05.999Z</time></trkpt><trkpt lat="40.325927045144105" lon="17.922346737745546"><ele>50.0</ele><time>2026-03-22T08:07:06.999Z</time></trkpt><trkpt lat="40.325872858498336" lon="17.922068714143794"><ele>50.0</ele><time>2026-03-22T08:07:07.999Z</time></trkpt><trkpt lat="40.32581408924507" lon="17.921788761090493"><ele>50.0</ele><time>2026-03-22T08:07:08.999Z</time></trkpt><trkpt lat="40.32575989168628" lon="17.92149921847301"><ele>50.0</ele><time>2026-03-22T08:07:09.999Z</time></trkpt><trkpt lat="40.32570183086806" lon="17.921209778176394"><ele>49.5</ele><time>2026-03-22T08:07:10.999Z</time></trkpt><trkpt lat="40.32564448108779" lon="17.920916657649382"><ele>49.0</ele><time>2026-03-22T08:07:11.999Z</time></trkpt><trkpt lat="40.32558390715835" lon="17.920623041801015"><ele>48.5</ele><time>2026-03-22T08:07:12.999Z</time></trkpt><trkpt lat="40.32552384991121" lon="17.920336862024158"><ele>48.0</ele><time>2026-03-22T08:07:13.999Z</time></trkpt><trkpt lat="40.32546550675386" lon="17.92004853394124"><ele>48.0</ele><time>2026-03-22T08:07:14.999Z</time></trkpt><trkpt lat="40.32540718402647" lon="17.919759267854484"><ele>48.0</ele><time>2026-03-22T08:07:15.999Z</time></trkpt><trkpt lat="40.32534768614422" lon="17.919468851870974"><ele>49.0</ele><time>2026-03-22T08:07:16.999Z</time></trkpt><trkpt lat="40.32528641389946" lon="17.919178890572077"><ele>50.0</ele><time>2026-03-22T08:07:17.999Z</time></trkpt><trkpt lat="40.32522716716318" lon="17.918887438823095"><ele>50.0</ele><time>2026-03-22T08:07:18.999Z</time></trkpt><trkpt lat="40.32516988380196" lon="17.91859524054529"><ele>50.0</ele><time>2026-03-22T08:07:19.999Z</time></trkpt><trkpt lat="40.325110021767145" lon="17.918304439068233"><ele>50.0</ele><time>2026-03-22T08:07:20.999Z</time></trkpt><trkpt lat="40.32505323004903" lon="17.91801278831186"><ele>50.0</ele><time>2026-03-22T08:07:21.999Z</time></trkpt><trkpt lat="40.32499308395421" lon="17.917720651102947"><ele>50.0</ele><time>2026-03-22T08:07:22.999Z</time></trkpt><trkpt lat="40.32493387737234" lon="17.917428817363596"><ele>50.0</ele><time>2026-03-22T08:07:23.999Z</time></trkpt><trkpt lat="40.324875809647544" lon="17.917138810139328"><ele>50.0</ele><time>2026-03-22T08:07:24.999Z</time></trkpt><trkpt lat="40.32481765145393" lon="17.916851257686506"><ele>50.0</ele><time>2026-03-22T08:07:25.999Z</time></trkpt><trkpt lat="40.324760754548755" lon="17.916567797879427"><ele>49.0</ele><time>2026-03-22T08:07:26.999Z</time></trkpt><trkpt lat="40.324702682573026" lon="17.916289654999137"><ele>48.0</ele><time>2026-03-22T08:07:27.998Z</time></trkpt><trkpt lat="40.32464300598799" lon="17.91601529673715"><ele>47.0</ele><time>2026-03-22T08:07:28.998Z</time></trkpt><trkpt lat="40.32458723040679" lon="17.91574628610069"><ele>47.0</ele><time>2026-03-22T08:07:29.998Z</time></trkpt><trkpt lat="40.324535853845326" lon="17.91547946889992"><ele>47.0</ele><time>2026-03-22T08:07:30.998Z</time></trkpt><trkpt lat="40.32448370877779" lon="17.9152070889977"><ele>47.0</ele><time>2026-03-22T08:07:31.998Z</time></trkpt><trkpt lat="40.32442951405054" lon="17.91493710180523"><ele>47.0</ele><time>2026-03-22T08:07:32.998Z</time></trkpt><trkpt lat="40.324374139377035" lon="17.91467071761552"><ele>47.0</ele><time>2026-03-22T08:07:33.998Z</time></trkpt><trkpt lat="40.32431796781066" lon="17.91440373632973"><ele>47.0</ele><time>2026-03-22T08:07:34.998Z</time></trkpt><trkpt lat="40.32426319864304" lon="17.914137598690612"><ele>47.0</ele><time>2026-03-22T08:07:35.998Z</time></trkpt><trkpt lat="40.324209456204734" lon="17.913871578059645"><ele>47.0</ele><time>2026-03-22T08:07:36.998Z</time></trkpt><trkpt lat="40.32415896828575" lon="17.913603362798554"><ele>47.0</ele><time>2026-03-22T08:07:37.998Z</time></trkpt><trkpt lat="40.3241060334543" lon="17.913338439414126"><ele>47.0</ele><time>2026-03-22T08:07:38.998Z</time></trkpt><trkpt lat="40.324052170463915" lon="17.913073414612096"><ele>47.0</ele><time>2026-03-22T08:07:39.998Z</time></trkpt><trkpt lat="40.32399893957702" lon="17.91280629480014"><ele>47.0</ele><time>2026-03-22T08:07:40.998Z</time></trkpt><trkpt lat="40.32394453979791" lon="17.9125411815773"><ele>46.0</ele><time>2026-03-22T08:07:41.998Z</time></trkpt><trkpt lat="40.323889924168455" lon="17.912275683252886"><ele>45.0</ele><time>2026-03-22T08:07:42.998Z</time></trkpt><trkpt lat="40.32383700258209" lon="17.912010455512032"><ele>44.0</ele><time>2026-03-22T08:07:43.998Z</time></trkpt><trkpt lat="40.32378231248549" lon="17.91174271935693"><ele>44.666666666666664</ele><time>2026-03-22T08:07:44.998Z</time></trkpt><trkpt lat="40.32372657866204" lon="17.911476265642417"><ele>45.333333333333336</ele><time>2026-03-22T08:07:45.998Z</time></trkpt><trkpt lat="40.32367119463749" lon="17.911208255176284"><ele>46.0</ele><time>2026-03-22T08:07:46.998Z</time></trkpt><trkpt lat="40.32361656451757" lon="17.910943158944217"><ele>46.0</ele><time>2026-03-22T08:07:47.998Z</time></trkpt><trkpt lat="40.32356293705713" lon="17.910673959348546"><ele>46.0</ele><time>2026-03-22T08:07:48.998Z</time></trkpt><trkpt lat="40.32351005655006" lon="17.91041055189198"><ele>46.0</ele><time>2026-03-22T08:07:49.998Z</time></trkpt><trkpt lat="40.323458166900295" lon="17.91015045668464"><ele>46.66666666666667</ele><time>2026-03-22T08:07:50.998Z</time></trkpt><trkpt lat="40.32340502270348" lon="17.909893758365264"><ele>47.333333333333336</ele><time>2026-03-22T08:07:51.998Z</time></trkpt><trkpt lat="40.323353016271724" lon="17.90963327223117"><ele>48.0</ele><time>2026-03-22T08:07:52.998Z</time></trkpt><trkpt lat="40.32330000170806" lon="17.9093705182861"><ele>47.666666666666664</ele><time>2026-03-22T08:07:53.998Z</time></trkpt><trkpt lat="40.32324709110846" lon="17.90910726327913"><ele>47.33333333333333</ele><time>2026-03-22T08:07:54.998Z</time></trkpt><trkpt lat="40.32319422503897" lon="17.90884191355992"><ele>47.0</ele><time>2026-03-22T08:07:55.998Z</time></trkpt><trkpt lat="40.3231417253829" lon="17.908575766193138"><ele>46.666666666666664</ele><time>2026-03-22T08:07:56.998Z</time></trkpt><trkpt lat="40.32308702052714" lon="17.908308954569318"><ele>46.333333333333336</ele><time>2026-03-22T08:07:57.998Z</time></trkpt><trkpt lat="40.32303253615074" lon="17.90803931115792"><ele>46.0</ele><time>2026-03-22T08:07:58.998Z</time></trkpt><trkpt lat="40.322979198655396" lon="17.90777790227161"><ele>45.333333333333336</ele><time>2026-03-22T08:08:00Z</time></trkpt><trkpt lat="40.322921817885565" lon="17.9075196847386"><ele>44.666666666666664</ele><time>2026-03-22T08:08:01Z</time></trkpt><trkpt lat="40.322862831283565" lon="17.90725668831915"><ele>44.0</ele><time>2026-03-22T08:08:02Z</time></trkpt><trkpt lat="40.322796776934" lon="17.906996098536087"><ele>43.666666666666664</ele><time>2026-03-22T08:08:03Z</time></trkpt><trkpt lat="40.32274568222438" lon="17.906731257467158"><ele>43.333333333333336</ele><time>2026-03-22T08:08:04Z</time></trkpt><trkpt lat="40.32263500917632" lon="17.90648792424333"><ele>43.0</ele><time>2026-03-22T08:08:05Z</time></trkpt><trkpt lat="40.322543506258576" lon="17.90623586152747"><ele>43.0</ele><time>2026-03-22T08:08:06Z</time></trkpt><trkpt lat="40.322444589279975" lon="17.905986059592937"><ele>43.0</ele><time>2026-03-22T08:08:07Z</time></trkpt><trkpt lat="40.32233823610757" lon="17.90573581007688"><ele>43.0</ele><time>2026-03-22T08:08:08Z</time></trkpt><trkpt lat="40.322230950414664" lon="17.905491189500893"><ele>43.333333333333336</ele><time>2026-03-22T08:08:09Z</time></trkpt><trkpt lat="40.322121973349944" lon="17.905236572335088"><ele>43.666666666666664</ele><time>2026-03-22T08:08:10Z</time></trkpt><trkpt lat="40.32201742136815" lon="17.9049851818919"><ele>44.0</ele><time>2026-03-22T08:08:11Z</time></trkpt><trkpt lat="40.321905459275555" lon="17.904729539078712"><ele>44.0</ele><time>2026-03-22T08:08:12Z</time></trkpt><trkpt lat="40.321795145364646" lon="17.904479048154485"><ele>44.0</ele><time>2026-03-22T08:08:13Z</time></trkpt><trkpt lat="40.32168487780573" lon="17.904221960859275"><ele>44.0</ele><time>2026-03-22T08:08:14Z</time></trkpt><trkpt lat="40.32157408188004" lon="17.90396357202207"><ele>44.0</ele><time>2026-03-22T08:08:15Z</time></trkpt><trkpt lat="40.32146316119107" lon="17.9037078687591"><ele>44.0</ele><time>2026-03-22T08:08:16Z</time></trkpt><trkpt lat="40.32135197401596" lon="17.903453356486516"><ele>44.0</ele><time>2026-03-22T08:08:17Z</time></trkpt><trkpt lat="40.32124074909362" lon="17.903199493158453"><ele>44.666666666666664</ele><time>2026-03-22T08:08:18Z</time></trkpt><trkpt lat="40.32113268855619" lon="17.902947932380084"><ele>45.333333333333336</ele><time>2026-03-22T08:08:19Z</time></trkpt><trkpt lat="40.32102378740011" lon="17.90270115285204"><ele>46.0</ele><time>2026-03-22T08:08:20Z</time></trkpt><trkpt lat="40.32091498476197" lon="17.90245320001038"><ele>46.0</ele><time>2026-03-22T08:08:21Z</time></trkpt><trkpt lat="40.32080616237749" lon="17.90220652863248"><ele>46.0</ele><time>2026-03-22T08:08:22Z</time></trkpt><trkpt lat="40.320689816580284" lon="17.90196256491602"><ele>46.0</ele><time>2026-03-22T08:08:23Z</time></trkpt><trkpt lat="40.32058401159698" lon="17.901717264073564"><ele>46.0</ele><time>2026-03-22T08:08:24Z</time></trkpt><trkpt lat="40.32048805720779" lon="17.90147197721758"><ele>46.0</ele><time>2026-03-22T08:08:25Z</time></trkpt><trkpt lat="40.320380073022854" lon="17.90122858313509"><ele>46.0</ele><time>2026-03-22T08:08:26Z</time></trkpt><trkpt lat="40.320275289271706" lon="17.90098325765225"><ele>46.333333333333336</ele><time>2026-03-22T08:08:27Z</time></trkpt><trkpt lat="40.32017300589843" lon="17.90073619542865"><ele>46.666666666666664</ele><time>2026-03-22T08:08:28Z</time></trkpt><trkpt lat="40.320067117273716" lon="17.90048879745238"><ele>47.0</ele><time>2026-03-22T08:08:29Z</time></trkpt><trkpt lat="40.31995982993768" lon="17.900241040558207"><ele>47.0</ele><time>2026-03-22T08:08:30Z</time></trkpt><trkpt lat="40.319851479900656" lon="17.899991606616595"><ele>47.0</ele><time>2026-03-22T08:08:31Z</time></trkpt><trkpt lat="40.31974373398262" lon="17.899742411354254"><ele>47.0</ele><time>2026-03-22T08:08:32Z</time></trkpt><trkpt lat="40.319634277806855" lon="17.899494924025827"><ele>46.666666666666664</ele><time>2026-03-22T08:08:33Z</time></trkpt><trkpt lat="40.319524956773066" lon="17.89924545134226"><ele>46.333333333333336</ele><time>2026-03-22T08:08:34Z</time></trkpt><trkpt lat="40.31941517178253" lon="17.898995253764966"><ele>46.0</ele><time>2026-03-22T08:08:35Z</time></trkpt><trkpt lat="40.31930655036579" lon="17.898740543957405"><ele>46.0</ele><time>2026-03-22T08:08:36Z</time></trkpt><trkpt lat="40.31919832963788" lon="17.89848477480497"><ele>46.0</ele><time>2026-03-22T08:08:37Z</time></trkpt><trkpt lat="40.31909009398032" lon="17.898234513723434"><ele>46.0</ele><time>2026-03-22T08:08:38Z</time></trkpt><trkpt lat="40.31898170489767" lon="17.897987894613852"><ele>45.0</ele><time>2026-03-22T08:08:39Z</time></trkpt><trkpt lat="40.31887682279793" lon="17.897741216807848"><ele>44.0</ele><time>2026-03-22T08:08:40Z</time></trkpt><trkpt lat="40.31877113297024" lon="17.89749786766069"><ele>43.0</ele><time>2026-03-22T08:08:41Z</time></trkpt><trkpt lat="40.318664200161344" lon="17.89725264239747"><ele>43.0</ele><time>2026-03-22T08:08:42Z</time></trkpt><trkpt lat="40.31856136080866" lon="17.897007218188385"><ele>43.0</ele><time>2026-03-22T08:08:42.999Z</time></trkpt><trkpt lat="40.31845365102292" lon="17.89676153998302"><ele>43.0</ele><time>2026-03-22T08:08:43.999Z</time></trkpt><trkpt lat="40.31834811712645" lon="17.89651753788461"><ele>43.0</ele><time>2026-03-22T08:08:44.999Z</time></trkpt><trkpt lat="40.31824069902887" lon="17.896268472754187"><ele>43.0</ele><time>2026-03-22T08:08:45.999Z</time></trkpt><trkpt lat="40.31813406097199" lon="17.89602146302808"><ele>43.0</ele><time>2026-03-22T08:08:46.999Z</time></trkpt><trkpt lat="40.318031254973114" lon="17.895774503449832"><ele>43.0</ele><time>2026-03-22T08:08:47.999Z</time></trkpt><trkpt lat="40.317923550869565" lon="17.895528821434997"><ele>43.0</ele><time>2026-03-22T08:08:48.999Z</time></trkpt><trkpt lat="40.31781923894814" lon="17.89528057382349"><ele>43.0</ele><time>2026-03-22T08:08:49.999Z</time></trkpt><trkpt lat="40.31771155407776" lon="17.895034034022604"><ele>42.333333333333336</ele><time>2026-03-22T08:08:50.999Z</time></trkpt><trkpt lat="40.317605689967586" lon="17.894786258488484"><ele>41.666666666666664</ele><time>2026-03-22T08:08:51.999Z</time></trkpt><trkpt lat="40.317493848215875" lon="17.894540577568968"><ele>41.0</ele><time>2026-03-22T08:08:52.999Z</time></trkpt><trkpt lat="40.31738482439045" lon="17.89429481432793"><ele>41.33333333333333</ele><time>2026-03-22T08:08:53.999Z</time></trkpt><trkpt lat="40.31728150037654" lon="17.894044231180338"><ele>41.666666666666664</ele><time>2026-03-22T08:08:54.999Z</time></trkpt><trkpt lat="40.31717467382556" lon="17.893796483514333"><ele>42.0</ele><time>2026-03-22T08:08:55.999Z</time></trkpt><trkpt lat="40.317067549060745" lon="17.893551715025865"><ele>40.333333333333336</ele><time>2026-03-22T08:08:56.999Z</time></trkpt><trkpt lat="40.31695434492647" lon="17.8933046386993"><ele>38.66666666666667</ele><time>2026-03-22T08:08:57.999Z</time></trkpt><trkpt lat="40.31685377849535" lon="17.89306328456403"><ele>37.0</ele><time>2026-03-22T08:08:58.999Z</time></trkpt><trkpt lat="40.31675326168428" lon="17.892813556954955"><ele>37.0</ele><time>2026-03-22T08:08:59.999Z</time></trkpt><trkpt lat="40.3166454426319" lon="17.89256616916299"><ele>37.0</ele><time>2026-03-22T08:09:00.999Z</time></trkpt><trkpt lat="40.31653510160614" lon="17.892320895536937"><ele>37.0</ele><time>2026-03-22T08:09:01.999Z</time></trkpt><trkpt lat="40.31642244149577" lon="17.892076594161928"><ele>36.5</ele><time>2026-03-22T08:09:02.999Z</time></trkpt><trkpt lat="40.31631000069891" lon="17.891825546799108"><ele>36.0</ele><time>2026-03-22T08:09:03.999Z</time></trkpt><trkpt lat="40.316192192807165" lon="17.89156937901798"><ele>35.5</ele><time>2026-03-22T08:09:04.999Z</time></trkpt><trkpt lat="40.316078211409376" lon="17.891311860978508"><ele>35.0</ele><time>2026-03-22T08:09:05.999Z</time></trkpt><trkpt lat="40.31596663331103" lon="17.891050859159805"><ele>36.0</ele><time>2026-03-22T08:09:06.999Z</time></trkpt><trkpt lat="40.31585706099864" lon="17.890793028989286"><ele>37.0</ele><time>2026-03-22T08:09:07.999Z</time></trkpt><trkpt lat="40.31575033814713" lon="17.890527892323327"><ele>37.0</ele><time>2026-03-22T08:09:08.999Z</time></trkpt><trkpt lat="40.315643860790075" lon="17.890263527618913"><ele>37.0</ele><time>2026-03-22T08:09:09.999Z</time></trkpt><trkpt lat="40.31553467289188" lon="17.889999503284738"><ele>36.333333333333336</ele><time>2026-03-22T08:09:10.999Z</time></trkpt><trkpt lat="40.3154242989243" lon="17.88973987018428"><ele>35.666666666666664</ele><time>2026-03-22T08:09:11.999Z</time></trkpt><trkpt lat="40.31531088118541" lon="17.889489614119864"><ele>35.0</ele><time>2026-03-22T08:09:12.999Z</time></trkpt><trkpt lat="40.31520014080243" lon="17.88923956923016"><ele>34.666666666666664</ele><time>2026-03-22T08:09:13.999Z</time></trkpt><trkpt lat="40.315093458060595" lon="17.888991742966603"><ele>34.333333333333336</ele><time>2026-03-22T08:09:14.999Z</time></trkpt><trkpt lat="40.31498591654638" lon="17.88875002442274"><ele>34.0</ele><time>2026-03-22T08:09:15.999Z</time></trkpt><trkpt lat="40.31488732162542" lon="17.888504156239005"><ele>33.66666666666667</ele><time>2026-03-22T08:09:16.999Z</time></trkpt><trkpt lat="40.31478586177859" lon="17.88826558549468"><ele>33.333333333333336</ele><time>2026-03-22T08:09:17.999Z</time></trkpt><trkpt lat="40.31468174327105" lon="17.888028471933072"><ele>33.0</ele><time>2026-03-22T08:09:18.999Z</time></trkpt><trkpt lat="40.31457954856822" lon="17.88778946872218"><ele>33.666666666666664</ele><time>2026-03-22T08:09:19.999Z</time></trkpt><trkpt lat="40.31447653373281" lon="17.887549950803763"><ele>34.33333333333333</ele><time>2026-03-22T08:09:20.999Z</time></trkpt><trkpt lat="40.31437608495811" lon="17.887313230637922"><ele>35.0</ele><time>2026-03-22T08:09:21.999Z</time></trkpt><trkpt lat="40.31427153383936" lon="17.887073189485683"><ele>35.0</ele><time>2026-03-22T08:09:22.999Z</time></trkpt><trkpt lat="40.31416834524667" lon="17.886838657986424"><ele>35.0</ele><time>2026-03-22T08:09:23.999Z</time></trkpt><trkpt lat="40.31406404813663" lon="17.886601626435553"><ele>35.0</ele><time>2026-03-22T08:09:24.999Z</time></trkpt><trkpt lat="40.31396003351575" lon="17.88636592379638"><ele>34.33333333333333</ele><time>2026-03-22T08:09:25.999Z</time></trkpt><trkpt lat="40.313856983038214" lon="17.88613060210711"><ele>33.666666666666664</ele><time>2026-03-22T08:09:26.999Z</time></trkpt><trkpt lat="40.313753361387576" lon="17.885893509971858"><ele>33.0</ele><time>2026-03-22T08:09:27.999Z</time></trkpt><trkpt lat="40.31364940110699" lon="17.885655716659652"><ele>33.0</ele><time>2026-03-22T08:09:28.999Z</time></trkpt><trkpt lat="40.31354913581864" lon="17.88542103442829"><ele>33.0</ele><time>2026-03-22T08:09:29.999Z</time></trkpt><trkpt lat="40.31344454808215" lon="17.8851873945715"><ele>33.0</ele><time>2026-03-22T08:09:30.999Z</time></trkpt><trkpt lat="40.31334286106178" lon="17.884952231910514"><ele>33.0</ele><time>2026-03-22T08:09:31.999Z</time></trkpt><trkpt lat="40.31324023601001" lon="17.88470948549761"><ele>33.0</ele><time>2026-03-22T08:09:32.999Z</time></trkpt><trkpt lat="40.3131395652295" lon="17.88447050218776"><ele>33.0</ele><time>2026-03-22T08:09:33.999Z</time></trkpt><trkpt lat="40.31303813243045" lon="17.88423293950564"><ele>32.666666666666664</ele><time>2026-03-22T08:09:34.999Z</time></trkpt><trkpt lat="40.31293417947663" lon="17.883994502719695"><ele>32.33333333333333</ele><time>2026-03-22T08:09:35.999Z</time></trkpt><trkpt lat="40.312827696090366" lon="17.883751260106102"><ele>32.0</ele><time>2026-03-22T08:09:36.998Z</time></trkpt><trkpt lat="40.31272216007478" lon="17.883506997643458"><ele>31.666666666666664</ele><time>2026-03-22T08:09:37.998Z</time></trkpt><trkpt lat="40.31261759700111" lon="17.8832622739091"><ele>31.333333333333336</ele><time>2026-03-22T08:09:38.998Z</time></trkpt><trkpt lat="40.31250897083907" lon="17.883015503030506"><ele>31.0</ele><time>2026-03-22T08:09:39.998Z</time></trkpt><trkpt lat="40.31240403608461" lon="17.882762954070312"><ele>31.0</ele><time>2026-03-22T08:09:40.998Z</time></trkpt><trkpt lat="40.31229566426509" lon="17.882513808680503"><ele>31.0</ele><time>2026-03-22T08:09:41.998Z</time></trkpt><trkpt lat="40.312185434057874" lon="17.88226511895025"><ele>31.0</ele><time>2026-03-22T08:09:42.998Z</time></trkpt><trkpt lat="40.31207625656284" lon="17.88201556988394"><ele>30.333333333333336</ele><time>2026-03-22T08:09:43.998Z</time></trkpt><trkpt lat="40.31196717501831" lon="17.881769065799457"><ele>29.666666666666664</ele><time>2026-03-22T08:09:44.998Z</time></trkpt><trkpt lat="40.31186930184262" lon="17.881539879135808"><ele>29.0</ele><time>2026-03-22T08:09:45.998Z</time></trkpt><trkpt lat="40.31177823595015" lon="17.881327383558673"><ele>28.666666666666664</ele><time>2026-03-22T08:09:46.998Z</time></trkpt><trkpt lat="40.31169086579949" lon="17.881128247632663"><ele>28.333333333333336</ele><time>2026-03-22T08:09:47.998Z</time></trkpt><trkpt lat="40.31160839538105" lon="17.880936795337057"><ele>28.0</ele><time>2026-03-22T08:09:48.998Z</time></trkpt><trkpt lat="40.31153197957591" lon="17.880755473969028"><ele>28.5</ele><time>2026-03-22T08:09:49.998Z</time></trkpt><trkpt lat="40.31146020852283" lon="17.88058647625176"><ele>29.0</ele><time>2026-03-22T08:09:50.998Z</time></trkpt><trkpt lat="40.3113875446179" lon="17.880427152181866"><ele>29.5</ele><time>2026-03-22T08:09:51.998Z</time></trkpt><trkpt lat="40.3113151351442" lon="17.880270954466823"><ele>30.0</ele><time>2026-03-22T08:09:52.998Z</time></trkpt><trkpt lat="40.31125142392144" lon="17.880122565875165"><ele>30.25</ele><time>2026-03-22T08:09:53.998Z</time></trkpt><trkpt lat="40.31119069765438" lon="17.879972269447403"><ele>30.5</ele><time>2026-03-22T08:09:54.998Z</time></trkpt><trkpt lat="40.31112922754743" lon="17.879828064867354"><ele>30.75</ele><time>2026-03-22T08:09:55.998Z</time></trkpt><trkpt lat="40.31106994223164" lon="17.879686967710246"><ele>31.0</ele><time>2026-03-22T08:09:56.998Z</time></trkpt><trkpt lat="40.311008727117" lon="17.87955372441437"><ele>31.0</ele><time>2026-03-22T08:09:57.998Z</time></trkpt><trkpt lat="40.31094996948549" lon="17.879419169687104"><ele>31.0</ele><time>2026-03-22T08:09:58.998Z</time></trkpt><trkpt lat="40.31088295294965" lon="17.87926900153745"><ele>31.0</ele><time>2026-03-22T08:09:59.998Z</time></trkpt><trkpt lat="40.31081011303252" lon="17.879103087678782"><ele>31.0</ele><time>2026-03-22T08:10:00.998Z</time></trkpt><trkpt lat="40.31073473309114" lon="17.87892371857564"><ele>31.0</ele><time>2026-03-22T08:10:01.998Z</time></trkpt><trkpt lat="40.31065809954841" lon="17.878733857758196"><ele>31.0</ele><time>2026-03-22T08:10:02.998Z</time></trkpt><trkpt lat="40.31057349440323" lon="17.87853993951821"><ele>31.0</ele><time>2026-03-22T08:10:03.998Z</time></trkpt><trkpt lat="40.31048513176136" lon="17.87833485958737"><ele>30.0</ele><time>2026-03-22T08:10:04.998Z</time></trkpt><trkpt lat="40.31039217829564" lon="17.878124930501713"><ele>29.0</ele><time>2026-03-22T08:10:06Z</time></trkpt><trkpt lat="40.31029451623342" lon="17.87790628211601"><ele>28.0</ele><time>2026-03-22T08:10:07Z</time></trkpt><trkpt lat="40.31019653758687" lon="17.87766962065825"><ele>28.0</ele><time>2026-03-22T08:10:08Z</time></trkpt><trkpt lat="40.31009300541457" lon="17.877428815802304"><ele>28.0</ele><time>2026-03-22T08:10:09Z</time></trkpt><trkpt lat="40.30998353449538" lon="17.87718425216999"><ele>28.0</ele><time>2026-03-22T08:10:10Z</time></trkpt><trkpt lat="40.30987232776465" lon="17.876932951336613"><ele>28.0</ele><time>2026-03-22T08:10:11Z</time></trkpt><trkpt lat="40.30976574590801" lon="17.876679177157158"><ele>28.0</ele><time>2026-03-22T08:10:12Z</time></trkpt><trkpt lat="40.30965495960201" lon="17.8764196400466"><ele>28.0</ele><time>2026-03-22T08:10:13Z</time></trkpt><trkpt lat="40.30954094181453" lon="17.87615587395281"><ele>28.0</ele><time>2026-03-22T08:10:14Z</time></trkpt><trkpt lat="40.30942997554464" lon="17.875901577348486"><ele>28.0</ele><time>2026-03-22T08:10:15Z</time></trkpt><trkpt lat="40.30932170802651" lon="17.875646069571907"><ele>28.0</ele><time>2026-03-22T08:10:16Z</time></trkpt><trkpt lat="40.30921508646046" lon="17.875399132345038"><ele>28.0</ele><time>2026-03-22T08:10:17Z</time></trkpt><trkpt lat="40.30910639278062" lon="17.875149526069507"><ele>28.0</ele><time>2026-03-22T08:10:18Z</time></trkpt><trkpt lat="40.30900410183664" lon="17.87490654365702"><ele>28.0</ele><time>2026-03-22T08:10:19Z</time></trkpt><trkpt lat="40.30889771481529" lon="17.874663801654364"><ele>28.0</ele><time>2026-03-22T08:10:20Z</time></trkpt><trkpt lat="40.30879211846712" lon="17.874421197405653"><ele>28.0</ele><time>2026-03-22T08:10:21Z</time></trkpt><trkpt lat="40.30868894704918" lon="17.874181507060683"><ele>28.0</ele><time>2026-03-22T08:10:22Z</time></trkpt><trkpt lat="40.30858794100102" lon="17.87394015147266"><ele>27.666666666666668</ele><time>2026-03-22T08:10:23Z</time></trkpt><trkpt lat="40.30848551094395" lon="17.87370360589684"><ele>27.333333333333336</ele><time>2026-03-22T08:10:24Z</time></trkpt><trkpt lat="40.308377731669474" lon="17.873460996398578"><ele>27.0</ele><time>2026-03-22T08:10:25Z</time></trkpt><trkpt lat="40.30827210857603" lon="17.873220331733197"><ele>27.0</ele><time>2026-03-22T08:10:26Z</time></trkpt><trkpt lat="40.30816537425527" lon="17.872974465804727"><ele>27.0</ele><time>2026-03-22T08:10:27Z</time></trkpt><trkpt lat="40.30805859446306" lon="17.87272437590877"><ele>27.0</ele><time>2026-03-22T08:10:28Z</time></trkpt><trkpt lat="40.307955725414736" lon="17.87247630037976"><ele>27.0</ele><time>2026-03-22T08:10:29Z</time></trkpt><trkpt lat="40.30784799754443" lon="17.872224509259592"><ele>27.0</ele><time>2026-03-22T08:10:30Z</time></trkpt><trkpt lat="40.307736820267635" lon="17.871971095820285"><ele>27.0</ele><time>2026-03-22T08:10:31Z</time></trkpt><trkpt lat="40.307624760875065" lon="17.87172126309358"><ele>27.0</ele><time>2026-03-22T08:10:32Z</time></trkpt><trkpt lat="40.30751719490765" lon="17.87146422744244"><ele>27.0</ele><time>2026-03-22T08:10:33Z</time></trkpt><trkpt lat="40.307406893752635" lon="17.871209376011006"><ele>27.0</ele><time>2026-03-22T08:10:34Z</time></trkpt><trkpt lat="40.30729237201341" lon="17.870949798884904"><ele>26.0</ele><time>2026-03-22T08:10:35Z</time></trkpt><trkpt lat="40.307179319802515" lon="17.870690209850565"><ele>25.0</ele><time>2026-03-22T08:10:36Z</time></trkpt><trkpt lat="40.30706538015628" lon="17.87042588074058"><ele>25.0</ele><time>2026-03-22T08:10:37Z</time></trkpt><trkpt lat="40.30695321614483" lon="17.870163240045905"><ele>25.0</ele><time>2026-03-22T08:10:38Z</time></trkpt><trkpt lat="40.306839740151666" lon="17.86990189145682"><ele>26.0</ele><time>2026-03-22T08:10:39Z</time></trkpt><trkpt lat="40.30672556848768" lon="17.869643453300505"><ele>27.0</ele><time>2026-03-22T08:10:40Z</time></trkpt><trkpt lat="40.3066143743157" lon="17.869384577581663"><ele>27.0</ele><time>2026-03-22T08:10:41Z</time></trkpt><trkpt lat="40.30650329805962" lon="17.86912842769344"><ele>27.0</ele><time>2026-03-22T08:10:42Z</time></trkpt><trkpt lat="40.306389267915314" lon="17.86886786425147"><ele>28.0</ele><time>2026-03-22T08:10:43Z</time></trkpt><trkpt lat="40.30627682530006" lon="17.86860761162878"><ele>29.0</ele><time>2026-03-22T08:10:44Z</time></trkpt><trkpt lat="40.306164268531084" lon="17.86834586239119"><ele>27.0</ele><time>2026-03-22T08:10:45Z</time></trkpt><trkpt lat="40.306050867194536" lon="17.868084093659323"><ele>25.0</ele><time>2026-03-22T08:10:46Z</time></trkpt><trkpt lat="40.30593805532301" lon="17.86782300135188"><ele>25.0</ele><time>2026-03-22T08:10:47Z</time></trkpt><trkpt lat="40.30582293954955" lon="17.867551569670677"><ele>25.0</ele><time>2026-03-22T08:10:48Z</time></trkpt><trkpt lat="40.3057067916656" lon="17.867283368029945"><ele>25.0</ele><time>2026-03-22T08:10:48.999Z</time></trkpt><trkpt lat="40.305589910894916" lon="17.867014332298524"><ele>25.0</ele><time>2026-03-22T08:10:49.999Z</time></trkpt><trkpt lat="40.30547206930165" lon="17.86674618083996"><ele>25.0</ele><time>2026-03-22T08:10:50.999Z</time></trkpt><trkpt lat="40.30535187837452" lon="17.866477238612276"><ele>25.0</ele><time>2026-03-22T08:10:51.999Z</time></trkpt><trkpt lat="40.30523221666569" lon="17.866207785252683"><ele>25.5</ele><time>2026-03-22T08:10:52.999Z</time></trkpt><trkpt lat="40.305114067643046" lon="17.86593263876055"><ele>26.0</ele><time>2026-03-22T08:10:53.999Z</time></trkpt><trkpt lat="40.30499570932574" lon="17.86565599828694"><ele>26.0</ele><time>2026-03-22T08:10:54.999Z</time></trkpt><trkpt lat="40.304878869715026" lon="17.865379700998517"><ele>26.0</ele><time>2026-03-22T08:10:55.999Z</time></trkpt><trkpt lat="40.30476155346586" lon="17.865102319132568"><ele>25.5</ele><time>2026-03-22T08:10:56.999Z</time></trkpt><trkpt lat="40.30464219621676" lon="17.864823393053022"><ele>25.0</ele><time>2026-03-22T08:10:57.999Z</time></trkpt><trkpt lat="40.30452192922435" lon="17.86454507237899"><ele>25.0</ele><time>2026-03-22T08:10:58.999Z</time></trkpt><trkpt lat="40.30440242864023" lon="17.86426503872903"><ele>25.0</ele><time>2026-03-22T08:10:59.999Z</time></trkpt><trkpt lat="40.304282653211736" lon="17.863991661611927"><ele>25.0</ele><time>2026-03-22T08:11:00.999Z</time></trkpt><trkpt lat="40.30416239252126" lon="17.863719497029763"><ele>25.0</ele><time>2026-03-22T08:11:01.999Z</time></trkpt><trkpt lat="40.30404537396484" lon="17.863448798145264"><ele>24.5</ele><time>2026-03-22T08:11:02.999Z</time></trkpt><trkpt lat="40.303929576286066" lon="17.86318191000184"><ele>24.0</ele><time>2026-03-22T08:11:03.999Z</time></trkpt><trkpt lat="40.303817132783614" lon="17.86292336080413"><ele>24.0</ele><time>2026-03-22T08:11:04.999Z</time></trkpt><trkpt lat="40.30370935977371" lon="17.86268403074127"><ele>24.0</ele><time>2026-03-22T08:11:05.999Z</time></trkpt><trkpt lat="40.303606671398" lon="17.86244959009879"><ele>24.0</ele><time>2026-03-22T08:11:06.999Z</time></trkpt><trkpt lat="40.30351462946125" lon="17.862213448025564"><ele>24.0</ele><time>2026-03-22T08:11:07.999Z</time></trkpt><trkpt lat="40.30341363883668" lon="17.861983871183995"><ele>24.0</ele><time>2026-03-22T08:11:08.999Z</time></trkpt><trkpt lat="40.30331437028411" lon="17.861755739097006"><ele>24.0</ele><time>2026-03-22T08:11:09.999Z</time></trkpt><trkpt lat="40.30321339518721" lon="17.86152432439869"><ele>24.333333333333336</ele><time>2026-03-22T08:11:10.999Z</time></trkpt><trkpt lat="40.30311605234669" lon="17.861302351107586"><ele>24.666666666666668</ele><time>2026-03-22T08:11:11.999Z</time></trkpt><trkpt lat="40.30302285120345" lon="17.861102710509236"><ele>25.0</ele><time>2026-03-22T08:11:12.999Z</time></trkpt><trkpt lat="40.30294552509391" lon="17.860918952308225"><ele>25.5</ele><time>2026-03-22T08:11:13.999Z</time></trkpt><trkpt lat="40.3028722401253" lon="17.86074791030597"><ele>26.0</ele><time>2026-03-22T08:11:14.999Z</time></trkpt><trkpt lat="40.30278815649087" lon="17.86057047105578"><ele>26.5</ele><time>2026-03-22T08:11:15.999Z</time></trkpt><trkpt lat="40.30273676132184" lon="17.860447971759264"><ele>27.0</ele><time>2026-03-22T08:11:16.999Z</time></trkpt><trkpt lat="40.30269490647044" lon="17.860338817514933"><ele>27.0</ele><time>2026-03-22T08:11:17.999Z</time></trkpt><trkpt lat="40.30266998638989" lon="17.860257816140894"><ele>27.000000000000004</ele><time>2026-03-22T08:11:18.999Z</time></trkpt><trkpt lat="40.30268631548494" lon="17.860120366490843"><ele>27.000000000000004</ele><time>2026-03-22T08:11:20.999Z</time></trkpt><trkpt lat="40.30279493747204" lon="17.859993087813827"><ele>27.0</ele><time>2026-03-22T08:11:22.999Z</time></trkpt><trkpt lat="40.30282801133747" lon="17.85989963182057"><ele>27.0</ele><time>2026-03-22T08:11:23.999Z</time></trkpt><trkpt lat="40.30283052087608" lon="17.859802592075013"><ele>27.0</ele><time>2026-03-22T08:11:24.999Z</time></trkpt><trkpt lat="40.3028053877192" lon="17.859716389551554"><ele>27.000000000000004</ele><time>2026-03-22T08:11:25.999Z</time></trkpt><trkpt lat="40.30274652855307" lon="17.85964021433325"><ele>27.000000000000004</ele><time>2026-03-22T08:11:26.999Z</time></trkpt><trkpt lat="40.30266780576347" lon="17.859597135488055"><ele>27.0</ele><time>2026-03-22T08:11:27.999Z</time></trkpt><trkpt lat="40.30256487872954" lon="17.859586614378753"><ele>27.0</ele><time>2026-03-22T08:11:28.999Z</time></trkpt><trkpt lat="40.302443813766416" lon="17.859599248886322"><ele>27.0</ele><time>2026-03-22T08:11:29.999Z</time></trkpt><trkpt lat="40.30232344952794" lon="17.859584507625414"><ele>27.0</ele><time>2026-03-22T08:11:30.999Z</time></trkpt><trkpt lat="40.3021959306439" lon="17.859522684584167"><ele>27.0</ele><time>2026-03-22T08:11:31.999Z</time></trkpt><trkpt lat="40.30204446655569" lon="17.859433631128432"><ele>27.0</ele><time>2026-03-22T08:11:32.999Z</time></trkpt><trkpt lat="40.30188319259015" lon="17.85932892760202"><ele>27.0</ele><time>2026-03-22T08:11:33.999Z</time></trkpt><trkpt lat="40.30173343497881" lon="17.859216794920606"><ele>27.0</ele><time>2026-03-22T08:11:34.999Z</time></trkpt><trkpt lat="40.30156585439214" lon="17.859112668603924"><ele>27.0</ele><time>2026-03-22T08:11:35.999Z</time></trkpt><trkpt lat="40.30138760215361" lon="17.859008167543756"><ele>26.333333333333336</ele><time>2026-03-22T08:11:36.999Z</time></trkpt><trkpt lat="40.30121783638676" lon="17.858905363842158"><ele>25.666666666666668</ele><time>2026-03-22T08:11:37.999Z</time></trkpt><trkpt lat="40.3010447893019" lon="17.858797927885114"><ele>25.0</ele><time>2026-03-22T08:11:38.999Z</time></trkpt><trkpt lat="40.300882482614625" lon="17.858698354189723"><ele>25.0</ele><time>2026-03-22T08:11:39.999Z</time></trkpt><trkpt lat="40.30072286333451" lon="17.858601169144176"><ele>25.0</ele><time>2026-03-22T08:11:40.999Z</time></trkpt><trkpt lat="40.30056727308045" lon="17.858500788195354"><ele>25.0</ele><time>2026-03-22T08:11:41.999Z</time></trkpt><trkpt lat="40.30041771424745" lon="17.858405491256597"><ele>25.0</ele><time>2026-03-22T08:11:42.998Z</time></trkpt><trkpt lat="40.30027799278583" lon="17.85832451140975"><ele>25.0</ele><time>2026-03-22T08:11:43.998Z</time></trkpt><trkpt lat="40.30014056337169" lon="17.858247848778348"><ele>25.0</ele><time>2026-03-22T08:11:44.998Z</time></trkpt><trkpt lat="40.29999866999497" lon="17.858168497470164"><ele>25.0</ele><time>2026-03-22T08:11:45.998Z</time></trkpt><trkpt lat="40.299851026190446" lon="17.858088350841864"><ele>25.0</ele><time>2026-03-22T08:11:46.998Z</time></trkpt><trkpt lat="40.299699268751304" lon="17.857999351509772"><ele>25.0</ele><time>2026-03-22T08:11:47.998Z</time></trkpt><trkpt lat="40.29953879707276" lon="17.857901113031687"><ele>25.333333333333336</ele><time>2026-03-22T08:11:48.998Z</time></trkpt><trkpt lat="40.29937267516298" lon="17.857796428383207"><ele>25.666666666666664</ele><time>2026-03-22T08:11:49.998Z</time></trkpt><trkpt lat="40.29920349096489" lon="17.85769242007352"><ele>26.0</ele><time>2026-03-22T08:11:50.998Z</time></trkpt><trkpt lat="40.29902940831949" lon="17.857584499920332"><ele>24.666666666666664</ele><time>2026-03-22T08:11:51.998Z</time></trkpt><trkpt lat="40.29886889947582" lon="17.857480780700538"><ele>23.333333333333332</ele><time>2026-03-22T08:11:52.998Z</time></trkpt><trkpt lat="40.2987189439654" lon="17.857386247894702"><ele>22.0</ele><time>2026-03-22T08:11:53.998Z</time></trkpt><trkpt lat="40.29858023532976" lon="17.857296053780285"><ele>22.0</ele><time>2026-03-22T08:11:54.998Z</time></trkpt><trkpt lat="40.29845198446371" lon="17.857213872558596"><ele>22.0</ele><time>2026-03-22T08:11:55.998Z</time></trkpt><trkpt lat="40.29832970812832" lon="17.857131396830503"><ele>22.0</ele><time>2026-03-22T08:11:56.998Z</time></trkpt><trkpt lat="40.29821078651642" lon="17.857049757298277"><ele>22.0</ele><time>2026-03-22T08:11:57.998Z</time></trkpt><trkpt lat="40.29808266043761" lon="17.856966154422754"><ele>21.75</ele><time>2026-03-22T08:11:58.998Z</time></trkpt><trkpt lat="40.29794961335966" lon="17.856889353165084"><ele>21.5</ele><time>2026-03-22T08:11:59.998Z</time></trkpt><trkpt lat="40.29781524585558" lon="17.85681181608794"><ele>21.25</ele><time>2026-03-22T08:12:00.998Z</time></trkpt><trkpt lat="40.297677826600605" lon="17.85673458237135"><ele>21.0</ele><time>2026-03-22T08:12:01.998Z</time></trkpt><trkpt lat="40.297550395494596" lon="17.856653983400214"><ele>21.0</ele><time>2026-03-22T08:12:02.998Z</time></trkpt><trkpt lat="40.29743271454145" lon="17.856586463943184"><ele>21.0</ele><time>2026-03-22T08:12:03.998Z</time></trkpt><trkpt lat="40.29732130882026" lon="17.856518131781893"><ele>21.0</ele><time>2026-03-22T08:12:04.998Z</time></trkpt><trkpt lat="40.2972132335833" lon="17.856448546780644"><ele>21.0</ele><time>2026-03-22T08:12:05.998Z</time></trkpt><trkpt lat="40.297114435185925" lon="17.856355154145376"><ele>21.200000000000003</ele><time>2026-03-22T08:12:06.998Z</time></trkpt><trkpt lat="40.29700230992509" lon="17.85630661334474"><ele>21.400000000000002</ele><time>2026-03-22T08:12:07.998Z</time></trkpt><trkpt lat="40.29690454532723" lon="17.856236468346644"><ele>21.6</ele><time>2026-03-22T08:12:08.998Z</time></trkpt><trkpt lat="40.296812481549594" lon="17.856183042454102"><ele>21.8</ele><time>2026-03-22T08:12:09.998Z</time></trkpt><trkpt lat="40.29671964319496" lon="17.856123535272783"><ele>22.0</ele><time>2026-03-22T08:12:10.998Z</time></trkpt><trkpt lat="40.29660818783229" lon="17.856057094804846"><ele>22.0</ele><time>2026-03-22T08:12:12Z</time></trkpt><trkpt lat="40.296500594758776" lon="17.855993506897303"><ele>22.0</ele><time>2026-03-22T08:12:13Z</time></trkpt><trkpt lat="40.296401181123535" lon="17.855932211791696"><ele>22.0</ele><time>2026-03-22T08:12:14Z</time></trkpt><trkpt lat="40.29631363941672" lon="17.855879169293104"><ele>22.0</ele><time>2026-03-22T08:12:15Z</time></trkpt><trkpt lat="40.296233403127786" lon="17.855834465757766"><ele>22.0</ele><time>2026-03-22T08:12:16Z</time></trkpt><trkpt lat="40.29615615203516" lon="17.855784915184195"><ele>21.6</ele><time>2026-03-22T08:12:17Z</time></trkpt><trkpt lat="40.296071173920815" lon="17.855731992184356"><ele>21.200000000000003</ele><time>2026-03-22T08:12:18Z</time></trkpt><trkpt lat="40.29597999328748" lon="17.85566836228177"><ele>20.8</ele><time>2026-03-22T08:12:19Z</time></trkpt><trkpt lat="40.295894836359665" lon="17.85561871557735"><ele>20.4</ele><time>2026-03-22T08:12:20Z</time></trkpt><trkpt lat="40.29581259059842" lon="17.855581449648366"><ele>20.0</ele><time>2026-03-22T08:12:21Z</time></trkpt><trkpt lat="40.29573583944922" lon="17.85555121384935"><ele>20.0</ele><time>2026-03-22T08:12:22Z</time></trkpt><trkpt lat="40.29566079353528" lon="17.85550438945695"><ele>20.0</ele><time>2026-03-22T08:12:23Z</time></trkpt><trkpt lat="40.29560349884933" lon="17.855444770783595"><ele>20.0</ele><time>2026-03-22T08:12:24Z</time></trkpt><trkpt lat="40.29555462573625" lon="17.855381488157988"><ele>20.0</ele><time>2026-03-22T08:12:25Z</time></trkpt><trkpt lat="40.29550166682675" lon="17.855313808153415"><ele>20.0</ele><time>2026-03-22T08:12:26Z</time></trkpt><trkpt lat="40.295457294808934" lon="17.855251819718625"><ele>20.0</ele><time>2026-03-22T08:12:27Z</time></trkpt><trkpt lat="40.29535791015667" lon="17.855147500176514"><ele>19.833333333333336</ele><time>2026-03-22T08:12:29Z</time></trkpt><trkpt lat="40.29529210160541" lon="17.855115426002985"><ele>19.666666666666668</ele><time>2026-03-22T08:12:30Z</time></trkpt><trkpt lat="40.29520861664516" lon="17.8551210019801"><ele>19.5</ele><time>2026-03-22T08:12:31Z</time></trkpt><trkpt lat="40.29511509311962" lon="17.855111355266757"><ele>19.333333333333332</ele><time>2026-03-22T08:12:32Z</time></trkpt><trkpt lat="40.295013522814415" lon="17.85510173503145"><ele>19.166666666666664</ele><time>2026-03-22T08:12:33Z</time></trkpt><trkpt lat="40.294926898914035" lon="17.855088606527595"><ele>19.0</ele><time>2026-03-22T08:12:34Z</time></trkpt><trkpt lat="40.29484548408752" lon="17.855052513543427"><ele>19.0</ele><time>2026-03-22T08:12:35Z</time></trkpt><trkpt lat="40.29474779521708" lon="17.8550030278464"><ele>19.0</ele><time>2026-03-22T08:12:36Z</time></trkpt><trkpt lat="40.29464476226558" lon="17.854945723683766"><ele>19.0</ele><time>2026-03-22T08:12:37Z</time></trkpt><trkpt lat="40.294535759630804" lon="17.854890726735313"><ele>19.0</ele><time>2026-03-22T08:12:38Z</time></trkpt><trkpt lat="40.2944193667766" lon="17.854844999930144"><ele>19.0</ele><time>2026-03-22T08:12:39Z</time></trkpt><trkpt lat="40.294294387928005" lon="17.854793329458456"><ele>19.0</ele><time>2026-03-22T08:12:40Z</time></trkpt><trkpt lat="40.29415242090931" lon="17.85479404999082"><ele>19.0</ele><time>2026-03-22T08:12:41Z</time></trkpt><trkpt lat="40.29403739210553" lon="17.854677294570244"><ele>19.0</ele><time>2026-03-22T08:12:42Z</time></trkpt><trkpt lat="40.29390558200485" lon="17.854614549881365"><ele>19.5</ele><time>2026-03-22T08:12:43Z</time></trkpt><trkpt lat="40.29378533644706" lon="17.854554798680383"><ele>20.0</ele><time>2026-03-22T08:12:44Z</time></trkpt><trkpt lat="40.29366797901915" lon="17.85450046143308"><ele>20.5</ele><time>2026-03-22T08:12:45Z</time></trkpt><trkpt lat="40.293550350881446" lon="17.85444485244771"><ele>21.0</ele><time>2026-03-22T08:12:46Z</time></trkpt><trkpt lat="40.29342786074321" lon="17.85439717909876"><ele>21.0</ele><time>2026-03-22T08:12:47Z</time></trkpt><trkpt lat="40.29330452663518" lon="17.85434474127961"><ele>21.0</ele><time>2026-03-22T08:12:48Z</time></trkpt><trkpt lat="40.29317818068796" lon="17.854285200908937"><ele>21.0</ele><time>2026-03-22T08:12:49Z</time></trkpt><trkpt lat="40.293047953462015" lon="17.854223325419316"><ele>21.0</ele><time>2026-03-22T08:12:50Z</time></trkpt><trkpt lat="40.29291657835742" lon="17.854159359833133"><ele>18.0</ele><time>2026-03-22T08:12:51Z</time></trkpt><trkpt lat="40.292779857085364" lon="17.854098118903437"><ele>15.0</ele><time>2026-03-22T08:12:52Z</time></trkpt><trkpt lat="40.292636485006696" lon="17.854033255881102"><ele>12.0</ele><time>2026-03-22T08:12:53Z</time></trkpt><trkpt lat="40.29249091534045" lon="17.853962509220576"><ele>12.0</ele><time>2026-03-22T08:12:54Z</time></trkpt><trkpt lat="40.29235348627808" lon="17.853879285173065"><ele>12.0</ele><time>2026-03-22T08:12:54.999Z</time></trkpt><trkpt lat="40.29221391606388" lon="17.85381408543362"><ele>12.0</ele><time>2026-03-22T08:12:55.999Z</time></trkpt><trkpt lat="40.29207846851652" lon="17.85375081158618"><ele>12.0</ele><time>2026-03-22T08:12:56.999Z</time></trkpt><trkpt lat="40.29193704114862" lon="17.853685151698773"><ele>12.333333333333332</ele><time>2026-03-22T08:12:57.999Z</time></trkpt><trkpt lat="40.2917861048869" lon="17.853616053034713"><ele>12.666666666666666</ele><time>2026-03-22T08:12:58.999Z</time></trkpt><trkpt lat="40.291636302988174" lon="17.85354751032204"><ele>13.0</ele><time>2026-03-22T08:12:59.999Z</time></trkpt><trkpt lat="40.291485094407975" lon="17.85347832397306"><ele>12.333333333333332</ele><time>2026-03-22T08:13:00.999Z</time></trkpt><trkpt lat="40.29133896348489" lon="17.853410929819375"><ele>11.666666666666666</ele><time>2026-03-22T08:13:01.999Z</time></trkpt><trkpt lat="40.29119168377883" lon="17.853342714925777"><ele>11.0</ele><time>2026-03-22T08:13:02.999Z</time></trkpt><trkpt lat="40.29103508614245" lon="17.853292784157777"><ele>11.0</ele><time>2026-03-22T08:13:03.999Z</time></trkpt><trkpt lat="40.290884301429664" lon="17.85319993080869"><ele>11.0</ele><time>2026-03-22T08:13:04.999Z</time></trkpt><trkpt lat="40.290727223617495" lon="17.8531271962838"><ele>11.0</ele><time>2026-03-22T08:13:05.999Z</time></trkpt><trkpt lat="40.29057048756929" lon="17.853055099805204"><ele>9.666666666666666</ele><time>2026-03-22T08:13:06.999Z</time></trkpt><trkpt lat="40.29040871101672" lon="17.853001156324414"><ele>8.333333333333334</ele><time>2026-03-22T08:13:07.999Z</time></trkpt><trkpt lat="40.290261905099" lon="17.852932181955858"><ele>7.0</ele><time>2026-03-22T08:13:08.999Z</time></trkpt><trkpt lat="40.2901175954408" lon="17.8528665544107"><ele>7.0</ele><time>2026-03-22T08:13:09.999Z</time></trkpt><trkpt lat="40.28997650941782" lon="17.852781209386794"><ele>7.0</ele><time>2026-03-22T08:13:10.999Z</time></trkpt><trkpt lat="40.28982391445639" lon="17.85271032962005"><ele>7.0</ele><time>2026-03-22T08:13:11.999Z</time></trkpt><trkpt lat="40.28966942247801" lon="17.85263870880054"><ele>6.75</ele><time>2026-03-22T08:13:12.999Z</time></trkpt><trkpt lat="40.289527406888276" lon="17.852572871900005"><ele>6.5</ele><time>2026-03-22T08:13:13.999Z</time></trkpt><trkpt lat="40.28939040303261" lon="17.852510253976828"><ele>6.25</ele><time>2026-03-22T08:13:14.999Z</time></trkpt><trkpt lat="40.28925777314976" lon="17.852471700285065"><ele>6.0</ele><time>2026-03-22T08:13:15.999Z</time></trkpt><trkpt lat="40.28914475723945" lon="17.85240786906737"><ele>6.0</ele><time>2026-03-22T08:13:16.999Z</time></trkpt><trkpt lat="40.28904059658852" lon="17.852361687708672"><ele>6.0</ele><time>2026-03-22T08:13:17.999Z</time></trkpt><trkpt lat="40.288962985186195" lon="17.85234193977183"><ele>6.0</ele><time>2026-03-22T08:13:18.999Z</time></trkpt><trkpt lat="40.28884318658025" lon="17.852295927134396"><ele>6.0</ele><time>2026-03-22T08:13:20.999Z</time></trkpt><trkpt lat="40.28877718544407" lon="17.852266217150532"><ele>6.0</ele><time>2026-03-22T08:13:21.999Z</time></trkpt><trkpt lat="40.28869731099461" lon="17.852283813607638"><ele>5.6</ele><time>2026-03-22T08:13:23.999Z</time></trkpt><trkpt lat="40.28867527762167" lon="17.852364349313966"><ele>5.199999999999999</ele><time>2026-03-22T08:13:24.999Z</time></trkpt><trkpt lat="40.288643814623974" lon="17.85246302491595"><ele>4.800000000000001</ele><time>2026-03-22T08:13:25.999Z</time></trkpt><trkpt lat="40.28861484563488" lon="17.852600823512894"><ele>4.4</ele><time>2026-03-22T08:13:26.999Z</time></trkpt><trkpt lat="40.28857248897237" lon="17.85275173061745"><ele>4.0</ele><time>2026-03-22T08:13:27.999Z</time></trkpt><trkpt lat="40.28852281490681" lon="17.852921481769684"><ele>4.0</ele><time>2026-03-22T08:13:28.999Z</time></trkpt><trkpt lat="40.28843576297215" lon="17.853077748100507"><ele>4.0</ele><time>2026-03-22T08:13:29.999Z</time></trkpt><trkpt lat="40.28837206808576" lon="17.853263935320104"><ele>4.0</ele><time>2026-03-22T08:13:30.999Z</time></trkpt><trkpt lat="40.288308903798054" lon="17.853448250783334"><ele>4.0</ele><time>2026-03-22T08:13:31.999Z</time></trkpt><trkpt lat="40.28825092562695" lon="17.853617432948784"><ele>4.0</ele><time>2026-03-22T08:13:32.999Z</time></trkpt><trkpt lat="40.28819409730003" lon="17.85378207880789"><ele>4.0</ele><time>2026-03-22T08:13:33.999Z</time></trkpt><trkpt lat="40.28814079829695" lon="17.853936830376366"><ele>4.0</ele><time>2026-03-22T08:13:34.999Z</time></trkpt><trkpt lat="40.28809159620919" lon="17.854079689071067"><ele>4.0</ele><time>2026-03-22T08:13:35.999Z</time></trkpt><trkpt lat="40.28804466298433" lon="17.854215520404512"><ele>4.0</ele><time>2026-03-22T08:13:36.999Z</time></trkpt><trkpt lat="40.287992248310665" lon="17.85436614222751"><ele>4.0</ele><time>2026-03-22T08:13:37.999Z</time></trkpt><trkpt lat="40.28793824691877" lon="17.854526086911974"><ele>4.0</ele><time>2026-03-22T08:13:38.999Z</time></trkpt><trkpt lat="40.287882512728" lon="17.85469142640404"><ele>4.0</ele><time>2026-03-22T08:13:39.999Z</time></trkpt><trkpt lat="40.28783328011047" lon="17.85483810221856"><ele>4.0</ele><time>2026-03-22T08:13:40.999Z</time></trkpt><trkpt lat="40.28778955877568" lon="17.854968637112062"><ele>4.0</ele><time>2026-03-22T08:13:41.999Z</time></trkpt><trkpt lat="40.28774440730831" lon="17.85510344818462"><ele>4.0</ele><time>2026-03-22T08:13:42.999Z</time></trkpt><trkpt lat="40.28769328583883" lon="17.855256084776805"><ele>4.0</ele><time>2026-03-22T08:13:43.999Z</time></trkpt><trkpt lat="40.28764482235631" lon="17.855400785854414"><ele>4.0</ele><time>2026-03-22T08:13:44.999Z</time></trkpt><trkpt lat="40.28760121509995" lon="17.85553098656159"><ele>4.0</ele><time>2026-03-22T08:13:45.999Z</time></trkpt><trkpt lat="40.28755727989516" lon="17.855660611333285"><ele>4.0</ele><time>2026-03-22T08:13:46.999Z</time></trkpt><trkpt lat="40.287509424330025" lon="17.855802295110053"><ele>4.0</ele><time>2026-03-22T08:13:47.999Z</time></trkpt><trkpt lat="40.28746114191062" lon="17.855947291181955"><ele>4.0</ele><time>2026-03-22T08:13:48.998Z</time></trkpt><trkpt lat="40.28741980583267" lon="17.856067241239717"><ele>4.0</ele><time>2026-03-22T08:13:49.998Z</time></trkpt><trkpt lat="40.28738183963113" lon="17.856182182931555"><ele>4.0</ele><time>2026-03-22T08:13:50.998Z</time></trkpt><trkpt lat="40.287342137235186" lon="17.856300216141097"><ele>4.0</ele><time>2026-03-22T08:13:51.998Z</time></trkpt><trkpt lat="40.287304165450564" lon="17.8564131043376"><ele>4.2</ele><time>2026-03-22T08:13:52.998Z</time></trkpt><trkpt lat="40.28726529496248" lon="17.85652866419654"><ele>4.4</ele><time>2026-03-22T08:13:53.998Z</time></trkpt><trkpt lat="40.2872241264412" lon="17.856650019004334"><ele>4.6</ele><time>2026-03-22T08:13:54.998Z</time></trkpt><trkpt lat="40.28718263287057" lon="17.856772627829837"><ele>4.8</ele><time>2026-03-22T08:13:55.998Z</time></trkpt><trkpt lat="40.28714097387217" lon="17.85689572539023"><ele>5.0</ele><time>2026-03-22T08:13:56.998Z</time></trkpt><trkpt lat="40.287102365239534" lon="17.85701246852368"><ele>4.4</ele><time>2026-03-22T08:13:57.998Z</time></trkpt><trkpt lat="40.287062712976706" lon="17.857130098161445"><ele>3.8</ele><time>2026-03-22T08:13:58.998Z</time></trkpt><trkpt lat="40.28702410236226" lon="17.8572445468725"><ele>3.2</ele><time>2026-03-22T08:13:59.998Z</time></trkpt><trkpt lat="40.28698477969343" lon="17.857361106228648"><ele>2.6</ele><time>2026-03-22T08:14:00.998Z</time></trkpt><trkpt lat="40.28694241399655" lon="17.857486685660685"><ele>2.0</ele><time>2026-03-22T08:14:01.998Z</time></trkpt><trkpt lat="40.28690020801291" lon="17.857611791384798"><ele>2.25</ele><time>2026-03-22T08:14:02.998Z</time></trkpt><trkpt lat="40.2868567618092" lon="17.857741185356772"><ele>2.5</ele><time>2026-03-22T08:14:03.998Z</time></trkpt><trkpt lat="40.28680971484164" lon="17.857879949095135"><ele>2.75</ele><time>2026-03-22T08:14:04.998Z</time></trkpt><trkpt lat="40.28676183990749" lon="17.858021154893095"><ele>3.0</ele><time>2026-03-22T08:14:05.998Z</time></trkpt><trkpt lat="40.28671658625036" lon="17.85815462912145"><ele>3.0</ele><time>2026-03-22T08:14:06.998Z</time></trkpt><trkpt lat="40.28667712791175" lon="17.8582714250156"><ele>3.0</ele><time>2026-03-22T08:14:07.998Z</time></trkpt><trkpt lat="40.28663744861397" lon="17.8583887180515"><ele>3.0</ele><time>2026-03-22T08:14:08.998Z</time></trkpt><trkpt lat="40.28659283447799" lon="17.858520598607743"><ele>3.0</ele><time>2026-03-22T08:14:09.998Z</time></trkpt><trkpt lat="40.28654543416106" lon="17.858660715060015"><ele>3.0</ele><time>2026-03-22T08:14:10.998Z</time></trkpt><trkpt lat="40.28649625418955" lon="17.858806391049914"><ele>3.0</ele><time>2026-03-22T08:14:11.998Z</time></trkpt><trkpt lat="40.28644894427898" lon="17.85894647618642"><ele>3.0</ele><time>2026-03-22T08:14:12.998Z</time></trkpt><trkpt lat="40.28639149671692" lon="17.859116579014266"><ele>3.0</ele><time>2026-03-22T08:14:13.998Z</time></trkpt><trkpt lat="40.28633629855875" lon="17.859279994878868"><ele>3.0</ele><time>2026-03-22T08:14:14.998Z</time></trkpt><trkpt lat="40.286280006688465" lon="17.85944663625081"><ele>3.25</ele><time>2026-03-22T08:14:15.998Z</time></trkpt><trkpt lat="40.286226941023045" lon="17.859603774802935"><ele>3.5</ele><time>2026-03-22T08:14:16.998Z</time></trkpt><trkpt lat="40.286174782697685" lon="17.85975823630055"><ele>3.75</ele><time>2026-03-22T08:14:18Z</time></trkpt><trkpt lat="40.28612254989144" lon="17.859913101812165"><ele>4.0</ele><time>2026-03-22T08:14:19Z</time></trkpt><trkpt lat="40.28606524141309" lon="17.86008297584718"><ele>4.0</ele><time>2026-03-22T08:14:20Z</time></trkpt><trkpt lat="40.28600564421217" lon="17.86025963408209"><ele>4.0</ele><time>2026-03-22T08:14:21Z</time></trkpt><trkpt lat="40.28594697300674" lon="17.860434954041395"><ele>4.0</ele><time>2026-03-22T08:14:22Z</time></trkpt><trkpt lat="40.285892612929516" lon="17.860597266963204"><ele>4.0</ele><time>2026-03-22T08:14:23Z</time></trkpt><trkpt lat="40.285845684253474" lon="17.860737390599382"><ele>4.0</ele><time>2026-03-22T08:14:24Z</time></trkpt><trkpt lat="40.28580229113868" lon="17.860866957235743"><ele>4.0</ele><time>2026-03-22T08:14:25Z</time></trkpt><trkpt lat="40.28575824035577" lon="17.860995919891263"><ele>4.0</ele><time>2026-03-22T08:14:26Z</time></trkpt><trkpt lat="40.285710441107845" lon="17.86113960490592"><ele>4.0</ele><time>2026-03-22T08:14:27Z</time></trkpt><trkpt lat="40.285659614988745" lon="17.861291407159285"><ele>4.25</ele><time>2026-03-22T08:14:28Z</time></trkpt><trkpt lat="40.28560974860435" lon="17.861440342964592"><ele>4.5</ele><time>2026-03-22T08:14:29Z</time></trkpt><trkpt lat="40.28556231809686" lon="17.861582420357326"><ele>4.75</ele><time>2026-03-22T08:14:30Z</time></trkpt><trkpt lat="40.28551590993026" lon="17.86172143550653"><ele>5.0</ele><time>2026-03-22T08:14:31Z</time></trkpt><trkpt lat="40.2854677976842" lon="17.861865555107954"><ele>4.25</ele><time>2026-03-22T08:14:32Z</time></trkpt><trkpt lat="40.28541871591729" lon="17.862011268133166"><ele>3.5</ele><time>2026-03-22T08:14:33Z</time></trkpt><trkpt lat="40.28536814441635" lon="17.86216161182504"><ele>2.75</ele><time>2026-03-22T08:14:34Z</time></trkpt><trkpt lat="40.28531592478441" lon="17.862316377567776"><ele>2.0</ele><time>2026-03-22T08:14:35Z</time></trkpt><trkpt lat="40.28526215099224" lon="17.862478832343722"><ele>2.25</ele><time>2026-03-22T08:14:36Z</time></trkpt><trkpt lat="40.285207817832976" lon="17.862643965748806"><ele>2.5</ele><time>2026-03-22T08:14:37Z</time></trkpt><trkpt lat="40.285154994105135" lon="17.8628021353778"><ele>2.75</ele><time>2026-03-22T08:14:38Z</time></trkpt><trkpt lat="40.28510762567179" lon="17.86294119352162"><ele>3.0</ele><time>2026-03-22T08:14:39Z</time></trkpt><trkpt lat="40.28506001118384" lon="17.863078370296805"><ele>3.0</ele><time>2026-03-22T08:14:40Z</time></trkpt><trkpt lat="40.28501365755937" lon="17.86320348386156"><ele>3.0</ele><time>2026-03-22T08:14:41Z</time></trkpt><trkpt lat="40.28496273999692" lon="17.863333521267883"><ele>3.0</ele><time>2026-03-22T08:14:42Z</time></trkpt><trkpt lat="40.28490475244067" lon="17.863472987971527"><ele>3.0</ele><time>2026-03-22T08:14:43Z</time></trkpt><trkpt lat="40.28484626873569" lon="17.86361026730291"><ele>3.0</ele><time>2026-03-22T08:14:44Z</time></trkpt><trkpt lat="40.284781517858335" lon="17.863752588463054"><ele>3.0</ele><time>2026-03-22T08:14:45Z</time></trkpt><trkpt lat="40.28471059512571" lon="17.863895126572775"><ele>3.0</ele><time>2026-03-22T08:14:46Z</time></trkpt><trkpt lat="40.28464095668183" lon="17.86403254379307"><ele>3.0</ele><time>2026-03-22T08:14:47Z</time></trkpt><trkpt lat="40.28457089215827" lon="17.864170801642715"><ele>3.5</ele><time>2026-03-22T08:14:48Z</time></trkpt><trkpt lat="40.284501210620746" lon="17.864307716773446"><ele>4.0</ele><time>2026-03-22T08:14:49Z</time></trkpt><trkpt lat="40.28443920399152" lon="17.86442873658163"><ele>4.5</ele><time>2026-03-22T08:14:50Z</time></trkpt><trkpt lat="40.284381406428665" lon="17.86454192309486"><ele>5.0</ele><time>2026-03-22T08:14:51Z</time></trkpt><trkpt lat="40.28431567257961" lon="17.864670607475396"><ele>5.0</ele><time>2026-03-22T08:14:52Z</time></trkpt><trkpt lat="40.284245591443536" lon="17.864807802354335"><ele>5.0</ele><time>2026-03-22T08:14:53Z</time></trkpt><trkpt lat="40.28417334310269" lon="17.864949744834238"><ele>5.0</ele><time>2026-03-22T08:14:54Z</time></trkpt><trkpt lat="40.28409884848224" lon="17.86509622187496"><ele>5.0</ele><time>2026-03-22T08:14:55Z</time></trkpt><trkpt lat="40.28402537694745" lon="17.865239781892193"><ele>5.0</ele><time>2026-03-22T08:14:56Z</time></trkpt><trkpt lat="40.28394617802224" lon="17.865394338410738"><ele>5.0</ele><time>2026-03-22T08:14:57Z</time></trkpt><trkpt lat="40.283866140424685" lon="17.86555194421871"><ele>5.0</ele><time>2026-03-22T08:14:58Z</time></trkpt><trkpt lat="40.28379228388511" lon="17.86569737447949"><ele>5.0</ele><time>2026-03-22T08:14:58.999Z</time></trkpt><trkpt lat="40.28372141667532" lon="17.865836918402717"><ele>4.8</ele><time>2026-03-22T08:14:59.999Z</time></trkpt><trkpt lat="40.28366674974272" lon="17.86594607753736"><ele>4.6</ele><time>2026-03-22T08:15:00.999Z</time></trkpt><trkpt lat="40.28362116618015" lon="17.866036993609207"><ele>4.4</ele><time>2026-03-22T08:15:01.999Z</time></trkpt><trkpt lat="40.28357428844948" lon="17.866130490938176"><ele>4.2</ele><time>2026-03-22T08:15:02.999Z</time></trkpt><trkpt lat="40.28352336349949" lon="17.86623206037445"><ele>4.0</ele><time>2026-03-22T08:15:03.999Z</time></trkpt><trkpt lat="40.28346718473231" lon="17.86634293841353"><ele>4.0</ele><time>2026-03-22T08:15:04.999Z</time></trkpt><trkpt lat="40.28340638768323" lon="17.866462475473355"><ele>4.0</ele><time>2026-03-22T08:15:05.999Z</time></trkpt><trkpt lat="40.28333965824601" lon="17.866594256505547"><ele>4.0</ele><time>2026-03-22T08:15:06.999Z</time></trkpt><trkpt lat="40.28327079721319" lon="17.866730288084554"><ele>4.0</ele><time>2026-03-22T08:15:07.999Z</time></trkpt><trkpt lat="40.283200470645724" lon="17.866869214752818"><ele>3.5</ele><time>2026-03-22T08:15:08.999Z</time></trkpt><trkpt lat="40.283126359582766" lon="17.867015177165673"><ele>3.0</ele><time>2026-03-22T08:15:09.999Z</time></trkpt><trkpt lat="40.2830516208711" lon="17.867162387593538"><ele>2.5</ele><time>2026-03-22T08:15:10.999Z</time></trkpt><trkpt lat="40.2829801581825" lon="17.867303145346828"><ele>2.0</ele><time>2026-03-22T08:15:11.999Z</time></trkpt><trkpt lat="40.28290687376786" lon="17.867447491291582"><ele>1.75</ele><time>2026-03-22T08:15:12.999Z</time></trkpt><trkpt lat="40.282831363126796" lon="17.867596222167005"><ele>1.5</ele><time>2026-03-22T08:15:13.999Z</time></trkpt><trkpt lat="40.28275437589084" lon="17.867747861445995"><ele>1.25</ele><time>2026-03-22T08:15:14.999Z</time></trkpt><trkpt lat="40.2826732739081" lon="17.867907606248906"><ele>1.0</ele><time>2026-03-22T08:15:15.999Z</time></trkpt><trkpt lat="40.282592454207" lon="17.86806679421291"><ele>1.0</ele><time>2026-03-22T08:15:16.999Z</time></trkpt><trkpt lat="40.28251341674125" lon="17.868222937933865"><ele>1.0</ele><time>2026-03-22T08:15:17.999Z</time></trkpt><trkpt lat="40.28243772775244" lon="17.868372554793638"><ele>1.0</ele><time>2026-03-22T08:15:18.999Z</time></trkpt><trkpt lat="40.282365629321085" lon="17.868515074111404"><ele>1.0</ele><time>2026-03-22T08:15:19.999Z</time></trkpt><trkpt lat="40.28228772434053" lon="17.86866649395404"><ele>0.6000000000000001</ele><time>2026-03-22T08:15:20.999Z</time></trkpt><trkpt lat="40.28221856468759" lon="17.86880125951699"><ele>0.20000000000000007</ele><time>2026-03-22T08:15:21.999Z</time></trkpt><trkpt lat="40.2821586865587" lon="17.868913977268022"><ele>-0.20000000000000007</ele><time>2026-03-22T08:15:22.999Z</time></trkpt><trkpt lat="40.28211109812242" lon="17.86903465245479"><ele>-0.6000000000000001</ele><time>2026-03-22T08:15:23.999Z</time></trkpt><trkpt lat="40.282044210968465" lon="17.869133162208133"><ele>-1.0</ele><time>2026-03-22T08:15:24.999Z</time></trkpt><trkpt lat="40.281950004729154" lon="17.86924818314832"><ele>-1.0</ele><time>2026-03-22T08:15:25.999Z</time></trkpt><trkpt lat="40.281846407199225" lon="17.869359142789254"><ele>-1.0</ele><time>2026-03-22T08:15:26.999Z</time></trkpt><trkpt lat="40.2817419045015" lon="17.869455518248177"><ele>-1.0</ele><time>2026-03-22T08:15:27.999Z</time></trkpt><trkpt lat="40.28162897744364" lon="17.86954230066296"><ele>-1.0</ele><time>2026-03-22T08:15:28.999Z</time></trkpt><trkpt lat="40.28150375300212" lon="17.86962083378611"><ele>-0.25</ele><time>2026-03-22T08:15:29.999Z</time></trkpt><trkpt lat="40.28140217200806" lon="17.869703974535824"><ele>0.5</ele><time>2026-03-22T08:15:30.999Z</time></trkpt><trkpt lat="40.28129537902137" lon="17.869783721135217"><ele>1.25</ele><time>2026-03-22T08:15:31.999Z</time></trkpt><trkpt lat="40.28118597627746" lon="17.869839180926167"><ele>2.0</ele><time>2026-03-22T08:15:32.999Z</time></trkpt><trkpt lat="40.28106843875831" lon="17.869883122126918"><ele>2.0</ele><time>2026-03-22T08:15:33.999Z</time></trkpt><trkpt lat="40.28093310117478" lon="17.869880743796863"><ele>2.0</ele><time>2026-03-22T08:15:34.999Z</time></trkpt><trkpt lat="40.28080049977914" lon="17.869917755261117"><ele>2.0</ele><time>2026-03-22T08:15:35.999Z</time></trkpt><trkpt lat="40.280673214163436" lon="17.869951082680537"><ele>2.0</ele><time>2026-03-22T08:15:36.999Z</time></trkpt><trkpt lat="40.28056946309129" lon="17.86997648520341"><ele>1.75</ele><time>2026-03-22T08:15:37.999Z</time></trkpt><trkpt lat="40.28045693666676" lon="17.870003013078218"><ele>1.5</ele><time>2026-03-22T08:15:38.999Z</time></trkpt><trkpt lat="40.28033383963862" lon="17.870032032963113"><ele>1.25</ele><time>2026-03-22T08:15:39.999Z</time></trkpt><trkpt lat="40.280200263667176" lon="17.87006384260364"><ele>1.0</ele><time>2026-03-22T08:15:40.999Z</time></trkpt><trkpt lat="40.28007058589078" lon="17.870093833230538"><ele>0.75</ele><time>2026-03-22T08:15:41.999Z</time></trkpt><trkpt lat="40.27993674256561" lon="17.87012478722265"><ele>0.5</ele><time>2026-03-22T08:15:42.999Z</time></trkpt><trkpt lat="40.27979500598761" lon="17.87015892775685"><ele>0.25</ele><time>2026-03-22T08:15:43.999Z</time></trkpt><trkpt lat="40.279651833008046" lon="17.870193036973834"><ele>0.0</ele><time>2026-03-22T08:15:44.999Z</time></trkpt><trkpt lat="40.27950394154095" lon="17.870228345468366"><ele>-0.25</ele><time>2026-03-22T08:15:45.999Z</time></trkpt><trkpt lat="40.279358154364516" lon="17.87026366204867"><ele>-0.5</ele><time>2026-03-22T08:15:46.999Z</time></trkpt><trkpt lat="40.27921576535789" lon="17.87029815543006"><ele>-0.75</ele><time>2026-03-22T08:15:47.999Z</time></trkpt><trkpt lat="40.27907689100634" lon="17.870331797395874"><ele>-1.0</ele><time>2026-03-22T08:15:48.999Z</time></trkpt><trkpt lat="40.27895161484272" lon="17.8703621452362"><ele>-1.0</ele><time>2026-03-22T08:15:49.999Z</time></trkpt><trkpt lat="40.278814887200625" lon="17.87039526716858"><ele>-1.0</ele><time>2026-03-22T08:15:50.999Z</time></trkpt><trkpt lat="40.27867774585015" lon="17.870428350954885"><ele>-1.0</ele><time>2026-03-22T08:15:51.999Z</time></trkpt><trkpt lat="40.27854113103299" lon="17.870461751223214"><ele>-1.0</ele><time>2026-03-22T08:15:52.998Z</time></trkpt><trkpt lat="40.27840967049655" lon="17.87049389134712"><ele>-1.0</ele><time>2026-03-22T08:15:53.998Z</time></trkpt><trkpt lat="40.27828061836221" lon="17.87052544413914"><ele>-1.0</ele><time>2026-03-22T08:15:54.998Z</time></trkpt><trkpt lat="40.2781553118571" lon="17.870555428961467"><ele>-1.0</ele><time>2026-03-22T08:15:55.998Z</time></trkpt><trkpt lat="40.27802182938126" lon="17.870586439825505"><ele>-1.0</ele><time>2026-03-22T08:15:56.998Z</time></trkpt><trkpt lat="40.27787923933339" lon="17.870619566610717"><ele>-0.75</ele><time>2026-03-22T08:15:57.998Z</time></trkpt><trkpt lat="40.2777365918694" lon="17.87065270670188"><ele>-0.5</ele><time>2026-03-22T08:15:58.998Z</time></trkpt><trkpt lat="40.27760027784666" lon="17.870684375389175"><ele>-0.25</ele><time>2026-03-22T08:15:59.998Z</time></trkpt><trkpt lat="40.27747912324563" lon="17.870714254254747"><ele>0.0</ele><time>2026-03-22T08:16:00.998Z</time></trkpt><trkpt lat="40.27738297708723" lon="17.87073825050527"><ele>0.0</ele><time>2026-03-22T08:16:01.998Z</time></trkpt><trkpt lat="40.277315305137094" lon="17.870755140138996"><ele>0.0</ele><time>2026-03-22T08:16:02.998Z</time></trkpt><trkpt lat="40.27723471009245" lon="17.87077525512958"><ele>0.0</ele><time>2026-03-22T08:16:06.998Z</time></trkpt><trkpt lat="40.277118567758045" lon="17.87080424204308"><ele>0.0</ele><time>2026-03-22T08:16:08.998Z</time></trkpt><trkpt lat="40.27704969628286" lon="17.87082143105398"><ele>0.0</ele><time>2026-03-22T08:16:09.998Z</time></trkpt><trkpt lat="40.276976050072506" lon="17.870839811761133"><ele>0.0</ele><time>2026-03-22T08:16:10.998Z</time></trkpt><trkpt lat="40.276888619644474" lon="17.87085966753811"><ele>0.0</ele><time>2026-03-22T08:16:11.998Z</time></trkpt><trkpt lat="40.27679961774114" lon="17.87088002552903"><ele>0.0</ele><time>2026-03-22T08:16:12.998Z</time></trkpt><trkpt lat="40.27672464616178" lon="17.870897174269437"><ele>0.0</ele><time>2026-03-22T08:16:13.998Z</time></trkpt><trkpt lat="40.27661667188377" lon="17.870921871944986"><ele>0.0</ele><time>2026-03-22T08:16:15.998Z</time></trkpt><trkpt lat="40.27654956464904" lon="17.870937611483846"><ele>0.0</ele><time>2026-03-22T08:16:16.998Z</time></trkpt><trkpt lat="40.27647199301995" lon="17.870955785983885"><ele>0.0</ele><time>2026-03-22T08:16:17.998Z</time></trkpt><trkpt lat="40.27639288123675" lon="17.87097432133927"><ele>0.16666666666666666</ele><time>2026-03-22T08:16:18.998Z</time></trkpt><trkpt lat="40.276308377884256" lon="17.87099422625079"><ele>0.3333333333333333</ele><time>2026-03-22T08:16:19.998Z</time></trkpt><trkpt lat="40.276239572746974" lon="17.87101097530595"><ele>0.5</ele><time>2026-03-22T08:16:20.998Z</time></trkpt><trkpt lat="40.276177706796275" lon="17.871027695744406"><ele>0.6666666666666666</ele><time>2026-03-22T08:16:21.998Z</time></trkpt><trkpt lat="40.276044440793555" lon="17.871072840164462"><ele>0.8333333333333333</ele><time>2026-03-22T08:16:24Z</time></trkpt><trkpt lat="40.27596295088629" lon="17.871109660795504"><ele>1.0</ele><time>2026-03-22T08:16:25Z</time></trkpt><trkpt lat="40.27587486503642" lon="17.871153294674635"><ele>1.0</ele><time>2026-03-22T08:16:26Z</time></trkpt><trkpt lat="40.27577509096071" lon="17.87121339787726"><ele>1.0</ele><time>2026-03-22T08:16:27Z</time></trkpt><trkpt lat="40.27567624017404" lon="17.8712953799509"><ele>1.0</ele><time>2026-03-22T08:16:28Z</time></trkpt><trkpt lat="40.275580881782375" lon="17.871385730433133"><ele>1.0</ele><time>2026-03-22T08:16:29Z</time></trkpt><trkpt lat="40.27548233399048" lon="17.87148898321444"><ele>1.0</ele><time>2026-03-22T08:16:30Z</time></trkpt><trkpt lat="40.27539088602643" lon="17.87159944052085"><ele>1.0</ele><time>2026-03-22T08:16:31Z</time></trkpt><trkpt lat="40.27531353612755" lon="17.871729760651675"><ele>1.0</ele><time>2026-03-22T08:16:32Z</time></trkpt><trkpt lat="40.27524935694734" lon="17.87187094230678"><ele>1.0</ele><time>2026-03-22T08:16:33Z</time></trkpt><trkpt lat="40.275194218058786" lon="17.872000651561496"><ele>1.0</ele><time>2026-03-22T08:16:34Z</time></trkpt><trkpt lat="40.27515606626492" lon="17.872104286179187"><ele>1.0</ele><time>2026-03-22T08:16:35Z</time></trkpt><trkpt lat="40.2751208127349" lon="17.87220177893611"><ele>1.0</ele><time>2026-03-22T08:16:37Z</time></trkpt><trkpt lat="40.27508645615771" lon="17.87230167939531"><ele>1.0</ele><time>2026-03-22T08:16:39Z</time></trkpt><trkpt lat="40.27504205125911" lon="17.87244564741243"><ele>1.0</ele><time>2026-03-22T08:16:41Z</time></trkpt><trkpt lat="40.275012031163925" lon="17.872549511158255"><ele>1.4</ele><time>2026-03-22T08:16:42Z</time></trkpt><trkpt lat="40.274981111710176" lon="17.87265852206513"><ele>1.8</ele><time>2026-03-22T08:16:43Z</time></trkpt><trkpt lat="40.274945382098906" lon="17.87278449247433"><ele>2.1999999999999997</ele><time>2026-03-22T08:16:44Z</time></trkpt><trkpt lat="40.27490204195361" lon="17.872923308499043"><ele>2.6</ele><time>2026-03-22T08:16:45Z</time></trkpt><trkpt lat="40.2748599652946" lon="17.873061611337857"><ele>3.0</ele><time>2026-03-22T08:16:46Z</time></trkpt><trkpt lat="40.27481365974002" lon="17.873212220356276"><ele>3.25</ele><time>2026-03-22T08:16:47Z</time></trkpt><trkpt lat="40.274764866711145" lon="17.87337091986444"><ele>3.5</ele><time>2026-03-22T08:16:48Z</time></trkpt><trkpt lat="40.27471751239203" lon="17.873524939954724"><ele>3.75</ele><time>2026-03-22T08:16:49Z</time></trkpt><trkpt lat="40.274675212407885" lon="17.87366252077357"><ele>4.0</ele><time>2026-03-22T08:16:50Z</time></trkpt><trkpt lat="40.274631917585474" lon="17.873803337389994"><ele>4.0</ele><time>2026-03-22T08:16:51Z</time></trkpt><trkpt lat="40.274584094987475" lon="17.87395888060978"><ele>4.0</ele><time>2026-03-22T08:16:52Z</time></trkpt><trkpt lat="40.27453511496425" lon="17.874118496536607"><ele>4.0</ele><time>2026-03-22T08:16:53Z</time></trkpt><trkpt lat="40.2744862728026" lon="17.874279862087334"><ele>4.0</ele><time>2026-03-22T08:16:54Z</time></trkpt><trkpt lat="40.27443769447061" lon="17.874440355983555"><ele>4.0</ele><time>2026-03-22T08:16:55Z</time></trkpt><trkpt lat="40.27438954345357" lon="17.874599438115904"><ele>4.0</ele><time>2026-03-22T08:16:56Z</time></trkpt><trkpt lat="40.27434116912612" lon="17.874759668483385"><ele>4.0</ele><time>2026-03-22T08:16:57Z</time></trkpt><trkpt lat="40.274293027551124" lon="17.87492453243652"><ele>4.0</ele><time>2026-03-22T08:16:58Z</time></trkpt><trkpt lat="40.274246857311816" lon="17.875082645408472"><ele>3.6</ele><time>2026-03-22T08:16:59Z</time></trkpt><trkpt lat="40.27420115788968" lon="17.87524279308901"><ele>3.2</ele><time>2026-03-22T08:17:00Z</time></trkpt><trkpt lat="40.27415968166283" lon="17.875388617564322"><ele>2.8000000000000003</ele><time>2026-03-22T08:17:01Z</time></trkpt><trkpt lat="40.27412703181459" lon="17.8755034097769"><ele>2.4000000000000004</ele><time>2026-03-22T08:17:02Z</time></trkpt><trkpt lat="40.2740992106305" lon="17.87560122507586"><ele>2.0</ele><time>2026-03-22T08:17:02.999Z</time></trkpt><trkpt lat="40.27407525831378" lon="17.87568543843783"><ele>1.9999999999999998</ele><time>2026-03-22T08:17:03.999Z</time></trkpt><trkpt lat="40.27404314333774" lon="17.875788650967856"><ele>2.0</ele><time>2026-03-22T08:17:05.999Z</time></trkpt><trkpt lat="40.27403712407911" lon="17.87588434562619"><ele>2.0</ele><time>2026-03-22T08:17:08.999Z</time></trkpt><trkpt lat="40.274016138377945" lon="17.87597026616865"><ele>2.0</ele><time>2026-03-22T08:17:09.999Z</time></trkpt><trkpt lat="40.27398918702917" lon="17.876072518188696"><ele>1.9999999999999998</ele><time>2026-03-22T08:17:10.999Z</time></trkpt><trkpt lat="40.27395909490613" lon="17.876182101767235"><ele>2.0</ele><time>2026-03-22T08:17:11.999Z</time></trkpt><trkpt lat="40.2739277666338" lon="17.876314170322"><ele>1.5</ele><time>2026-03-22T08:17:12.999Z</time></trkpt><trkpt lat="40.27388556618153" lon="17.876468338326635"><ele>1.0</ele><time>2026-03-22T08:17:13.999Z</time></trkpt><trkpt lat="40.27383622330453" lon="17.876630960354582"><ele>0.5</ele><time>2026-03-22T08:17:14.999Z</time></trkpt><trkpt lat="40.27378591525003" lon="17.876783673984466"><ele>0.0</ele><time>2026-03-22T08:17:15.999Z</time></trkpt><trkpt lat="40.273725702628106" lon="17.876962585982803"><ele>0.0</ele><time>2026-03-22T08:17:16.999Z</time></trkpt><trkpt lat="40.273662372432" lon="17.877163780095227"><ele>0.0</ele><time>2026-03-22T08:17:17.999Z</time></trkpt><trkpt lat="40.27360534232778" lon="17.87737330598539"><ele>0.0</ele><time>2026-03-22T08:17:18.999Z</time></trkpt><trkpt lat="40.27354723922384" lon="17.877596257471335"><ele>1.0</ele><time>2026-03-22T08:17:19.999Z</time></trkpt><trkpt lat="40.27348253698738" lon="17.877808529339376"><ele>2.0</ele><time>2026-03-22T08:17:20.999Z</time></trkpt><trkpt lat="40.273421641435846" lon="17.87800184916316"><ele>3.0</ele><time>2026-03-22T08:17:21.999Z</time></trkpt><trkpt lat="40.27336429481463" lon="17.878176584517547"><ele>3.0</ele><time>2026-03-22T08:17:22.999Z</time></trkpt><trkpt lat="40.2732768162654" lon="17.878317362226174"><ele>3.0</ele><time>2026-03-22T08:17:23.999Z</time></trkpt><trkpt lat="40.27321902512491" lon="17.878463636178683"><ele>3.0</ele><time>2026-03-22T08:17:24.999Z</time></trkpt><trkpt lat="40.273149247868325" lon="17.87860395173536"><ele>3.0</ele><time>2026-03-22T08:17:25.999Z</time></trkpt><trkpt lat="40.27306714690252" lon="17.878751876738757"><ele>2.75</ele><time>2026-03-22T08:17:26.999Z</time></trkpt><trkpt lat="40.27297502904024" lon="17.878906903826387"><ele>2.5</ele><time>2026-03-22T08:17:27.999Z</time></trkpt><trkpt lat="40.27288215703759" lon="17.879049714484587"><ele>2.25</ele><time>2026-03-22T08:17:28.999Z</time></trkpt><trkpt lat="40.27280633446401" lon="17.879165543948535"><ele>2.0</ele><time>2026-03-22T08:17:29.999Z</time></trkpt><trkpt lat="40.27274317916379" lon="17.879262018345973"><ele>2.2</ele><time>2026-03-22T08:17:30.999Z</time></trkpt><trkpt lat="40.2726814802868" lon="17.879356388241213"><ele>2.4000000000000004</ele><time>2026-03-22T08:17:31.999Z</time></trkpt><trkpt lat="40.27262352553291" lon="17.879444980283715"><ele>2.5999999999999996</ele><time>2026-03-22T08:17:32.999Z</time></trkpt><trkpt lat="40.272588640905866" lon="17.879574762191048"><ele>2.8</ele><time>2026-03-22T08:17:33.999Z</time></trkpt><trkpt lat="40.27251576814406" lon="17.879683844744555"><ele>3.0</ele><time>2026-03-22T08:17:34.999Z</time></trkpt><trkpt lat="40.27243051603313" lon="17.879807715537222"><ele>3.0</ele><time>2026-03-22T08:17:35.999Z</time></trkpt><trkpt lat="40.272345434394715" lon="17.879941426761487"><ele>3.0</ele><time>2026-03-22T08:17:36.999Z</time></trkpt><trkpt lat="40.27223475957737" lon="17.880049628283565"><ele>3.0</ele><time>2026-03-22T08:17:37.999Z</time></trkpt><trkpt lat="40.27215889018023" lon="17.880166729917587"><ele>3.0</ele><time>2026-03-22T08:17:38.999Z</time></trkpt><trkpt lat="40.27208850418812" lon="17.88027444314179"><ele>3.0</ele><time>2026-03-22T08:17:39.999Z</time></trkpt><trkpt lat="40.272021568965435" lon="17.880376615496342"><ele>3.0</ele><time>2026-03-22T08:17:40.999Z</time></trkpt><trkpt lat="40.27195181663231" lon="17.880482793399207"><ele>3.0</ele><time>2026-03-22T08:17:41.999Z</time></trkpt><trkpt lat="40.271878650320645" lon="17.88059351667184"><ele>3.0</ele><time>2026-03-22T08:17:42.999Z</time></trkpt><trkpt lat="40.271801835544785" lon="17.88070976121289"><ele>3.0</ele><time>2026-03-22T08:17:43.999Z</time></trkpt><trkpt lat="40.271721078276805" lon="17.8808320251055"><ele>3.0</ele><time>2026-03-22T08:17:44.999Z</time></trkpt><trkpt lat="40.271638423606795" lon="17.880960155864003"><ele>3.0</ele><time>2026-03-22T08:17:45.999Z</time></trkpt><trkpt lat="40.271551785812974" lon="17.881094461211894"><ele>3.0</ele><time>2026-03-22T08:17:46.999Z</time></trkpt><trkpt lat="40.27146812530229" lon="17.881224151212624"><ele>3.0</ele><time>2026-03-22T08:17:47.999Z</time></trkpt><trkpt lat="40.27138555650551" lon="17.881352075979358"><ele>3.0</ele><time>2026-03-22T08:17:48.999Z</time></trkpt><trkpt lat="40.2712991476383" lon="17.88148117637156"><ele>3.0</ele><time>2026-03-22T08:17:49.999Z</time></trkpt><trkpt lat="40.271211614196616" lon="17.881609577644276"><ele>3.0</ele><time>2026-03-22T08:17:50.999Z</time></trkpt><trkpt lat="40.27112029537303" lon="17.88174291056738"><ele>3.0</ele><time>2026-03-22T08:17:51.999Z</time></trkpt><trkpt lat="40.27103523324044" lon="17.88187703687461"><ele>3.0</ele><time>2026-03-22T08:17:52.999Z</time></trkpt><trkpt lat="40.270951289328856" lon="17.882007921173297"><ele>3.0</ele><time>2026-03-22T08:17:53.999Z</time></trkpt><trkpt lat="40.27086526599901" lon="17.882135343921025"><ele>3.0</ele><time>2026-03-22T08:17:54.999Z</time></trkpt><trkpt lat="40.270784412339815" lon="17.882255109650483"><ele>3.0</ele><time>2026-03-22T08:17:55.998Z</time></trkpt><trkpt lat="40.27069997365408" lon="17.882379256467015"><ele>3.0</ele><time>2026-03-22T08:17:56.998Z</time></trkpt><trkpt lat="40.270616921703805" lon="17.882500638412903"><ele>3.0</ele><time>2026-03-22T08:17:57.998Z</time></trkpt><trkpt lat="40.270530760754745" lon="17.882616928698923"><ele>3.0</ele><time>2026-03-22T08:17:58.998Z</time></trkpt><trkpt lat="40.270440190514485" lon="17.88273033797931"><ele>3.0</ele><time>2026-03-22T08:17:59.998Z</time></trkpt><trkpt lat="40.27034931775947" lon="17.88284421422415"><ele>2.75</ele><time>2026-03-22T08:18:00.998Z</time></trkpt><trkpt lat="40.27025232110985" lon="17.882963993532098"><ele>2.5</ele><time>2026-03-22T08:18:01.998Z</time></trkpt><trkpt lat="40.27015255762121" lon="17.883075329931025"><ele>2.25</ele><time>2026-03-22T08:18:02.998Z</time></trkpt><trkpt lat="40.270041153114" lon="17.883181356574863"><ele>2.0</ele><time>2026-03-22T08:18:03.998Z</time></trkpt><trkpt lat="40.269924765893805" lon="17.88329192060226"><ele>2.0</ele><time>2026-03-22T08:18:04.998Z</time></trkpt><trkpt lat="40.26980295941038" lon="17.88340408033665"><ele>2.0</ele><time>2026-03-22T08:18:05.998Z</time></trkpt><trkpt lat="40.26968191185246" lon="17.88351291992345"><ele>2.0</ele><time>2026-03-22T08:18:06.998Z</time></trkpt><trkpt lat="40.26956617893567" lon="17.883615256787905"><ele>2.0</ele><time>2026-03-22T08:18:07.998Z</time></trkpt><trkpt lat="40.26945925298298" lon="17.883710593672067"><ele>1.5</ele><time>2026-03-22T08:18:08.998Z</time></trkpt><trkpt lat="40.26936453821942" lon="17.883799675667444"><ele>1.0</ele><time>2026-03-22T08:18:09.998Z</time></trkpt><trkpt lat="40.2692741309783" lon="17.883885186872188"><ele>0.5</ele><time>2026-03-22T08:18:10.998Z</time></trkpt><trkpt lat="40.269180709306724" lon="17.883973549199723"><ele>0.0</ele><time>2026-03-22T08:18:11.998Z</time></trkpt><trkpt lat="40.26907995197121" lon="17.8840688499606"><ele>0.0</ele><time>2026-03-22T08:18:12.998Z</time></trkpt><trkpt lat="40.26897732890656" lon="17.88416522885153"><ele>0.0</ele><time>2026-03-22T08:18:13.998Z</time></trkpt><trkpt lat="40.268869470208635" lon="17.88426350926327"><ele>0.0</ele><time>2026-03-22T08:18:14.998Z</time></trkpt><trkpt lat="40.26875454147585" lon="17.884368231838636"><ele>0.0</ele><time>2026-03-22T08:18:15.998Z</time></trkpt><trkpt lat="40.26865352816725" lon="17.88446027474759"><ele>0.0</ele><time>2026-03-22T08:18:16.998Z</time></trkpt><trkpt lat="40.26856033138108" lon="17.88454377854226"><ele>0.0</ele><time>2026-03-22T08:18:17.998Z</time></trkpt><trkpt lat="40.26846797879642" lon="17.884621136320977"><ele>0.0</ele><time>2026-03-22T08:18:18.998Z</time></trkpt><trkpt lat="40.26837028195148" lon="17.884691463446902"><ele>0.0</ele><time>2026-03-22T08:18:19.998Z</time></trkpt><trkpt lat="40.26831136350164" lon="17.88479462239781"><ele>0.0</ele><time>2026-03-22T08:18:20.998Z</time></trkpt><trkpt lat="40.268234507160116" lon="17.88483189032494"><ele>0.0</ele><time>2026-03-22T08:18:21.998Z</time></trkpt><trkpt lat="40.26815368523068" lon="17.884869641787294"><ele>0.0</ele><time>2026-03-22T08:18:22.998Z</time></trkpt><trkpt lat="40.26807610643473" lon="17.884901756263442"><ele>0.0</ele><time>2026-03-22T08:18:23.998Z</time></trkpt><trkpt lat="40.26799993814282" lon="17.884928042725416"><ele>0.0</ele><time>2026-03-22T08:18:24.998Z</time></trkpt><trkpt lat="40.26793378659825" lon="17.88495581998208"><ele>0.0</ele><time>2026-03-22T08:18:25.998Z</time></trkpt><trkpt lat="40.26782147249863" lon="17.88499433306244"><ele>0.0</ele><time>2026-03-22T08:18:27.998Z</time></trkpt><trkpt lat="40.267709963263215" lon="17.885020262278537"><ele>0.0</ele><time>2026-03-22T08:18:30Z</time></trkpt><trkpt lat="40.267600768822135" lon="17.88501345530122"><ele>0.0</ele><time>2026-03-22T08:18:32Z</time></trkpt><trkpt lat="40.26750304663548" lon="17.88500060010495"><ele>0.0</ele><time>2026-03-22T08:18:34Z</time></trkpt><trkpt lat="40.267413739618405" lon="17.884990139029487"><ele>0.0</ele><time>2026-03-22T08:18:36Z</time></trkpt><trkpt lat="40.26734434662244" lon="17.884940172073534"><ele>0.0</ele><time>2026-03-22T08:18:38Z</time></trkpt><trkpt lat="40.26726818394532" lon="17.884926727745697"><ele>1.0</ele><time>2026-03-22T08:18:41Z</time></trkpt></trkseg><trkseg><trkpt lat="40.26659819912716" lon="17.888690708127157"><ele>3.0</ele><time>2026-03-22T08:24:11.999Z</time></trkpt><trkpt lat="40.26663858748706" lon="17.88882047913147"><ele>3.0</ele><time>2026-03-22T08:24:13.999Z</time></trkpt><trkpt lat="40.26661992076809" lon="17.888959161953895"><ele>3.0</ele><time>2026-03-22T08:24:15.999Z</time></trkpt><trkpt lat="40.26654490984028" lon="17.88901021070672"><ele>3.0</ele><time>2026-03-22T08:24:16.999Z</time></trkpt><trkpt lat="40.26647171703949" lon="17.88906211592109"><ele>3.0</ele><time>2026-03-22T08:24:17.999Z</time></trkpt><trkpt lat="40.26639143575409" lon="17.889119048023293"><ele>3.4</ele><time>2026-03-22T08:24:18.999Z</time></trkpt><trkpt lat="40.266312321743115" lon="17.88917515234564"><ele>3.8</ele><time>2026-03-22T08:24:19.999Z</time></trkpt><trkpt lat="40.26624058998182" lon="17.889226021463955"><ele>4.2</ele><time>2026-03-22T08:24:20.999Z</time></trkpt><trkpt lat="40.26617338883246" lon="17.889273677690227"><ele>4.6</ele><time>2026-03-22T08:24:21.999Z</time></trkpt><trkpt lat="40.26609592179332" lon="17.889328614275733"><ele>5.0</ele><time>2026-03-22T08:24:26Z</time></trkpt><trkpt lat="40.265998185913396" lon="17.889421031962808"><ele>5.0</ele><time>2026-03-22T08:24:28Z</time></trkpt><trkpt lat="40.26591753930523" lon="17.889455733453048"><ele>5.0</ele><time>2026-03-22T08:24:29Z</time></trkpt><trkpt lat="40.26584119347749" lon="17.889510114224617"><ele>5.0</ele><time>2026-03-22T08:24:30Z</time></trkpt><trkpt lat="40.26575885685813" lon="17.8895687622926"><ele>5.0</ele><time>2026-03-22T08:24:31Z</time></trkpt><trkpt lat="40.2657011448005" lon="17.88960987037427"><ele>5.0</ele><time>2026-03-22T08:24:32Z</time></trkpt><trkpt lat="40.26561015949218" lon="17.88967467930644"><ele>5.0</ele><time>2026-03-22T08:24:37Z</time></trkpt><trkpt lat="40.265547025037385" lon="17.88972013637152"><ele>5.0</ele><time>2026-03-22T08:24:38Z</time></trkpt><trkpt lat="40.265461117314686" lon="17.889781715745688"><ele>5.0</ele><time>2026-03-22T08:24:39Z</time></trkpt><trkpt lat="40.26539271640131" lon="17.889830746025552"><ele>5.0</ele><time>2026-03-22T08:24:40Z</time></trkpt><trkpt lat="40.26531333698953" lon="17.88988764579158"><ele>5.0</ele><time>2026-03-22T08:24:41Z</time></trkpt><trkpt lat="40.26524909249822" lon="17.889936920985367"><ele>5.0</ele><time>2026-03-22T08:24:42Z</time></trkpt><trkpt lat="40.265163946362414" lon="17.889992655734524"><ele>5.0</ele><time>2026-03-22T08:24:44Z</time></trkpt><trkpt lat="40.26509350264492" lon="17.890043360406796"><ele>5.2</ele><time>2026-03-22T08:24:45Z</time></trkpt><trkpt lat="40.265022863546136" lon="17.890093263757592"><ele>5.4</ele><time>2026-03-22T08:24:46Z</time></trkpt><trkpt lat="40.26493429691539" lon="17.890165170901202"><ele>5.6</ele><time>2026-03-22T08:24:47Z</time></trkpt><trkpt lat="40.26484055733749" lon="17.890230550026335"><ele>5.8</ele><time>2026-03-22T08:24:48Z</time></trkpt><trkpt lat="40.264744722487585" lon="17.890295590122047"><ele>6.0</ele><time>2026-03-22T08:24:49Z</time></trkpt><trkpt lat="40.26467059515882" lon="17.890352880969044"><ele>6.0</ele><time>2026-03-22T08:24:50Z</time></trkpt><trkpt lat="40.26460842638702" lon="17.890406132675565"><ele>6.0</ele><time>2026-03-22T08:24:50.999Z</time></trkpt><trkpt lat="40.264539884050066" lon="17.890462285744647"><ele>6.0</ele><time>2026-03-22T08:24:51.999Z</time></trkpt><trkpt lat="40.26445945592304" lon="17.890507586087395"><ele>6.0</ele><time>2026-03-22T08:24:52.999Z</time></trkpt><trkpt lat="40.26437276763952" lon="17.890569629650777"><ele>6.0</ele><time>2026-03-22T08:24:53.999Z</time></trkpt><trkpt lat="40.26431190233087" lon="17.890616170481284"><ele>6.0</ele><time>2026-03-22T08:24:54.999Z</time></trkpt><trkpt lat="40.26424532471084" lon="17.890625090515517"><ele>6.0</ele><time>2026-03-22T08:24:56.999Z</time></trkpt><trkpt lat="40.26415862738558" lon="17.89052600533122"><ele>6.0</ele><time>2026-03-22T08:24:58.999Z</time></trkpt><trkpt lat="40.26410755931881" lon="17.89042586529015"><ele>6.0</ele><time>2026-03-22T08:24:59.999Z</time></trkpt><trkpt lat="40.26405363537482" lon="17.890307363109486"><ele>6.0</ele><time>2026-03-22T08:25:00.999Z</time></trkpt><trkpt lat="40.26398499343732" lon="17.890198538720995"><ele>6.0</ele><time>2026-03-22T08:25:01.999Z</time></trkpt><trkpt lat="40.26390154393929" lon="17.890092047801534"><ele>6.0</ele><time>2026-03-22T08:25:02.999Z</time></trkpt><trkpt lat="40.26381988674299" lon="17.889984990136643"><ele>6.0</ele><time>2026-03-22T08:25:03.999Z</time></trkpt><trkpt lat="40.26375672613409" lon="17.889880451325904"><ele>6.0</ele><time>2026-03-22T08:25:04.999Z</time></trkpt><trkpt lat="40.26370050359028" lon="17.88978954956442"><ele>6.0</ele><time>2026-03-22T08:25:05.999Z</time></trkpt><trkpt lat="40.26364972480352" lon="17.889700823051164"><ele>6.0</ele><time>2026-03-22T08:25:06.999Z</time></trkpt><trkpt lat="40.263593655276175" lon="17.889618099306375"><ele>6.0</ele><time>2026-03-22T08:25:07.999Z</time></trkpt><trkpt lat="40.26353441104861" lon="17.8895367179299"><ele>6.0</ele><time>2026-03-22T08:25:08.999Z</time></trkpt><trkpt lat="40.263472215398735" lon="17.889445879474756"><ele>6.0</ele><time>2026-03-22T08:25:09.999Z</time></trkpt><trkpt lat="40.263412242057065" lon="17.889345048636088"><ele>6.0</ele><time>2026-03-22T08:25:10.999Z</time></trkpt><trkpt lat="40.263352547332495" lon="17.889257923728874"><ele>6.0</ele><time>2026-03-22T08:25:11.999Z</time></trkpt><trkpt lat="40.26330065951984" lon="17.88917467182616"><ele>6.0</ele><time>2026-03-22T08:25:12.999Z</time></trkpt><trkpt lat="40.263254340574726" lon="17.889109829846646"><ele>5.666666666666667</ele><time>2026-03-22T08:25:13.999Z</time></trkpt><trkpt lat="40.263218014805084" lon="17.889041082728664"><ele>5.333333333333333</ele><time>2026-03-22T08:25:14.999Z</time></trkpt><trkpt lat="40.26315423626073" lon="17.888935275341073"><ele>5.0</ele><time>2026-03-22T08:25:16.999Z</time></trkpt><trkpt lat="40.263097379120936" lon="17.888864043617826"><ele>4.666666666666666</ele><time>2026-03-22T08:25:18.999Z</time></trkpt><trkpt lat="40.26302963526922" lon="17.888784751255088"><ele>4.333333333333333</ele><time>2026-03-22T08:25:22.999Z</time></trkpt><trkpt lat="40.262978102994" lon="17.8886991065756"><ele>4.0</ele><time>2026-03-22T08:25:26.999Z</time></trkpt><trkpt lat="40.26291269049339" lon="17.88859992477149"><ele>3.8000000000000003</ele><time>2026-03-22T08:25:28.999Z</time></trkpt><trkpt lat="40.262838747570164" lon="17.888476552114494"><ele>3.6000000000000005</ele><time>2026-03-22T08:25:30.999Z</time></trkpt><trkpt lat="40.26278481773577" lon="17.8883823368964"><ele>3.4</ele><time>2026-03-22T08:25:32.999Z</time></trkpt><trkpt lat="40.262716845424556" lon="17.88830771921386"><ele>3.2</ele><time>2026-03-22T08:25:35.999Z</time></trkpt><trkpt lat="40.26264259451128" lon="17.88828762431852"><ele>3.0</ele><time>2026-03-22T08:25:37.999Z</time></trkpt><trkpt lat="40.26252635983478" lon="17.88824254459844"><ele>2.8333333333333335</ele><time>2026-03-22T08:25:39.999Z</time></trkpt><trkpt lat="40.26246321133762" lon="17.888226999137295"><ele>2.6666666666666665</ele><time>2026-03-22T08:25:40.999Z</time></trkpt><trkpt lat="40.26234869931956" lon="17.88819880931313"><ele>2.5</ele><time>2026-03-22T08:25:42.999Z</time></trkpt><trkpt lat="40.26226407138595" lon="17.888177975943087"><ele>2.333333333333333</ele><time>2026-03-22T08:25:43.999Z</time></trkpt><trkpt lat="40.26217858272104" lon="17.888123124592422"><ele>2.1666666666666665</ele><time>2026-03-22T08:25:44.999Z</time></trkpt><trkpt lat="40.26211289087625" lon="17.888099300795005"><ele>2.0</ele><time>2026-03-22T08:25:45.999Z</time></trkpt><trkpt lat="40.2620498362418" lon="17.88808154599018"><ele>2.0</ele><time>2026-03-22T08:25:46.999Z</time></trkpt><trkpt lat="40.261977514688304" lon="17.888111533236835"><ele>2.0</ele><time>2026-03-22T08:25:47.999Z</time></trkpt><trkpt lat="40.26191045976519" lon="17.888211083728912"><ele>2.0</ele><time>2026-03-22T08:25:49.999Z</time></trkpt><trkpt lat="40.262008277905764" lon="17.888388614411884"><ele>2.0</ele><time>2026-03-22T08:25:50.999Z</time></trkpt><trkpt lat="40.262059613322904" lon="17.888442773050766"><ele>2.0</ele><time>2026-03-22T08:25:51.999Z</time></trkpt><trkpt lat="40.26212039636782" lon="17.888476281552595"><ele>1.9999999999999998</ele><time>2026-03-22T08:25:52.999Z</time></trkpt><trkpt lat="40.26217907478992" lon="17.88852987524083"><ele>2.0</ele><time>2026-03-22T08:25:53.999Z</time></trkpt><trkpt lat="40.26221829139831" lon="17.88861310513853"><ele>2.0</ele><time>2026-03-22T08:25:55.999Z</time></trkpt><trkpt lat="40.262214901316625" lon="17.888710946224574"><ele>2.0</ele><time>2026-03-22T08:25:57.999Z</time></trkpt><trkpt lat="40.26217770861495" lon="17.888833579360565"><ele>1.9999999999999998</ele><time>2026-03-22T08:25:59.999Z</time></trkpt><trkpt lat="40.262132900133615" lon="17.888903851395142"><ele>2.0</ele><time>2026-03-22T08:26:00.999Z</time></trkpt><trkpt lat="40.26204118930265" lon="17.88893657339185"><ele>2.0</ele><time>2026-03-22T08:26:01.999Z</time></trkpt><trkpt lat="40.2619708708248" lon="17.8890233306125"><ele>2.0</ele><time>2026-03-22T08:26:02.999Z</time></trkpt><trkpt lat="40.2619023699941" lon="17.88910826606034"><ele>2.0</ele><time>2026-03-22T08:26:03.999Z</time></trkpt><trkpt lat="40.26184085485644" lon="17.889212509675698"><ele>2.0</ele><time>2026-03-22T08:26:04.999Z</time></trkpt><trkpt lat="40.26177390289949" lon="17.889284086367713"><ele>2.0</ele><time>2026-03-22T08:26:05.999Z</time></trkpt><trkpt lat="40.2617077327286" lon="17.889325072654493"><ele>2.2</ele><time>2026-03-22T08:26:06.999Z</time></trkpt><trkpt lat="40.26164510501265" lon="17.889390178186453"><ele>2.4000000000000004</ele><time>2026-03-22T08:26:07.999Z</time></trkpt><trkpt lat="40.2615709575465" lon="17.889475685461914"><ele>2.5999999999999996</ele><time>2026-03-22T08:26:08.999Z</time></trkpt><trkpt lat="40.261498948329546" lon="17.889563213234243"><ele>2.8</ele><time>2026-03-22T08:26:09.999Z</time></trkpt><trkpt lat="40.26141300275551" lon="17.889657977200553"><ele>3.0</ele><time>2026-03-22T08:26:10.999Z</time></trkpt><trkpt lat="40.261332293977325" lon="17.88974458029618"><ele>2.6666666666666665</ele><time>2026-03-22T08:26:11.999Z</time></trkpt><trkpt lat="40.26126815100047" lon="17.889830562165734"><ele>2.3333333333333335</ele><time>2026-03-22T08:26:12.999Z</time></trkpt><trkpt lat="40.26120990492228" lon="17.889905616591637"><ele>2.0</ele><time>2026-03-22T08:26:13.999Z</time></trkpt><trkpt lat="40.26115596436329" lon="17.88996320740992"><ele>1.6666666666666665</ele><time>2026-03-22T08:26:14.999Z</time></trkpt><trkpt lat="40.26106559057634" lon="17.890071181081012"><ele>1.3333333333333333</ele><time>2026-03-22T08:26:16.999Z</time></trkpt><trkpt lat="40.26100798707419" lon="17.890136135574874"><ele>1.0</ele><time>2026-03-22T08:26:17.999Z</time></trkpt><trkpt lat="40.260939057169566" lon="17.890202262271334"><ele>1.4</ele><time>2026-03-22T08:26:18.999Z</time></trkpt><trkpt lat="40.260860124720324" lon="17.890272397803574"><ele>1.8</ele><time>2026-03-22T08:26:19.999Z</time></trkpt><trkpt lat="40.26077185429391" lon="17.890343514302383"><ele>2.1999999999999997</ele><time>2026-03-22T08:26:21Z</time></trkpt><trkpt lat="40.260680121848964" lon="17.890412771656557"><ele>2.6</ele><time>2026-03-22T08:26:22Z</time></trkpt><trkpt lat="40.26060895782943" lon="17.890470324356883"><ele>3.0</ele><time>2026-03-22T08:26:23Z</time></trkpt><trkpt lat="40.26056054185129" lon="17.89053626578914"><ele>3.0</ele><time>2026-03-22T08:26:24Z</time></trkpt><trkpt lat="40.260496154536085" lon="17.890569410383748"><ele>3.0</ele><time>2026-03-22T08:26:25Z</time></trkpt><trkpt lat="40.26045391641614" lon="17.89064827197271"><ele>3.0</ele><time>2026-03-22T08:26:26Z</time></trkpt><trkpt lat="40.260413620266625" lon="17.89074140456821"><ele>3.0</ele><time>2026-03-22T08:26:27Z</time></trkpt><trkpt lat="40.26036858935678" lon="17.89084768569874"><ele>3.0</ele><time>2026-03-22T08:26:28Z</time></trkpt><trkpt lat="40.26032153229652" lon="17.89096034216327"><ele>3.0</ele><time>2026-03-22T08:26:29Z</time></trkpt><trkpt lat="40.26028697004916" lon="17.89109306888136"><ele>3.2</ele><time>2026-03-22T08:26:30Z</time></trkpt><trkpt lat="40.26022684131108" lon="17.891200296152707"><ele>3.4</ele><time>2026-03-22T08:26:31Z</time></trkpt><trkpt lat="40.26018431468137" lon="17.891307671062915"><ele>3.6000000000000005</ele><time>2026-03-22T08:26:32Z</time></trkpt><trkpt lat="40.26015024727805" lon="17.89139368744759"><ele>3.8000000000000003</ele><time>2026-03-22T08:26:33Z</time></trkpt><trkpt lat="40.26006475650071" lon="17.89148701196213"><ele>4.0</ele><time>2026-03-22T08:26:35Z</time></trkpt><trkpt lat="40.25999315910962" lon="17.891490964504015"><ele>3.9999999999999996</ele><time>2026-03-22T08:26:36Z</time></trkpt><trkpt lat="40.259904441919076" lon="17.891493910112306"><ele>4.0</ele><time>2026-03-22T08:26:37Z</time></trkpt><trkpt lat="40.259809788923754" lon="17.891499444330922"><ele>4.0</ele><time>2026-03-22T08:26:38Z</time></trkpt><trkpt lat="40.25970629599373" lon="17.891515104282384"><ele>4.0</ele><time>2026-03-22T08:26:39Z</time></trkpt><trkpt lat="40.25961916983253" lon="17.8915312776789"><ele>3.9999999999999996</ele><time>2026-03-22T08:26:40Z</time></trkpt><trkpt lat="40.25954866125322" lon="17.89154103444778"><ele>4.0</ele><time>2026-03-22T08:26:41Z</time></trkpt><trkpt lat="40.25945196896675" lon="17.891571469225017"><ele>3.6666666666666665</ele><time>2026-03-22T08:26:43Z</time></trkpt><trkpt lat="40.2593984447658" lon="17.891500355363075"><ele>3.333333333333333</ele><time>2026-03-22T08:26:45Z</time></trkpt><trkpt lat="40.2593396031553" lon="17.891427543367865"><ele>3.0</ele><time>2026-03-22T08:26:48Z</time></trkpt><trkpt lat="40.25927250347818" lon="17.89134589593444"><ele>2.6666666666666665</ele><time>2026-03-22T08:26:50Z</time></trkpt><trkpt lat="40.259161511502406" lon="17.89127592026211"><ele>2.333333333333333</ele><time>2026-03-22T08:26:52Z</time></trkpt><trkpt lat="40.25909687864805" lon="17.891249857465958"><ele>2.0</ele><time>2026-03-22T08:26:53Z</time></trkpt><trkpt lat="40.25902549876435" lon="17.891201428256952"><ele>2.0</ele><time>2026-03-22T08:26:54Z</time></trkpt><trkpt lat="40.2589357256104" lon="17.89119767905566"><ele>2.0</ele><time>2026-03-22T08:26:55Z</time></trkpt><trkpt lat="40.258841955852866" lon="17.891178309119436"><ele>2.0</ele><time>2026-03-22T08:26:56Z</time></trkpt><trkpt lat="40.25872636288872" lon="17.891169187406536"><ele>2.0</ele><time>2026-03-22T08:26:57Z</time></trkpt><trkpt lat="40.25861373549981" lon="17.89117384719762"><ele>2.0</ele><time>2026-03-22T08:26:58Z</time></trkpt><trkpt lat="40.258515743111204" lon="17.891181379967904"><ele>2.0</ele><time>2026-03-22T08:26:59Z</time></trkpt><trkpt lat="40.258419337977585" lon="17.89119188485937"><ele>2.0</ele><time>2026-03-22T08:27:00Z</time></trkpt><trkpt lat="40.25832777276675" lon="17.891195585837394"><ele>2.0</ele><time>2026-03-22T08:27:01Z</time></trkpt><trkpt lat="40.25823672061167" lon="17.891204509945666"><ele>2.0</ele><time>2026-03-22T08:27:02Z</time></trkpt><trkpt lat="40.25814875077618" lon="17.891210698598552"><ele>2.0</ele><time>2026-03-22T08:27:03Z</time></trkpt><trkpt lat="40.25806547595779" lon="17.891206370494764"><ele>2.1666666666666665</ele><time>2026-03-22T08:27:04Z</time></trkpt><trkpt lat="40.25798399768777" lon="17.891190242976286"><ele>2.333333333333333</ele><time>2026-03-22T08:27:05Z</time></trkpt><trkpt lat="40.25790650310667" lon="17.891158789984313"><ele>2.5</ele><time>2026-03-22T08:27:06Z</time></trkpt><trkpt lat="40.25783029482441" lon="17.891121623212673"><ele>2.6666666666666665</ele><time>2026-03-22T08:27:07Z</time></trkpt><trkpt lat="40.257755872682324" lon="17.89107908374678"><ele>2.8333333333333335</ele><time>2026-03-22T08:27:08Z</time></trkpt><trkpt lat="40.25768613094268" lon="17.891032908925705"><ele>3.0</ele><time>2026-03-22T08:27:09Z</time></trkpt><trkpt lat="40.2576204530725" lon="17.89100064918596"><ele>3.0</ele><time>2026-03-22T08:27:10Z</time></trkpt><trkpt lat="40.25753258521305" lon="17.890962429667823"><ele>3.0</ele><time>2026-03-22T08:27:12Z</time></trkpt><trkpt lat="40.257483443637696" lon="17.891049096827402"><ele>3.0</ele><time>2026-03-22T08:27:13Z</time></trkpt><trkpt lat="40.25746313230676" lon="17.891186260592942"><ele>3.0</ele><time>2026-03-22T08:27:15Z</time></trkpt><trkpt lat="40.25742824786978" lon="17.89127470953086"><ele>3.0</ele><time>2026-03-22T08:27:17Z</time></trkpt><trkpt lat="40.2574015008423" lon="17.891366806361457"><ele>3.0</ele><time>2026-03-22T08:27:19Z</time></trkpt><trkpt lat="40.25737528642549" lon="17.891485295211286"><ele>3.0</ele><time>2026-03-22T08:27:21Z</time></trkpt><trkpt lat="40.25734078510235" lon="17.891621410363037"><ele>3.0</ele><time>2026-03-22T08:27:23Z</time></trkpt><trkpt lat="40.25730632469413" lon="17.89175158400492"><ele>3.0</ele><time>2026-03-22T08:27:25Z</time></trkpt><trkpt lat="40.25725705628176" lon="17.89184460555653"><ele>3.0</ele><time>2026-03-22T08:27:27.999Z</time></trkpt><trkpt lat="40.25718272098212" lon="17.891837599418597"><ele>3.0</ele><time>2026-03-22T08:27:30.999Z</time></trkpt><trkpt lat="40.2571383138626" lon="17.891767553879863"><ele>3.0</ele><time>2026-03-22T08:27:33.999Z</time></trkpt><trkpt lat="40.25707711661061" lon="17.891678453123554"><ele>2.5</ele><time>2026-03-22T08:27:36.999Z</time></trkpt><trkpt lat="40.25701852155876" lon="17.891646548012822"><ele>2.0</ele><time>2026-03-22T08:27:38.999Z</time></trkpt><trkpt lat="40.25703544587774" lon="17.891533252546232"><ele>1.5</ele><time>2026-03-22T08:27:41.999Z</time></trkpt><trkpt lat="40.257067931795056" lon="17.891452291456876"><ele>1.0</ele><time>2026-03-22T08:27:43.999Z</time></trkpt><trkpt lat="40.25710200167735" lon="17.891359559345783"><ele>0.5</ele><time>2026-03-22T08:27:46.999Z</time></trkpt><trkpt lat="40.25713371583134" lon="17.89127089024444"><ele>0.0</ele><time>2026-03-22T08:27:50.999Z</time></trkpt><trkpt lat="40.25720744189425" lon="17.89130860153969"><ele>0.0</ele><time>2026-03-22T08:27:54.999Z</time></trkpt><trkpt lat="40.2571946954639" lon="17.89144822922606"><ele>0.0</ele><time>2026-03-22T08:27:57.999Z</time></trkpt><trkpt lat="40.25718436130179" lon="17.89153113626053"><ele>0.0</ele><time>2026-03-22T08:27:58.999Z</time></trkpt><trkpt lat="40.25715783443096" lon="17.891637304063373"><ele>0.0</ele><time>2026-03-22T08:27:59.999Z</time></trkpt><trkpt lat="40.25710218064182" lon="17.891729961482724"><ele>0.0</ele><time>2026-03-22T08:28:01.999Z</time></trkpt><trkpt lat="40.25713240577679" lon="17.891825045600736"><ele>0.0</ele><time>2026-03-22T08:28:03.999Z</time></trkpt><trkpt lat="40.257182254164334" lon="17.891882446507186"><ele>0.3333333333333333</ele><time>2026-03-22T08:28:04.999Z</time></trkpt><trkpt lat="40.25721481272892" lon="17.89196990894984"><ele>0.6666666666666666</ele><time>2026-03-22T08:28:06.999Z</time></trkpt><trkpt lat="40.25720309090864" lon="17.892101211273513"><ele>1.0</ele><time>2026-03-22T08:28:08.999Z</time></trkpt><trkpt lat="40.25745925422982" lon="17.89315606782477"><ele>0.9999999999999999</ele><time>2026-03-22T08:28:41.001Z</time></trkpt><trkpt lat="40.25752470402811" lon="17.89316796117869"><ele>1.0</ele><time>2026-03-22T08:28:42.001Z</time></trkpt><trkpt lat="40.25762679471402" lon="17.893208004727736"><ele>1.0</ele><time>2026-03-22T08:28:44Z</time></trkpt><trkpt lat="40.25769749886819" lon="17.893217023103315"><ele>1.0</ele><time>2026-03-22T08:28:46Z</time></trkpt><trkpt lat="40.257786561441776" lon="17.893240932144536"><ele>0.9999999999999999</ele><time>2026-03-22T08:28:49Z</time></trkpt><trkpt lat="40.25784511019775" lon="17.893286558636795"><ele>1.0</ele><time>2026-03-22T08:28:51Z</time></trkpt><trkpt lat="40.25791486277583" lon="17.893333748435857"><ele>1.0</ele><time>2026-03-22T08:28:53Z</time></trkpt><trkpt lat="40.257988328973624" lon="17.89339797658087"><ele>1.0</ele><time>2026-03-22T08:28:55Z</time></trkpt><trkpt lat="40.25805695452542" lon="17.89347575658599"><ele>4.0</ele><time>2026-03-22T08:28:58Z</time></trkpt></trkseg></trk></gpx>